<?xml version="1.0" encoding="UTF-8" standalone="no" ?><gpx xmlns="http://www.topografix.com/GPX/1/1" xmlns:gpxx="http://www.garmin.com/xmlschemas/GpxExtensions/v3" xmlns:wptx1="http://www.garmin.com/xmlschemas/WaypointExtension/v1" xmlns:gpxtpx="http://www.garmin.com/xmlschemas/TrackPointExtension/v1" creator="GuideVTT.com" version="1.1" xmlns:xsi="http://www.w3.org/2001/XMLSchema-instance" xsi:schemaLocation="http://www.topografix.com/GPX/1/1 http://www.topografix.com/GPX/1/1/gpx.xsd http://www.garmin.com/xmlschemas/GpxExtensions/v3 http://www8.garmin.com/xmlschemas/GpxExtensionsv3.xsd http://www.garmin.com/xmlschemas/WaypointExtension/v1 http://www8.garmin.com/xmlschemas/WaypointExtensionv1.xsd http://www.garmin.com/xmlschemas/TrackPointExtension/v1 http://www.garmin.com/xmlschemas/TrackPointExtensionv1.xsd">
<metadata><link href="http://www.garmin.com"><text>Garmin International</text></link><time>2013-06-22T15:13:50Z</time></metadata>
<trk><name>009-labbaye-nyon.gpx</name><extensions><gpxx:TrackExtension><gpxx:DisplayColor>Cyan</gpxx:DisplayColor></gpxx:TrackExtension></extensions><trkseg>
<trkpt lat="46.64632397" lon="6.31237800"><ele>1004.234985</ele><time>2008-08-01T07:16:21Z</time></trkpt>
<trkpt lat="46.64622699" lon="6.31223501"><ele>1010.963989</ele><time>2008-08-01T07:16:24Z</time></trkpt>
<trkpt lat="46.64594502" lon="6.31186604"><ele>1010.963989</ele><time>2008-08-01T07:16:32Z</time></trkpt>
<trkpt lat="46.64566599" lon="6.31155901"><ele>1010.482971</ele><time>2008-08-01T07:16:39Z</time></trkpt>
<trkpt lat="46.64535703" lon="6.31123798"><ele>1010.482971</ele><time>2008-08-01T07:16:47Z</time></trkpt>
<trkpt lat="46.64505101" lon="6.31088904"><ele>1010.482971</ele><time>2008-08-01T07:16:55Z</time></trkpt>
<trkpt lat="46.64473300" lon="6.31052099"><ele>1010.002014</ele><time>2008-08-01T07:17:03Z</time></trkpt>
<trkpt lat="46.64444701" lon="6.31018999"><ele>1010.002014</ele><time>2008-08-01T07:17:10Z</time></trkpt>
<trkpt lat="46.64415599" lon="6.30985798"><ele>1010.002014</ele><time>2008-08-01T07:17:17Z</time></trkpt>
<trkpt lat="46.64386899" lon="6.30950804"><ele>1010.002014</ele><time>2008-08-01T07:17:24Z</time></trkpt>
<trkpt lat="46.64357102" lon="6.30915499"><ele>1009.521973</ele><time>2008-08-01T07:17:31Z</time></trkpt>
<trkpt lat="46.64327899" lon="6.30879600"><ele>1009.521973</ele><time>2008-08-01T07:17:38Z</time></trkpt>
<trkpt lat="46.64299300" lon="6.30842904"><ele>1010.002014</ele><time>2008-08-01T07:17:45Z</time></trkpt>
<trkpt lat="46.64271799" lon="6.30805504"><ele>1010.002014</ele><time>2008-08-01T07:17:52Z</time></trkpt>
<trkpt lat="46.64244600" lon="6.30769696"><ele>1010.002014</ele><time>2008-08-01T07:17:59Z</time></trkpt>
<trkpt lat="46.64215799" lon="6.30729396"><ele>1010.482971</ele><time>2008-08-01T07:18:07Z</time></trkpt>
<trkpt lat="46.64186798" lon="6.30690202"><ele>1010.963989</ele><time>2008-08-01T07:18:15Z</time></trkpt>
<trkpt lat="46.64159297" lon="6.30651997"><ele>1011.44397</ele><time>2008-08-01T07:18:23Z</time></trkpt>
<trkpt lat="46.64133900" lon="6.30614899"><ele>1012.406006</ele><time>2008-08-01T07:18:31Z</time></trkpt>
<trkpt lat="46.64107497" lon="6.30578899"><ele>1012.406006</ele><time>2008-08-01T07:18:39Z</time></trkpt>
<trkpt lat="46.64080398" lon="6.30540904"><ele>1012.885986</ele><time>2008-08-01T07:18:47Z</time></trkpt>
<trkpt lat="46.64054297" lon="6.30500302"><ele>1013.367004</ele><time>2008-08-01T07:18:55Z</time></trkpt>
<trkpt lat="46.64029998" lon="6.30457797"><ele>1014.328003</ele><time>2008-08-01T07:19:03Z</time></trkpt>
<trkpt lat="46.64007199" lon="6.30414002"><ele>1014.809021</ele><time>2008-08-01T07:19:11Z</time></trkpt>
<trkpt lat="46.63986504" lon="6.30365998"><ele>1015.289978</ele><time>2008-08-01T07:19:19Z</time></trkpt>
<trkpt lat="46.63968198" lon="6.30318004"><ele>1015.77002</ele><time>2008-08-01T07:19:27Z</time></trkpt>
<trkpt lat="46.63950001" lon="6.30269699"><ele>1016.250977</ele><time>2008-08-01T07:19:35Z</time></trkpt>
<trkpt lat="46.63930999" lon="6.30221897"><ele>1017.692993</ele><time>2008-08-01T07:19:43Z</time></trkpt>
<trkpt lat="46.63910396" lon="6.30176199"><ele>1017.692993</ele><time>2008-08-01T07:19:51Z</time></trkpt>
<trkpt lat="46.63887598" lon="6.30132101"><ele>1018.172974</ele><time>2008-08-01T07:19:59Z</time></trkpt>
<trkpt lat="46.63862200" lon="6.30087300"><ele>1018.653992</ele><time>2008-08-01T07:20:07Z</time></trkpt>
<trkpt lat="46.63835596" lon="6.30044896"><ele>1019.13501</ele><time>2008-08-01T07:20:15Z</time></trkpt>
<trkpt lat="46.63808900" lon="6.30002500"><ele>1019.13501</ele><time>2008-08-01T07:20:23Z</time></trkpt>
<trkpt lat="46.63782497" lon="6.29961899"><ele>1019.61499</ele><time>2008-08-01T07:20:31Z</time></trkpt>
<trkpt lat="46.63756496" lon="6.29921800"><ele>1020.096008</ele><time>2008-08-01T07:20:39Z</time></trkpt>
<trkpt lat="46.63730797" lon="6.29881298"><ele>1020.096008</ele><time>2008-08-01T07:20:47Z</time></trkpt>
<trkpt lat="46.63705300" lon="6.29841400"><ele>1020.577026</ele><time>2008-08-01T07:20:55Z</time></trkpt>
<trkpt lat="46.63679400" lon="6.29801402"><ele>1021.057983</ele><time>2008-08-01T07:21:03Z</time></trkpt>
<trkpt lat="46.63653499" lon="6.29761898"><ele>1021.538025</ele><time>2008-08-01T07:21:11Z</time></trkpt>
<trkpt lat="46.63627197" lon="6.29721497"><ele>1021.538025</ele><time>2008-08-01T07:21:19Z</time></trkpt>
<trkpt lat="46.63601196" lon="6.29680200"><ele>1022.018982</ele><time>2008-08-01T07:21:27Z</time></trkpt>
<trkpt lat="46.63575003" lon="6.29639698"><ele>1022.5</ele><time>2008-08-01T07:21:35Z</time></trkpt>
<trkpt lat="46.63549899" lon="6.29601502"><ele>1022.5</ele><time>2008-08-01T07:21:43Z</time></trkpt>
<trkpt lat="46.63535700" lon="6.29579399"><ele>1022.5</ele><time>2008-08-01T07:21:50Z</time></trkpt>
<trkpt lat="46.63524804" lon="6.29562903"><ele>1022.018982</ele><time>2008-08-01T07:21:56Z</time></trkpt>
<trkpt lat="46.63498602" lon="6.29523299"><ele>1022.5</ele><time>2008-08-01T07:22:06Z</time></trkpt>
<trkpt lat="46.63471998" lon="6.29483300"><ele>1022.97998</ele><time>2008-08-01T07:22:15Z</time></trkpt>
<trkpt lat="46.63443801" lon="6.29441500"><ele>1022.97998</ele><time>2008-08-01T07:22:24Z</time></trkpt>
<trkpt lat="46.63417197" lon="6.29402096"><ele>1022.5</ele><time>2008-08-01T07:22:32Z</time></trkpt>
<trkpt lat="46.63389998" lon="6.29361402"><ele>1022.5</ele><time>2008-08-01T07:22:40Z</time></trkpt>
<trkpt lat="46.63363704" lon="6.29320297"><ele>1022.97998</ele><time>2008-08-01T07:22:48Z</time></trkpt>
<trkpt lat="46.63338298" lon="6.29280299"><ele>1022.97998</ele><time>2008-08-01T07:22:56Z</time></trkpt>
<trkpt lat="46.63312398" lon="6.29240703"><ele>1023.460999</ele><time>2008-08-01T07:23:04Z</time></trkpt>
<trkpt lat="46.63286104" lon="6.29200403"><ele>1023.460999</ele><time>2008-08-01T07:23:12Z</time></trkpt>
<trkpt lat="46.63259600" lon="6.29159700"><ele>1023.460999</ele><time>2008-08-01T07:23:20Z</time></trkpt>
<trkpt lat="46.63232401" lon="6.29118101"><ele>1022.97998</ele><time>2008-08-01T07:23:28Z</time></trkpt>
<trkpt lat="46.63204104" lon="6.29075998"><ele>1022.97998</ele><time>2008-08-01T07:23:36Z</time></trkpt>
<trkpt lat="46.63178899" lon="6.29037903"><ele>1022.97998</ele><time>2008-08-01T07:23:43Z</time></trkpt>
<trkpt lat="46.63153402" lon="6.28999799"><ele>1022.5</ele><time>2008-08-01T07:23:50Z</time></trkpt>
<trkpt lat="46.63126797" lon="6.28960102"><ele>1022.5</ele><time>2008-08-01T07:23:57Z</time></trkpt>
<trkpt lat="46.63099498" lon="6.28918997"><ele>1022.5</ele><time>2008-08-01T07:24:04Z</time></trkpt>
<trkpt lat="46.63071997" lon="6.28877297"><ele>1022.97998</ele><time>2008-08-01T07:24:11Z</time></trkpt>
<trkpt lat="46.63044998" lon="6.28835203"><ele>1022.5</ele><time>2008-08-01T07:24:18Z</time></trkpt>
<trkpt lat="46.63019400" lon="6.28791701"><ele>1022.5</ele><time>2008-08-01T07:24:25Z</time></trkpt>
<trkpt lat="46.62995696" lon="6.28746900"><ele>1022.5</ele><time>2008-08-01T07:24:32Z</time></trkpt>
<trkpt lat="46.62974004" lon="6.28700196"><ele>1022.5</ele><time>2008-08-01T07:24:39Z</time></trkpt>
<trkpt lat="46.62953200" lon="6.28653500"><ele>1022.5</ele><time>2008-08-01T07:24:46Z</time></trkpt>
<trkpt lat="46.62932597" lon="6.28607098"><ele>1022.018982</ele><time>2008-08-01T07:24:53Z</time></trkpt>
<trkpt lat="46.62911701" lon="6.28560897"><ele>1022.5</ele><time>2008-08-01T07:25:00Z</time></trkpt>
<trkpt lat="46.62891098" lon="6.28514897"><ele>1022.018982</ele><time>2008-08-01T07:25:07Z</time></trkpt>
<trkpt lat="46.62870596" lon="6.28467497"><ele>1022.5</ele><time>2008-08-01T07:25:14Z</time></trkpt>
<trkpt lat="46.62849197" lon="6.28420701"><ele>1022.018982</ele><time>2008-08-01T07:25:21Z</time></trkpt>
<trkpt lat="46.62826600" lon="6.28373100"><ele>1022.018982</ele><time>2008-08-01T07:25:28Z</time></trkpt>
<trkpt lat="46.62801504" lon="6.28326103"><ele>1021.538025</ele><time>2008-08-01T07:25:35Z</time></trkpt>
<trkpt lat="46.62775001" lon="6.28280397"><ele>1021.057983</ele><time>2008-08-01T07:25:42Z</time></trkpt>
<trkpt lat="46.62748103" lon="6.28236802"><ele>1020.577026</ele><time>2008-08-01T07:25:49Z</time></trkpt>
<trkpt lat="46.62720099" lon="6.28194499"><ele>1020.096008</ele><time>2008-08-01T07:25:56Z</time></trkpt>
<trkpt lat="46.62690897" lon="6.28153796"><ele>1019.61499</ele><time>2008-08-01T07:26:03Z</time></trkpt>
<trkpt lat="46.62661501" lon="6.28113898"><ele>1019.13501</ele><time>2008-08-01T07:26:10Z</time></trkpt>
<trkpt lat="46.62632198" lon="6.28074998"><ele>1018.653992</ele><time>2008-08-01T07:26:17Z</time></trkpt>
<trkpt lat="46.62602602" lon="6.28035896"><ele>1018.653992</ele><time>2008-08-01T07:26:24Z</time></trkpt>
<trkpt lat="46.62572896" lon="6.27996502"><ele>1017.692993</ele><time>2008-08-01T07:26:31Z</time></trkpt>
<trkpt lat="46.62541296" lon="6.27959697"><ele>1017.692993</ele><time>2008-08-01T07:26:38Z</time></trkpt>
<trkpt lat="46.62509001" lon="6.27923998"><ele>1017.211975</ele><time>2008-08-01T07:26:45Z</time></trkpt>
<trkpt lat="46.62477904" lon="6.27886799"><ele>1017.211975</ele><time>2008-08-01T07:26:52Z</time></trkpt>
<trkpt lat="46.62449699" lon="6.27846097"><ele>1017.692993</ele><time>2008-08-01T07:26:59Z</time></trkpt>
<trkpt lat="46.62424101" lon="6.27801798"><ele>1017.692993</ele><time>2008-08-01T07:27:06Z</time></trkpt>
<trkpt lat="46.62401503" lon="6.27755497"><ele>1017.692993</ele><time>2008-08-01T07:27:13Z</time></trkpt>
<trkpt lat="46.62382199" lon="6.27706102"><ele>1017.692993</ele><time>2008-08-01T07:27:20Z</time></trkpt>
<trkpt lat="46.62366098" lon="6.27655702"><ele>1017.692993</ele><time>2008-08-01T07:27:27Z</time></trkpt>
<trkpt lat="46.62351597" lon="6.27604396"><ele>1018.172974</ele><time>2008-08-01T07:27:34Z</time></trkpt>
<trkpt lat="46.62338102" lon="6.27555597"><ele>1018.172974</ele><time>2008-08-01T07:27:41Z</time></trkpt>
<trkpt lat="46.62320500" lon="6.27502397"><ele>1018.172974</ele><time>2008-08-01T07:27:49Z</time></trkpt>
<trkpt lat="46.62302697" lon="6.27456799"><ele>1018.172974</ele><time>2008-08-01T07:27:56Z</time></trkpt>
<trkpt lat="46.62282103" lon="6.27413599"><ele>1018.172974</ele><time>2008-08-01T07:28:03Z</time></trkpt>
<trkpt lat="46.62260301" lon="6.27371002"><ele>1019.13501</ele><time>2008-08-01T07:28:10Z</time></trkpt>
<trkpt lat="46.62239003" lon="6.27328799"><ele>1019.13501</ele><time>2008-08-01T07:28:17Z</time></trkpt>
<trkpt lat="46.62215299" lon="6.27281198"><ele>1019.13501</ele><time>2008-08-01T07:28:25Z</time></trkpt>
<trkpt lat="46.62190899" lon="6.27235601"><ele>1019.61499</ele><time>2008-08-01T07:28:33Z</time></trkpt>
<trkpt lat="46.62167396" lon="6.27189903"><ele>1020.577026</ele><time>2008-08-01T07:28:41Z</time></trkpt>
<trkpt lat="46.62144103" lon="6.27144699"><ele>1020.577026</ele><time>2008-08-01T07:28:49Z</time></trkpt>
<trkpt lat="46.62121296" lon="6.27099697"><ele>1021.538025</ele><time>2008-08-01T07:28:57Z</time></trkpt>
<trkpt lat="46.62099000" lon="6.27056002"><ele>1021.538025</ele><time>2008-08-01T07:29:05Z</time></trkpt>
<trkpt lat="46.62076201" lon="6.27011703"><ele>1022.018982</ele><time>2008-08-01T07:29:13Z</time></trkpt>
<trkpt lat="46.62051802" lon="6.26966198"><ele>1021.538025</ele><time>2008-08-01T07:29:21Z</time></trkpt>
<trkpt lat="46.62028500" lon="6.26923501"><ele>1021.057983</ele><time>2008-08-01T07:29:28Z</time></trkpt>
<trkpt lat="46.62001401" lon="6.26877199"><ele>1019.61499</ele><time>2008-08-01T07:29:35Z</time></trkpt>
<trkpt lat="46.61975803" lon="6.26834200"><ele>1018.172974</ele><time>2008-08-01T07:29:41Z</time></trkpt>
<trkpt lat="46.61958301" lon="6.26804603"><ele>1017.692993</ele><time>2008-08-01T07:29:45Z</time></trkpt>
<trkpt lat="46.61944798" lon="6.26781997"><ele>1016.731018</ele><time>2008-08-01T07:29:48Z</time></trkpt>
<trkpt lat="46.61931102" lon="6.26759400"><ele>1015.77002</ele><time>2008-08-01T07:29:51Z</time></trkpt>
<trkpt lat="46.61912796" lon="6.26728596"><ele>1014.809021</ele><time>2008-08-01T07:29:55Z</time></trkpt>
<trkpt lat="46.61885999" lon="6.26682697"><ele>1014.328003</ele><time>2008-08-01T07:30:01Z</time></trkpt>
<trkpt lat="46.61869797" lon="6.26652698"><ele>1013.367004</ele><time>2008-08-01T07:30:05Z</time></trkpt>
<trkpt lat="46.61846001" lon="6.26606799"><ele>1012.885986</ele><time>2008-08-01T07:30:11Z</time></trkpt>
<trkpt lat="46.61823303" lon="6.26561302"><ele>1012.885986</ele><time>2008-08-01T07:30:17Z</time></trkpt>
<trkpt lat="46.61801099" lon="6.26518001"><ele>1012.885986</ele><time>2008-08-01T07:30:23Z</time></trkpt>
<trkpt lat="46.61779800" lon="6.26475496"><ele>1012.885986</ele><time>2008-08-01T07:30:29Z</time></trkpt>
<trkpt lat="46.61756398" lon="6.26427501"><ele>1012.885986</ele><time>2008-08-01T07:30:36Z</time></trkpt>
<trkpt lat="46.61733398" lon="6.26381099"><ele>1013.846985</ele><time>2008-08-01T07:30:43Z</time></trkpt>
<trkpt lat="46.61709803" lon="6.26335401"><ele>1014.328003</ele><time>2008-08-01T07:30:50Z</time></trkpt>
<trkpt lat="46.61687197" lon="6.26290499"><ele>1014.328003</ele><time>2008-08-01T07:30:57Z</time></trkpt>
<trkpt lat="46.61665496" lon="6.26247299"><ele>1014.809021</ele><time>2008-08-01T07:31:04Z</time></trkpt>
<trkpt lat="46.61643896" lon="6.26203797"><ele>1014.809021</ele><time>2008-08-01T07:31:11Z</time></trkpt>
<trkpt lat="46.61621399" lon="6.26157302"><ele>1014.328003</ele><time>2008-08-01T07:31:18Z</time></trkpt>
<trkpt lat="46.61597896" lon="6.26109299"><ele>1013.846985</ele><time>2008-08-01T07:31:25Z</time></trkpt>
<trkpt lat="46.61574301" lon="6.26061397"><ele>1013.367004</ele><time>2008-08-01T07:31:32Z</time></trkpt>
<trkpt lat="46.61547999" lon="6.26015699"><ele>1012.885986</ele><time>2008-08-01T07:31:39Z</time></trkpt>
<trkpt lat="46.61521998" lon="6.25979598"><ele>1012.406006</ele><time>2008-08-01T07:31:45Z</time></trkpt>
<trkpt lat="46.61493097" lon="6.25946104"><ele>1011.924988</ele><time>2008-08-01T07:31:51Z</time></trkpt>
<trkpt lat="46.61461104" lon="6.25917999"><ele>1010.963989</ele><time>2008-08-01T07:31:57Z</time></trkpt>
<trkpt lat="46.61426897" lon="6.25892702"><ele>1010.482971</ele><time>2008-08-01T07:32:03Z</time></trkpt>
<trkpt lat="46.61392104" lon="6.25865998"><ele>1009.521973</ele><time>2008-08-01T07:32:09Z</time></trkpt>
<trkpt lat="46.61357202" lon="6.25839704"><ele>1009.041016</ele><time>2008-08-01T07:32:15Z</time></trkpt>
<trkpt lat="46.61322601" lon="6.25810903"><ele>1007.598999</ele><time>2008-08-01T07:32:21Z</time></trkpt>
<trkpt lat="46.61288898" lon="6.25773998"><ele>1006.638</ele><time>2008-08-01T07:32:27Z</time></trkpt>
<trkpt lat="46.61260801" lon="6.25730404"><ele>1006.638</ele><time>2008-08-01T07:32:33Z</time></trkpt>
<trkpt lat="46.61239000" lon="6.25684001"><ele>1006.638</ele><time>2008-08-01T07:32:39Z</time></trkpt>
<trkpt lat="46.61222404" lon="6.25644296"><ele>1006.156982</ele><time>2008-08-01T07:32:44Z</time></trkpt>
<trkpt lat="46.61203302" lon="6.25597601"><ele>1006.156982</ele><time>2008-08-01T07:32:50Z</time></trkpt>
<trkpt lat="46.61179799" lon="6.25548298"><ele>1007.117981</ele><time>2008-08-01T07:32:57Z</time></trkpt>
<trkpt lat="46.61155298" lon="6.25503397"><ele>1007.117981</ele><time>2008-08-01T07:33:04Z</time></trkpt>
<trkpt lat="46.61128904" lon="6.25461697"><ele>1007.117981</ele><time>2008-08-01T07:33:11Z</time></trkpt>
<trkpt lat="46.61101604" lon="6.25422000"><ele>1007.117981</ele><time>2008-08-01T07:33:18Z</time></trkpt>
<trkpt lat="46.61074497" lon="6.25385497"><ele>1007.598999</ele><time>2008-08-01T07:33:25Z</time></trkpt>
<trkpt lat="46.61047599" lon="6.25350402"><ele>1009.041016</ele><time>2008-08-01T07:33:32Z</time></trkpt>
<trkpt lat="46.61020802" lon="6.25315600"><ele>1008.559998</ele><time>2008-08-01T07:33:39Z</time></trkpt>
<trkpt lat="46.60991097" lon="6.25276398"><ele>1009.521973</ele><time>2008-08-01T07:33:47Z</time></trkpt>
<trkpt lat="46.60962003" lon="6.25238101"><ele>1010.002014</ele><time>2008-08-01T07:33:55Z</time></trkpt>
<trkpt lat="46.60933203" lon="6.25200198"><ele>1011.44397</ele><time>2008-08-01T07:34:03Z</time></trkpt>
<trkpt lat="46.60904503" lon="6.25162798"><ele>1010.963989</ele><time>2008-08-01T07:34:11Z</time></trkpt>
<trkpt lat="46.60879198" lon="6.25122196"><ele>1011.924988</ele><time>2008-08-01T07:34:19Z</time></trkpt>
<trkpt lat="46.60856601" lon="6.25074302"><ele>1012.406006</ele><time>2008-08-01T07:34:28Z</time></trkpt>
<trkpt lat="46.60835898" lon="6.25025201"><ele>1013.367004</ele><time>2008-08-01T07:34:37Z</time></trkpt>
<trkpt lat="46.60811498" lon="6.24978497"><ele>1014.328003</ele><time>2008-08-01T07:34:46Z</time></trkpt>
<trkpt lat="46.60787601" lon="6.24938398"><ele>1014.328003</ele><time>2008-08-01T07:34:54Z</time></trkpt>
<trkpt lat="46.60766797" lon="6.24895197"><ele>1014.809021</ele><time>2008-08-01T07:35:02Z</time></trkpt>
<trkpt lat="46.60749799" lon="6.24847496"><ele>1015.289978</ele><time>2008-08-01T07:35:10Z</time></trkpt>
<trkpt lat="46.60738299" lon="6.24796903"><ele>1016.250977</ele><time>2008-08-01T07:35:18Z</time></trkpt>
<trkpt lat="46.60727503" lon="6.24746997"><ele>1016.731018</ele><time>2008-08-01T07:35:26Z</time></trkpt>
<trkpt lat="46.60707797" lon="6.24703000"><ele>1016.731018</ele><time>2008-08-01T07:35:34Z</time></trkpt>
<trkpt lat="46.60674102" lon="6.24669900"><ele>1015.77002</ele><time>2008-08-01T07:35:42Z</time></trkpt>
<trkpt lat="46.60641002" lon="6.24646598"><ele>1014.328003</ele><time>2008-08-01T07:35:48Z</time></trkpt>
<trkpt lat="46.60605102" lon="6.24620296"><ele>1013.367004</ele><time>2008-08-01T07:35:54Z</time></trkpt>
<trkpt lat="46.60575002" lon="6.24595896"><ele>1011.924988</ele><time>2008-08-01T07:35:59Z</time></trkpt>
<trkpt lat="46.60541198" lon="6.24563903"><ele>1011.44397</ele><time>2008-08-01T07:36:05Z</time></trkpt>
<trkpt lat="46.60511903" lon="6.24529797"><ele>1010.482971</ele><time>2008-08-01T07:36:11Z</time></trkpt>
<trkpt lat="46.60483204" lon="6.24494199"><ele>1010.482971</ele><time>2008-08-01T07:36:17Z</time></trkpt>
<trkpt lat="46.60452601" lon="6.24460202"><ele>1010.002014</ele><time>2008-08-01T07:36:23Z</time></trkpt>
<trkpt lat="46.60423902" lon="6.24425199"><ele>1009.521973</ele><time>2008-08-01T07:36:29Z</time></trkpt>
<trkpt lat="46.60396099" lon="6.24391504"><ele>1009.521973</ele><time>2008-08-01T07:36:35Z</time></trkpt>
<trkpt lat="46.60369101" lon="6.24355797"><ele>1009.041016</ele><time>2008-08-01T07:36:41Z</time></trkpt>
<trkpt lat="46.60343201" lon="6.24313200"><ele>1009.041016</ele><time>2008-08-01T07:36:48Z</time></trkpt>
<trkpt lat="46.60319204" lon="6.24266303"><ele>1008.080017</ele><time>2008-08-01T07:36:55Z</time></trkpt>
<trkpt lat="46.60297503" lon="6.24234100"><ele>1007.117981</ele><time>2008-08-01T07:37:00Z</time></trkpt>
<trkpt lat="46.60279197" lon="6.24200698"><ele>1007.117981</ele><time>2008-08-01T07:37:05Z</time></trkpt>
<trkpt lat="46.60256901" lon="6.24158696"><ele>1007.117981</ele><time>2008-08-01T07:37:12Z</time></trkpt>
<trkpt lat="46.60235502" lon="6.24110098"><ele>1007.598999</ele><time>2008-08-01T07:37:20Z</time></trkpt>
<trkpt lat="46.60220096" lon="6.24072002"><ele>1007.598999</ele><time>2008-08-01T07:37:26Z</time></trkpt>
<trkpt lat="46.60198102" lon="6.24025298"><ele>1007.598999</ele><time>2008-08-01T07:37:34Z</time></trkpt>
<trkpt lat="46.60171699" lon="6.23983196"><ele>1008.080017</ele><time>2008-08-01T07:37:42Z</time></trkpt>
<trkpt lat="46.60145396" lon="6.23947296"><ele>1008.080017</ele><time>2008-08-01T07:37:50Z</time></trkpt>
<trkpt lat="46.60118298" lon="6.23910701"><ele>1008.559998</ele><time>2008-08-01T07:37:58Z</time></trkpt>
<trkpt lat="46.60088902" lon="6.23871298"><ele>1007.598999</ele><time>2008-08-01T07:38:06Z</time></trkpt>
<trkpt lat="46.60061804" lon="6.23834501"><ele>1008.080017</ele><time>2008-08-01T07:38:13Z</time></trkpt>
<trkpt lat="46.60031696" lon="6.23805097"><ele>1008.559998</ele><time>2008-08-01T07:38:21Z</time></trkpt>
<trkpt lat="46.59998797" lon="6.23776096"><ele>1010.002014</ele><time>2008-08-01T07:38:31Z</time></trkpt>
<trkpt lat="46.59970298" lon="6.23740003"><ele>1011.44397</ele><time>2008-08-01T07:38:42Z</time></trkpt>
<trkpt lat="46.59954197" lon="6.23717699"><ele>1012.406006</ele><time>2008-08-01T07:38:49Z</time></trkpt>
<trkpt lat="46.59938497" lon="6.23696401"><ele>1013.846985</ele><time>2008-08-01T07:38:56Z</time></trkpt>
<trkpt lat="46.59911801" lon="6.23659302"><ele>1015.77002</ele><time>2008-08-01T07:39:10Z</time></trkpt>
<trkpt lat="46.59884803" lon="6.23621601"><ele>1017.692993</ele><time>2008-08-01T07:39:25Z</time></trkpt>
<trkpt lat="46.59858199" lon="6.23583103"><ele>1020.096008</ele><time>2008-08-01T07:39:40Z</time></trkpt>
<trkpt lat="46.59832500" lon="6.23545099"><ele>1022.5</ele><time>2008-08-01T07:39:55Z</time></trkpt>
<trkpt lat="46.59804798" lon="6.23511697"><ele>1023.940979</ele><time>2008-08-01T07:40:10Z</time></trkpt>
<trkpt lat="46.59775000" lon="6.23478396"><ele>1024.421997</ele><time>2008-08-01T07:40:23Z</time></trkpt>
<trkpt lat="46.59745202" lon="6.23444097"><ele>1024.421997</ele><time>2008-08-01T07:40:34Z</time></trkpt>
<trkpt lat="46.59738103" lon="6.23437098"><ele>1024.421997</ele><time>2008-08-01T07:40:37Z</time></trkpt>
<trkpt lat="46.59725103" lon="6.23421298"><ele>1024.421997</ele><time>2008-08-01T07:40:43Z</time></trkpt>
<trkpt lat="46.59693997" lon="6.23386304"><ele>1024.421997</ele><time>2008-08-01T07:40:55Z</time></trkpt>
<trkpt lat="46.59666999" lon="6.23351703"><ele>1024.421997</ele><time>2008-08-01T07:41:05Z</time></trkpt>
<trkpt lat="46.59638702" lon="6.23314597"><ele>1024.421997</ele><time>2008-08-01T07:41:15Z</time></trkpt>
<trkpt lat="46.59609600" lon="6.23276903"><ele>1025.383057</ele><time>2008-08-01T07:41:26Z</time></trkpt>
<trkpt lat="46.59581697" lon="6.23241104"><ele>1025.383057</ele><time>2008-08-01T07:41:37Z</time></trkpt>
<trkpt lat="46.59570901" lon="6.23242202"><ele>1025.864014</ele><time>2008-08-01T07:42:51Z</time></trkpt>
<trkpt lat="46.59567900" lon="6.23230702"><ele>1025.864014</ele><time>2008-08-01T07:42:55Z</time></trkpt>
<trkpt lat="46.59566198" lon="6.23228699"><ele>1025.864014</ele><time>2008-08-01T07:42:56Z</time></trkpt>
<trkpt lat="46.59564396" lon="6.23226503"><ele>1025.864014</ele><time>2008-08-01T07:42:57Z</time></trkpt>
<trkpt lat="46.59534800" lon="6.23188902"><ele>1026.344971</ele><time>2008-08-01T07:43:09Z</time></trkpt>
<trkpt lat="46.59507902" lon="6.23153798"><ele>1026.344971</ele><time>2008-08-01T07:43:19Z</time></trkpt>
<trkpt lat="46.59480896" lon="6.23118100"><ele>1026.344971</ele><time>2008-08-01T07:43:29Z</time></trkpt>
<trkpt lat="46.59452397" lon="6.23080398"><ele>1025.864014</ele><time>2008-08-01T07:43:40Z</time></trkpt>
<trkpt lat="46.59424100" lon="6.23043199"><ele>1026.344971</ele><time>2008-08-01T07:43:50Z</time></trkpt>
<trkpt lat="46.59397404" lon="6.23008196"><ele>1026.824951</ele><time>2008-08-01T07:44:00Z</time></trkpt>
<trkpt lat="46.59370003" lon="6.22971500"><ele>1026.824951</ele><time>2008-08-01T07:44:10Z</time></trkpt>
<trkpt lat="46.59341899" lon="6.22935601"><ele>1026.824951</ele><time>2008-08-01T07:44:20Z</time></trkpt>
<trkpt lat="46.59327297" lon="6.22916004"><ele>1026.344971</ele><time>2008-08-01T07:44:27Z</time></trkpt>
<trkpt lat="46.59325998" lon="6.22915098"><ele>1026.344971</ele><time>2008-08-01T07:44:39Z</time></trkpt>
<trkpt lat="46.59325998" lon="6.22914897"><ele>1026.824951</ele><time>2008-08-01T07:44:44Z</time></trkpt>
<trkpt lat="46.59325998" lon="6.22914797"><ele>1026.344971</ele><time>2008-08-01T07:44:56Z</time></trkpt>
<trkpt lat="46.59325697" lon="6.22913003"><ele>1026.344971</ele><time>2008-08-01T07:45:20Z</time></trkpt>
<trkpt lat="46.59326199" lon="6.22914302"><ele>1026.344971</ele><time>2008-08-01T07:45:24Z</time></trkpt>
<trkpt lat="46.59326401" lon="6.22915803"><ele>1026.824951</ele><time>2008-08-01T07:45:26Z</time></trkpt>
<trkpt lat="46.59328102" lon="6.22917102"><ele>1025.864014</ele><time>2008-08-01T07:45:47Z</time></trkpt>
<trkpt lat="46.59329301" lon="6.22917403"><ele>1025.864014</ele><time>2008-08-01T07:46:12Z</time></trkpt>
<trkpt lat="46.59329996" lon="6.22917202"><ele>1025.383057</ele><time>2008-08-01T07:46:34Z</time></trkpt>
<trkpt lat="46.59330298" lon="6.22917001"><ele>1025.383057</ele><time>2008-08-01T07:46:37Z</time></trkpt>
<trkpt lat="46.59331203" lon="6.22916096"><ele>1025.864014</ele><time>2008-08-01T07:46:43Z</time></trkpt>
<trkpt lat="46.59330298" lon="6.22921402"><ele>1026.344971</ele><time>2008-08-01T07:46:47Z</time></trkpt>
<trkpt lat="46.59323601" lon="6.22932198"><ele>1028.748047</ele><time>2008-08-01T07:46:57Z</time></trkpt>
<trkpt lat="46.59321397" lon="6.22937998"><ele>1029.708984</ele><time>2008-08-01T07:47:02Z</time></trkpt>
<trkpt lat="46.59319301" lon="6.22942197"><ele>1030.671021</ele><time>2008-08-01T07:47:06Z</time></trkpt>
<trkpt lat="46.59313601" lon="6.22950403"><ele>1031.631958</ele><time>2008-08-01T07:47:17Z</time></trkpt>
<trkpt lat="46.59312604" lon="6.22950898"><ele>1031.151001</ele><time>2008-08-01T07:47:33Z</time></trkpt>
<trkpt lat="46.59312302" lon="6.22950898"><ele>1031.631958</ele><time>2008-08-01T07:47:40Z</time></trkpt>
<trkpt lat="46.59312000" lon="6.22950604"><ele>1031.631958</ele><time>2008-08-01T07:47:45Z</time></trkpt>
<trkpt lat="46.59311397" lon="6.22950403"><ele>1031.631958</ele><time>2008-08-01T07:47:52Z</time></trkpt>
<trkpt lat="46.59309997" lon="6.22952297"><ele>1032.113037</ele><time>2008-08-01T07:47:54Z</time></trkpt>
<trkpt lat="46.59304096" lon="6.22974903"><ele>1034.996948</ele><time>2008-08-01T07:48:14Z</time></trkpt>
<trkpt lat="46.59302596" lon="6.22979002"><ele>1035.477051</ele><time>2008-08-01T07:48:18Z</time></trkpt>
<trkpt lat="46.59301003" lon="6.22984400"><ele>1036.438965</ele><time>2008-08-01T07:48:23Z</time></trkpt>
<trkpt lat="46.59298497" lon="6.22992396"><ele>1037.880981</ele><time>2008-08-01T07:48:31Z</time></trkpt>
<trkpt lat="46.59296301" lon="6.22998096"><ele>1038.842041</ele><time>2008-08-01T07:48:37Z</time></trkpt>
<trkpt lat="46.59293904" lon="6.23003997"><ele>1039.802979</ele><time>2008-08-01T07:48:46Z</time></trkpt>
<trkpt lat="46.59291901" lon="6.23006604"><ele>1039.802979</ele><time>2008-08-01T07:48:52Z</time></trkpt>
<trkpt lat="46.59283896" lon="6.23018799"><ele>1043.647949</ele><time>2008-08-01T07:49:08Z</time></trkpt>
<trkpt lat="46.59281801" lon="6.23021800"><ele>1044.129028</ele><time>2008-08-01T07:49:13Z</time></trkpt>
<trkpt lat="46.59271197" lon="6.23035999"><ele>1047.973999</ele><time>2008-08-01T07:49:35Z</time></trkpt>
<trkpt lat="46.59264199" lon="6.23042696"><ele>1048.936035</ele><time>2008-08-01T07:49:45Z</time></trkpt>
<trkpt lat="46.59246303" lon="6.23081798"><ele>1056.625977</ele><time>2008-08-01T07:50:39Z</time></trkpt>
<trkpt lat="46.59238600" lon="6.23085503"><ele>1059.030029</ele><time>2008-08-01T07:50:53Z</time></trkpt>
<trkpt lat="46.59227100" lon="6.23088000"><ele>1061.91394</ele><time>2008-08-01T07:51:26Z</time></trkpt>
<trkpt lat="46.59227402" lon="6.23087296"><ele>1061.432983</ele><time>2008-08-01T07:51:30Z</time></trkpt>
<trkpt lat="46.59226497" lon="6.23087204"><ele>1062.875</ele><time>2008-08-01T07:51:40Z</time></trkpt>
<trkpt lat="46.59218199" lon="6.23079099"><ele>1066.239014</ele><time>2008-08-01T07:51:57Z</time></trkpt>
<trkpt lat="46.59210303" lon="6.23069602"><ele>1069.604004</ele><time>2008-08-01T07:52:15Z</time></trkpt>
<trkpt lat="46.59173699" lon="6.23059401"><ele>1078.737061</ele><time>2008-08-01T07:53:16Z</time></trkpt>
<trkpt lat="46.59143197" lon="6.23044398"><ele>1086.427002</ele><time>2008-08-01T07:54:06Z</time></trkpt>
<trkpt lat="46.59137799" lon="6.23042503"><ele>1088.831055</ele><time>2008-08-01T07:54:19Z</time></trkpt>
<trkpt lat="46.59104599" lon="6.23021699"><ele>1097.000977</ele><time>2008-08-01T07:55:17Z</time></trkpt>
<trkpt lat="46.59073502" lon="6.22993603"><ele>1105.654053</ele><time>2008-08-01T07:56:17Z</time></trkpt>
<trkpt lat="46.59044903" lon="6.22975599"><ele>1113.343994</ele><time>2008-08-01T07:57:10Z</time></trkpt>
<trkpt lat="46.59035599" lon="6.22972297"><ele>1115.746948</ele><time>2008-08-01T07:57:26Z</time></trkpt>
<trkpt lat="46.59001300" lon="6.22969497"><ele>1125.840942</ele><time>2008-08-01T07:58:31Z</time></trkpt>
<trkpt lat="46.58981301" lon="6.22977803"><ele>1130.166992</ele><time>2008-08-01T07:59:14Z</time></trkpt>
<trkpt lat="46.58980404" lon="6.22979304"><ele>1130.166992</ele><time>2008-08-01T07:59:21Z</time></trkpt>
<trkpt lat="46.58979700" lon="6.22980301"><ele>1130.166992</ele><time>2008-08-01T07:59:27Z</time></trkpt>
<trkpt lat="46.58979197" lon="6.22981198"><ele>1130.166992</ele><time>2008-08-01T07:59:29Z</time></trkpt>
<trkpt lat="46.58978602" lon="6.22982397"><ele>1130.166992</ele><time>2008-08-01T07:59:33Z</time></trkpt>
<trkpt lat="46.58984100" lon="6.22975700"><ele>1130.166992</ele><time>2008-08-01T07:59:54Z</time></trkpt>
<trkpt lat="46.58984402" lon="6.22976001"><ele>1130.647949</ele><time>2008-08-01T08:00:00Z</time></trkpt>
<trkpt lat="46.58984201" lon="6.22977401"><ele>1130.166992</ele><time>2008-08-01T08:00:17Z</time></trkpt>
<trkpt lat="46.58981896" lon="6.22979497"><ele>1130.647949</ele><time>2008-08-01T08:00:29Z</time></trkpt>
<trkpt lat="46.58980999" lon="6.22978700"><ele>1130.647949</ele><time>2008-08-01T08:00:35Z</time></trkpt>
<trkpt lat="46.58981401" lon="6.22973797"><ele>1130.647949</ele><time>2008-08-01T08:00:56Z</time></trkpt>
<trkpt lat="46.58979197" lon="6.22978399"><ele>1130.647949</ele><time>2008-08-01T08:01:01Z</time></trkpt>
<trkpt lat="46.58980102" lon="6.22978600"><ele>1130.647949</ele><time>2008-08-01T08:01:19Z</time></trkpt>
<trkpt lat="46.58980404" lon="6.22979698"><ele>1130.647949</ele><time>2008-08-01T08:01:41Z</time></trkpt>
<trkpt lat="46.58985400" lon="6.22981902"><ele>1130.647949</ele><time>2008-08-01T08:02:12Z</time></trkpt>
<trkpt lat="46.58989004" lon="6.22987702"><ele>1130.647949</ele><time>2008-08-01T08:02:17Z</time></trkpt>
<trkpt lat="46.58991904" lon="6.22992304"><ele>1130.647949</ele><time>2008-08-01T08:02:20Z</time></trkpt>
<trkpt lat="46.58995198" lon="6.22999798"><ele>1130.166992</ele><time>2008-08-01T08:02:24Z</time></trkpt>
<trkpt lat="46.59003999" lon="6.23006201"><ele>1130.166992</ele><time>2008-08-01T08:02:41Z</time></trkpt>
<trkpt lat="46.59002901" lon="6.23006503"><ele>1130.647949</ele><time>2008-08-01T08:02:51Z</time></trkpt>
<trkpt lat="46.59000898" lon="6.23008196"><ele>1130.166992</ele><time>2008-08-01T08:02:57Z</time></trkpt>
<trkpt lat="46.59000303" lon="6.23010300"><ele>1130.166992</ele><time>2008-08-01T08:03:01Z</time></trkpt>
<trkpt lat="46.59000101" lon="6.23018699"><ele>1131.128052</ele><time>2008-08-01T08:03:06Z</time></trkpt>
<trkpt lat="46.59000596" lon="6.23023099"><ele>1131.609009</ele><time>2008-08-01T08:03:09Z</time></trkpt>
<trkpt lat="46.59000797" lon="6.23026402"><ele>1131.609009</ele><time>2008-08-01T08:03:11Z</time></trkpt>
<trkpt lat="46.59000797" lon="6.23027902"><ele>1132.089966</ele><time>2008-08-01T08:03:12Z</time></trkpt>
<trkpt lat="46.59001602" lon="6.23032596"><ele>1132.571045</ele><time>2008-08-01T08:03:15Z</time></trkpt>
<trkpt lat="46.59001702" lon="6.23036896"><ele>1133.531982</ele><time>2008-08-01T08:03:17Z</time></trkpt>
<trkpt lat="46.58998702" lon="6.23042503"><ele>1134.493042</ele><time>2008-08-01T08:03:23Z</time></trkpt>
<trkpt lat="46.58998802" lon="6.23048304"><ele>1136.416016</ele><time>2008-08-01T08:03:31Z</time></trkpt>
<trkpt lat="46.59000001" lon="6.23057096"><ele>1138.338013</ele><time>2008-08-01T08:03:40Z</time></trkpt>
<trkpt lat="46.59000998" lon="6.23069200"><ele>1139.780029</ele><time>2008-08-01T08:03:49Z</time></trkpt>
<trkpt lat="46.59001996" lon="6.23071597"><ele>1140.260986</ele><time>2008-08-01T08:03:51Z</time></trkpt>
<trkpt lat="46.59001401" lon="6.23085603"><ele>1142.66394</ele><time>2008-08-01T08:04:04Z</time></trkpt>
<trkpt lat="46.58995299" lon="6.23114898"><ele>1150.35498</ele><time>2008-08-01T08:04:45Z</time></trkpt>
<trkpt lat="46.58994704" lon="6.23115602"><ele>1150.834961</ele><time>2008-08-01T08:04:46Z</time></trkpt>
<trkpt lat="46.58990404" lon="6.23131402"><ele>1154.199951</ele><time>2008-08-01T08:05:15Z</time></trkpt>
<trkpt lat="46.58988099" lon="6.23163697"><ele>1160.928955</ele><time>2008-08-01T08:05:47Z</time></trkpt>
<trkpt lat="46.58990697" lon="6.23200603"><ele>1168.139038</ele><time>2008-08-01T08:06:39Z</time></trkpt>
<trkpt lat="46.58989398" lon="6.23226302"><ele>1175.348999</ele><time>2008-08-01T08:07:31Z</time></trkpt>
<trkpt lat="46.58988501" lon="6.23227500"><ele>1174.868042</ele><time>2008-08-01T08:07:35Z</time></trkpt>
<trkpt lat="46.58987001" lon="6.23229504"><ele>1175.348999</ele><time>2008-08-01T08:07:41Z</time></trkpt>
<trkpt lat="46.58985701" lon="6.23231297"><ele>1175.348999</ele><time>2008-08-01T08:07:46Z</time></trkpt>
<trkpt lat="46.58984503" lon="6.23232203"><ele>1174.868042</ele><time>2008-08-01T08:07:51Z</time></trkpt>
<trkpt lat="46.58983497" lon="6.23232798"><ele>1174.868042</ele><time>2008-08-01T08:07:56Z</time></trkpt>
<trkpt lat="46.58982801" lon="6.23233200"><ele>1175.348999</ele><time>2008-08-01T08:08:00Z</time></trkpt>
<trkpt lat="46.58980303" lon="6.23231004"><ele>1174.868042</ele><time>2008-08-01T08:08:21Z</time></trkpt>
<trkpt lat="46.58982097" lon="6.23234600"><ele>1176.791016</ele><time>2008-08-01T08:08:34Z</time></trkpt>
<trkpt lat="46.58983002" lon="6.23237500"><ele>1177.271973</ele><time>2008-08-01T08:08:38Z</time></trkpt>
<trkpt lat="46.58983698" lon="6.23242596"><ele>1178.713989</ele><time>2008-08-01T08:08:45Z</time></trkpt>
<trkpt lat="46.58983799" lon="6.23243300"><ele>1178.713989</ele><time>2008-08-01T08:08:46Z</time></trkpt>
<trkpt lat="46.58982801" lon="6.23251297"><ele>1180.156006</ele><time>2008-08-01T08:08:53Z</time></trkpt>
<trkpt lat="46.58984402" lon="6.23259997"><ele>1180.635986</ele><time>2008-08-01T08:09:00Z</time></trkpt>
<trkpt lat="46.58984796" lon="6.23261003"><ele>1181.116943</ele><time>2008-08-01T08:09:01Z</time></trkpt>
<trkpt lat="46.58987696" lon="6.23268496"><ele>1181.598022</ele><time>2008-08-01T08:09:07Z</time></trkpt>
<trkpt lat="46.58999196" lon="6.23316298"><ele>1184.962036</ele><time>2008-08-01T08:09:45Z</time></trkpt>
<trkpt lat="46.59007201" lon="6.23331402"><ele>1185.442993</ele><time>2008-08-01T08:09:58Z</time></trkpt>
<trkpt lat="46.59018198" lon="6.23348602"><ele>1185.92395</ele><time>2008-08-01T08:10:13Z</time></trkpt>
<trkpt lat="46.59022699" lon="6.23358199"><ele>1185.442993</ele><time>2008-08-01T08:10:20Z</time></trkpt>
<trkpt lat="46.59034400" lon="6.23373899"><ele>1185.442993</ele><time>2008-08-01T08:10:35Z</time></trkpt>
<trkpt lat="46.59047099" lon="6.23380302"><ele>1184.962036</ele><time>2008-08-01T08:10:47Z</time></trkpt>
<trkpt lat="46.59051399" lon="6.23383697"><ele>1184.482056</ele><time>2008-08-01T08:10:51Z</time></trkpt>
<trkpt lat="46.59073301" lon="6.23427602"><ele>1185.92395</ele><time>2008-08-01T08:11:25Z</time></trkpt>
<trkpt lat="46.59083602" lon="6.23464700"><ele>1186.404053</ele><time>2008-08-01T08:11:50Z</time></trkpt>
<trkpt lat="46.59089603" lon="6.23470299"><ele>1186.88501</ele><time>2008-08-01T08:11:54Z</time></trkpt>
<trkpt lat="46.59095102" lon="6.23479603"><ele>1186.88501</ele><time>2008-08-01T08:11:59Z</time></trkpt>
<trkpt lat="46.59097902" lon="6.23483601"><ele>1186.88501</ele><time>2008-08-01T08:12:01Z</time></trkpt>
<trkpt lat="46.59106501" lon="6.23500097"><ele>1186.404053</ele><time>2008-08-01T08:12:08Z</time></trkpt>
<trkpt lat="46.59113601" lon="6.23513801"><ele>1185.92395</ele><time>2008-08-01T08:12:14Z</time></trkpt>
<trkpt lat="46.59123399" lon="6.23561603"><ele>1190.25</ele><time>2008-08-01T08:12:32Z</time></trkpt>
<trkpt lat="46.59125604" lon="6.23568300"><ele>1190.72998</ele><time>2008-08-01T08:12:35Z</time></trkpt>
<trkpt lat="46.59126199" lon="6.23571502"><ele>1191.21106</ele><time>2008-08-01T08:12:37Z</time></trkpt>
<trkpt lat="46.59123098" lon="6.23569096"><ele>1191.21106</ele><time>2008-08-01T08:12:43Z</time></trkpt>
<trkpt lat="46.59112302" lon="6.23557404"><ele>1194.094971</ele><time>2008-08-01T08:12:55Z</time></trkpt>
<trkpt lat="46.59079604" lon="6.23532300"><ele>1199.381958</ele><time>2008-08-01T08:13:25Z</time></trkpt>
<trkpt lat="46.59052396" lon="6.23506299"><ele>1203.708008</ele><time>2008-08-01T08:13:52Z</time></trkpt>
<trkpt lat="46.59019103" lon="6.23479804"><ele>1209.475952</ele><time>2008-08-01T08:14:25Z</time></trkpt>
<trkpt lat="46.58995802" lon="6.23460802"><ele>1212.840942</ele><time>2008-08-01T08:14:49Z</time></trkpt>
<trkpt lat="46.58973497" lon="6.23439303"><ele>1216.204956</ele><time>2008-08-01T08:15:13Z</time></trkpt>
<trkpt lat="46.58951696" lon="6.23420401"><ele>1219.569946</ele><time>2008-08-01T08:15:34Z</time></trkpt>
<trkpt lat="46.58921999" lon="6.23390998"><ele>1223.415039</ele><time>2008-08-01T08:16:04Z</time></trkpt>
<trkpt lat="46.58889100" lon="6.23367797"><ele>1227.740967</ele><time>2008-08-01T08:16:37Z</time></trkpt>
<trkpt lat="46.58863803" lon="6.23330003"><ele>1232.547974</ele><time>2008-08-01T08:17:06Z</time></trkpt>
<trkpt lat="46.58838297" lon="6.23293701"><ele>1236.873047</ele><time>2008-08-01T08:17:37Z</time></trkpt>
<trkpt lat="46.58810402" lon="6.23259402"><ele>1242.161011</ele><time>2008-08-01T08:18:08Z</time></trkpt>
<trkpt lat="46.58780797" lon="6.23233401"><ele>1246.487061</ele><time>2008-08-01T08:18:39Z</time></trkpt>
<trkpt lat="46.58775701" lon="6.23234801"><ele>1246.487061</ele><time>2008-08-01T08:18:43Z</time></trkpt>
<trkpt lat="46.58770303" lon="6.23234700"><ele>1247.447998</ele><time>2008-08-01T08:18:47Z</time></trkpt>
<trkpt lat="46.58754000" lon="6.23225296"><ele>1249.850952</ele><time>2008-08-01T08:19:04Z</time></trkpt>
<trkpt lat="46.58751897" lon="6.23222597"><ele>1250.332031</ele><time>2008-08-01T08:19:07Z</time></trkpt>
<trkpt lat="46.58714698" lon="6.23212304"><ele>1254.177002</ele><time>2008-08-01T08:19:36Z</time></trkpt>
<trkpt lat="46.58678404" lon="6.23220602"><ele>1258.021973</ele><time>2008-08-01T08:20:05Z</time></trkpt>
<trkpt lat="46.58672302" lon="6.23219001"><ele>1258.503052</ele><time>2008-08-01T08:20:10Z</time></trkpt>
<trkpt lat="46.58649797" lon="6.23195297"><ele>1261.868042</ele><time>2008-08-01T08:20:32Z</time></trkpt>
<trkpt lat="46.58617501" lon="6.23167100"><ele>1265.713013</ele><time>2008-08-01T08:21:03Z</time></trkpt>
<trkpt lat="46.58581601" lon="6.23161300"><ele>1268.597046</ele><time>2008-08-01T08:21:30Z</time></trkpt>
<trkpt lat="46.58549801" lon="6.23170302"><ele>1272.442017</ele><time>2008-08-01T08:21:56Z</time></trkpt>
<trkpt lat="46.58552701" lon="6.23192003"><ele>1274.36499</ele><time>2008-08-01T08:22:09Z</time></trkpt>
<trkpt lat="46.58567000" lon="6.23232303"><ele>1278.69104</ele><time>2008-08-01T08:22:35Z</time></trkpt>
<trkpt lat="46.58570202" lon="6.23241800"><ele>1280.133057</ele><time>2008-08-01T08:22:41Z</time></trkpt>
<trkpt lat="46.58572096" lon="6.23248296"><ele>1280.614014</ele><time>2008-08-01T08:22:45Z</time></trkpt>
<trkpt lat="46.58583001" lon="6.23300800"><ele>1284.938965</ele><time>2008-08-01T08:23:08Z</time></trkpt>
<trkpt lat="46.58584300" lon="6.23305704"><ele>1285.420044</ele><time>2008-08-01T08:23:10Z</time></trkpt>
<trkpt lat="46.58584300" lon="6.23316198"><ele>1285.901001</ele><time>2008-08-01T08:23:14Z</time></trkpt>
<trkpt lat="46.58591098" lon="6.23346297"><ele>1288.785034</ele><time>2008-08-01T08:23:26Z</time></trkpt>
<trkpt lat="46.58592599" lon="6.23355802"><ele>1289.745972</ele><time>2008-08-01T08:23:30Z</time></trkpt>
<trkpt lat="46.58593797" lon="6.23370001"><ele>1291.187988</ele><time>2008-08-01T08:23:37Z</time></trkpt>
<trkpt lat="46.58601198" lon="6.23426504"><ele>1295.032959</ele><time>2008-08-01T08:24:04Z</time></trkpt>
<trkpt lat="46.58598298" lon="6.23442303"><ele>1296.474976</ele><time>2008-08-01T08:24:12Z</time></trkpt>
<trkpt lat="46.58598801" lon="6.23452798"><ele>1296.956055</ele><time>2008-08-01T08:24:18Z</time></trkpt>
<trkpt lat="46.58609899" lon="6.23505000"><ele>1301.281982</ele><time>2008-08-01T08:24:43Z</time></trkpt>
<trkpt lat="46.58599597" lon="6.23555501"><ele>1304.645996</ele><time>2008-08-01T08:25:08Z</time></trkpt>
<trkpt lat="46.58582699" lon="6.23604200"><ele>1308.972046</ele><time>2008-08-01T08:25:30Z</time></trkpt>
<trkpt lat="46.58573898" lon="6.23653402"><ele>1312.817993</ele><time>2008-08-01T08:25:51Z</time></trkpt>
<trkpt lat="46.58573496" lon="6.23706702"><ele>1316.182007</ele><time>2008-08-01T08:26:14Z</time></trkpt>
<trkpt lat="46.58576396" lon="6.23728202"><ele>1318.584961</ele><time>2008-08-01T08:26:36Z</time></trkpt>
<trkpt lat="46.58576698" lon="6.23728101"><ele>1318.584961</ele><time>2008-08-01T08:26:42Z</time></trkpt>
<trkpt lat="46.58577796" lon="6.23727598"><ele>1318.10498</ele><time>2008-08-01T08:26:49Z</time></trkpt>
<trkpt lat="46.58578299" lon="6.23727397"><ele>1318.10498</ele><time>2008-08-01T08:26:53Z</time></trkpt>
<trkpt lat="46.58579003" lon="6.23727003"><ele>1318.10498</ele><time>2008-08-01T08:26:58Z</time></trkpt>
<trkpt lat="46.58580001" lon="6.23726601"><ele>1318.584961</ele><time>2008-08-01T08:27:03Z</time></trkpt>
<trkpt lat="46.58580696" lon="6.23726500"><ele>1318.584961</ele><time>2008-08-01T08:27:07Z</time></trkpt>
<trkpt lat="46.58581400" lon="6.23726299"><ele>1318.10498</ele><time>2008-08-01T08:27:13Z</time></trkpt>
<trkpt lat="46.58581501" lon="6.23726198"><ele>1318.584961</ele><time>2008-08-01T08:27:15Z</time></trkpt>
<trkpt lat="46.58583001" lon="6.23726198"><ele>1318.10498</ele><time>2008-08-01T08:27:27Z</time></trkpt>
<trkpt lat="46.58583404" lon="6.23726198"><ele>1318.584961</ele><time>2008-08-01T08:27:30Z</time></trkpt>
<trkpt lat="46.58583697" lon="6.23726198"><ele>1318.10498</ele><time>2008-08-01T08:27:33Z</time></trkpt>
<trkpt lat="46.58586103" lon="6.23727397"><ele>1319.06604</ele><time>2008-08-01T08:28:07Z</time></trkpt>
<trkpt lat="46.58587603" lon="6.23736500"><ele>1320.026978</ele><time>2008-08-01T08:28:12Z</time></trkpt>
<trkpt lat="46.58587402" lon="6.23741596"><ele>1320.508057</ele><time>2008-08-01T08:28:15Z</time></trkpt>
<trkpt lat="46.58587502" lon="6.23743398"><ele>1320.026978</ele><time>2008-08-01T08:28:16Z</time></trkpt>
<trkpt lat="46.58593001" lon="6.23769499"><ele>1322.911011</ele><time>2008-08-01T08:28:30Z</time></trkpt>
<trkpt lat="46.58591601" lon="6.23787202"><ele>1323.873047</ele><time>2008-08-01T08:28:40Z</time></trkpt>
<trkpt lat="46.58568802" lon="6.23829204"><ele>1327.718018</ele><time>2008-08-01T08:29:08Z</time></trkpt>
<trkpt lat="46.58553396" lon="6.23876603"><ele>1332.043945</ele><time>2008-08-01T08:29:35Z</time></trkpt>
<trkpt lat="46.58529600" lon="6.23917599"><ele>1335.407959</ele><time>2008-08-01T08:30:02Z</time></trkpt>
<trkpt lat="46.58523900" lon="6.23969500"><ele>1338.772949</ele><time>2008-08-01T08:30:25Z</time></trkpt>
<trkpt lat="46.58510699" lon="6.24019297"><ele>1340.214966</ele><time>2008-08-01T08:30:45Z</time></trkpt>
<trkpt lat="46.58498604" lon="6.24059304"><ele>1340.696045</ele><time>2008-08-01T08:31:00Z</time></trkpt>
<trkpt lat="46.58478303" lon="6.24098103"><ele>1343.579956</ele><time>2008-08-01T08:31:19Z</time></trkpt>
<trkpt lat="46.58442303" lon="6.24108396"><ele>1347.425049</ele><time>2008-08-01T08:31:47Z</time></trkpt>
<trkpt lat="46.58407099" lon="6.24114700"><ele>1347.906006</ele><time>2008-08-01T08:32:06Z</time></trkpt>
<trkpt lat="46.58378500" lon="6.24133903"><ele>1347.906006</ele><time>2008-08-01T08:32:18Z</time></trkpt>
<trkpt lat="46.58373403" lon="6.24141497"><ele>1347.906006</ele><time>2008-08-01T08:32:21Z</time></trkpt>
<trkpt lat="46.58353496" lon="6.24174798"><ele>1347.906006</ele><time>2008-08-01T08:32:30Z</time></trkpt>
<trkpt lat="46.58345500" lon="6.24234402"><ele>1347.906006</ele><time>2008-08-01T08:32:42Z</time></trkpt>
<trkpt lat="46.58328502" lon="6.24284299"><ele>1349.348022</ele><time>2008-08-01T08:32:53Z</time></trkpt>
<trkpt lat="46.58305602" lon="6.24325999"><ele>1349.348022</ele><time>2008-08-01T08:33:04Z</time></trkpt>
<trkpt lat="46.58275897" lon="6.24357599"><ele>1350.790039</ele><time>2008-08-01T08:33:15Z</time></trkpt>
<trkpt lat="46.58257800" lon="6.24403004"><ele>1350.790039</ele><time>2008-08-01T08:33:25Z</time></trkpt>
<trkpt lat="46.58259099" lon="6.24443698"><ele>1350.790039</ele><time>2008-08-01T08:33:32Z</time></trkpt>
<trkpt lat="46.58260399" lon="6.24473596"><ele>1350.790039</ele><time>2008-08-01T08:33:37Z</time></trkpt>
<trkpt lat="46.58270096" lon="6.24504198"><ele>1350.30896</ele><time>2008-08-01T08:33:43Z</time></trkpt>
<trkpt lat="46.58268001" lon="6.24531901"><ele>1350.30896</ele><time>2008-08-01T08:33:48Z</time></trkpt>
<trkpt lat="46.58266199" lon="6.24583500"><ele>1350.30896</ele><time>2008-08-01T08:33:57Z</time></trkpt>
<trkpt lat="46.58268403" lon="6.24628703"><ele>1350.30896</ele><time>2008-08-01T08:34:04Z</time></trkpt>
<trkpt lat="46.58272301" lon="6.24655299"><ele>1350.30896</ele><time>2008-08-01T08:34:08Z</time></trkpt>
<trkpt lat="46.58275302" lon="6.24668400"><ele>1350.30896</ele><time>2008-08-01T08:34:10Z</time></trkpt>
<trkpt lat="46.58298402" lon="6.24718197"><ele>1350.30896</ele><time>2008-08-01T08:34:19Z</time></trkpt>
<trkpt lat="46.58310003" lon="6.24738900"><ele>1349.828003</ele><time>2008-08-01T08:34:23Z</time></trkpt>
<trkpt lat="46.58312802" lon="6.24768002"><ele>1349.348022</ele><time>2008-08-01T08:34:28Z</time></trkpt>
<trkpt lat="46.58307798" lon="6.24785696"><ele>1349.828003</ele><time>2008-08-01T08:34:31Z</time></trkpt>
<trkpt lat="46.58295401" lon="6.24844101"><ele>1352.712036</ele><time>2008-08-01T08:34:42Z</time></trkpt>
<trkpt lat="46.58303398" lon="6.24863396"><ele>1353.192993</ele><time>2008-08-01T08:34:46Z</time></trkpt>
<trkpt lat="46.58311998" lon="6.24885097"><ele>1353.192993</ele><time>2008-08-01T08:34:50Z</time></trkpt>
<trkpt lat="46.58333598" lon="6.24937501"><ele>1353.67395</ele><time>2008-08-01T08:35:00Z</time></trkpt>
<trkpt lat="46.58345098" lon="6.24961498"><ele>1353.67395</ele><time>2008-08-01T08:35:05Z</time></trkpt>
<trkpt lat="46.58369699" lon="6.25005696"><ele>1353.67395</ele><time>2008-08-01T08:35:14Z</time></trkpt>
<trkpt lat="46.58374099" lon="6.25034203"><ele>1354.154053</ele><time>2008-08-01T08:35:19Z</time></trkpt>
<trkpt lat="46.58372900" lon="6.25045996"><ele>1354.154053</ele><time>2008-08-01T08:35:21Z</time></trkpt>
<trkpt lat="46.58363697" lon="6.25102700"><ele>1354.63501</ele><time>2008-08-01T08:35:31Z</time></trkpt>
<trkpt lat="46.58358098" lon="6.25149697"><ele>1354.63501</ele><time>2008-08-01T08:35:39Z</time></trkpt>
<trkpt lat="46.58360101" lon="6.25207700"><ele>1355.11499</ele><time>2008-08-01T08:35:49Z</time></trkpt>
<trkpt lat="46.58376203" lon="6.25254898"><ele>1356.557983</ele><time>2008-08-01T08:35:59Z</time></trkpt>
<trkpt lat="46.58405003" lon="6.25292298"><ele>1357.037964</ele><time>2008-08-01T08:36:09Z</time></trkpt>
<trkpt lat="46.58433602" lon="6.25325499"><ele>1357.519043</ele><time>2008-08-01T08:36:18Z</time></trkpt>
<trkpt lat="46.58459896" lon="6.25365598"><ele>1357.519043</ele><time>2008-08-01T08:36:28Z</time></trkpt>
<trkpt lat="46.58462998" lon="6.25369303"><ele>1357.037964</ele><time>2008-08-01T08:36:29Z</time></trkpt>
<trkpt lat="46.58477004" lon="6.25382597"><ele>1357.037964</ele><time>2008-08-01T08:36:33Z</time></trkpt>
<trkpt lat="46.58517203" lon="6.25389202"><ele>1356.077026</ele><time>2008-08-01T08:36:41Z</time></trkpt>
<trkpt lat="46.58537203" lon="6.25391004"><ele>1356.077026</ele><time>2008-08-01T08:36:45Z</time></trkpt>
<trkpt lat="46.58571602" lon="6.25410601"><ele>1356.077026</ele><time>2008-08-01T08:36:55Z</time></trkpt>
<trkpt lat="46.58598600" lon="6.25449300"><ele>1357.037964</ele><time>2008-08-01T08:37:05Z</time></trkpt>
<trkpt lat="46.58605901" lon="6.25461504"><ele>1356.557983</ele><time>2008-08-01T08:37:08Z</time></trkpt>
<trkpt lat="46.58611399" lon="6.25472300"><ele>1356.557983</ele><time>2008-08-01T08:37:10Z</time></trkpt>
<trkpt lat="46.58624701" lon="6.25495400"><ele>1355.595947</ele><time>2008-08-01T08:37:14Z</time></trkpt>
<trkpt lat="46.58648699" lon="6.25527704"><ele>1355.11499</ele><time>2008-08-01T08:37:20Z</time></trkpt>
<trkpt lat="46.58661397" lon="6.25554903"><ele>1353.192993</ele><time>2008-08-01T08:37:24Z</time></trkpt>
<trkpt lat="46.58691899" lon="6.25604097"><ele>1349.828003</ele><time>2008-08-01T08:37:31Z</time></trkpt>
<trkpt lat="46.58696400" lon="6.25611397"><ele>1349.348022</ele><time>2008-08-01T08:37:32Z</time></trkpt>
<trkpt lat="46.58721797" lon="6.25657104"><ele>1346.463989</ele><time>2008-08-01T08:37:38Z</time></trkpt>
<trkpt lat="46.58729400" lon="6.25692702"><ele>1345.983032</ele><time>2008-08-01T08:37:44Z</time></trkpt>
<trkpt lat="46.58728402" lon="6.25718401"><ele>1345.983032</ele><time>2008-08-01T08:37:52Z</time></trkpt>
<trkpt lat="46.58726701" lon="6.25738199"><ele>1345.983032</ele><time>2008-08-01T08:38:07Z</time></trkpt>
<trkpt lat="46.58727002" lon="6.25738299"><ele>1345.501953</ele><time>2008-08-01T08:38:10Z</time></trkpt>
<trkpt lat="46.58730799" lon="6.25739196"><ele>1345.983032</ele><time>2008-08-01T08:38:40Z</time></trkpt>
<trkpt lat="46.58730003" lon="6.25739900"><ele>1345.983032</ele><time>2008-08-01T08:38:43Z</time></trkpt>
<trkpt lat="46.58730397" lon="6.25739599"><ele>1345.983032</ele><time>2008-08-01T08:38:45Z</time></trkpt>
<trkpt lat="46.58730498" lon="6.25739498"><ele>1345.983032</ele><time>2008-08-01T08:38:50Z</time></trkpt>
<trkpt lat="46.58724203" lon="6.25747603"><ele>1346.463989</ele><time>2008-08-01T08:39:50Z</time></trkpt>
<trkpt lat="46.58729500" lon="6.25742096"><ele>1346.94397</ele><time>2008-08-01T08:40:09Z</time></trkpt>
<trkpt lat="46.58735300" lon="6.25737503"><ele>1346.94397</ele><time>2008-08-01T08:40:45Z</time></trkpt>
<trkpt lat="46.58731797" lon="6.25751199"><ele>1346.463989</ele><time>2008-08-01T08:40:58Z</time></trkpt>
<trkpt lat="46.58728897" lon="6.25760604"><ele>1346.463989</ele><time>2008-08-01T08:41:00Z</time></trkpt>
<trkpt lat="46.58720003" lon="6.25784098"><ele>1344.541016</ele><time>2008-08-01T08:41:04Z</time></trkpt>
<trkpt lat="46.58714999" lon="6.25805598"><ele>1343.579956</ele><time>2008-08-01T08:41:07Z</time></trkpt>
<trkpt lat="46.58713298" lon="6.25812697"><ele>1343.098999</ele><time>2008-08-01T08:41:08Z</time></trkpt>
<trkpt lat="46.58708998" lon="6.25845504"><ele>1341.177002</ele><time>2008-08-01T08:41:12Z</time></trkpt>
<trkpt lat="46.58699803" lon="6.25897396"><ele>1339.254028</ele><time>2008-08-01T08:41:18Z</time></trkpt>
<trkpt lat="46.58680198" lon="6.25945299"><ele>1337.331055</ele><time>2008-08-01T08:41:25Z</time></trkpt>
<trkpt lat="46.58661297" lon="6.25966497"><ele>1334.927979</ele><time>2008-08-01T08:41:32Z</time></trkpt>
<trkpt lat="46.58627400" lon="6.25941100"><ele>1333.485962</ele><time>2008-08-01T08:41:40Z</time></trkpt>
<trkpt lat="46.58583202" lon="6.25930798"><ele>1333.485962</ele><time>2008-08-01T08:41:49Z</time></trkpt>
<trkpt lat="46.58569699" lon="6.25931402"><ele>1334.447021</ele><time>2008-08-01T08:41:52Z</time></trkpt>
<trkpt lat="46.58565299" lon="6.25930999"><ele>1334.927979</ele><time>2008-08-01T08:41:53Z</time></trkpt>
<trkpt lat="46.58551997" lon="6.25925702"><ele>1335.407959</ele><time>2008-08-01T08:41:56Z</time></trkpt>
<trkpt lat="46.58544696" lon="6.25920799"><ele>1335.889038</ele><time>2008-08-01T08:41:58Z</time></trkpt>
<trkpt lat="46.58530799" lon="6.25911796"><ele>1334.927979</ele><time>2008-08-01T08:42:02Z</time></trkpt>
<trkpt lat="46.58492200" lon="6.25909600"><ele>1336.849976</ele><time>2008-08-01T08:42:12Z</time></trkpt>
<trkpt lat="46.58453400" lon="6.25913003"><ele>1337.812012</ele><time>2008-08-01T08:42:22Z</time></trkpt>
<trkpt lat="46.58435396" lon="6.25916499"><ele>1338.772949</ele><time>2008-08-01T08:42:27Z</time></trkpt>
<trkpt lat="46.58399002" lon="6.25920497"><ele>1339.734009</ele><time>2008-08-01T08:42:37Z</time></trkpt>
<trkpt lat="46.58385599" lon="6.25930203"><ele>1339.734009</ele><time>2008-08-01T08:42:41Z</time></trkpt>
<trkpt lat="46.58374300" lon="6.25939499"><ele>1339.254028</ele><time>2008-08-01T08:42:44Z</time></trkpt>
<trkpt lat="46.58341301" lon="6.25961401"><ele>1337.331055</ele><time>2008-08-01T08:42:51Z</time></trkpt>
<trkpt lat="46.58326699" lon="6.25980402"><ele>1336.849976</ele><time>2008-08-01T08:42:55Z</time></trkpt>
<trkpt lat="46.58319097" lon="6.25998700"><ele>1335.889038</ele><time>2008-08-01T08:42:58Z</time></trkpt>
<trkpt lat="46.58301604" lon="6.26015699"><ele>1335.407959</ele><time>2008-08-01T08:43:02Z</time></trkpt>
<trkpt lat="46.58282200" lon="6.26028196"><ele>1335.407959</ele><time>2008-08-01T08:43:06Z</time></trkpt>
<trkpt lat="46.58257498" lon="6.26051104"><ele>1334.447021</ele><time>2008-08-01T08:43:12Z</time></trkpt>
<trkpt lat="46.58238899" lon="6.26071799"><ele>1334.927979</ele><time>2008-08-01T08:43:17Z</time></trkpt>
<trkpt lat="46.58226603" lon="6.26092703"><ele>1334.447021</ele><time>2008-08-01T08:43:21Z</time></trkpt>
<trkpt lat="46.58218103" lon="6.26110800"><ele>1334.447021</ele><time>2008-08-01T08:43:24Z</time></trkpt>
<trkpt lat="46.58199303" lon="6.26154796"><ele>1336.369995</ele><time>2008-08-01T08:43:33Z</time></trkpt>
<trkpt lat="46.58192497" lon="6.26174100"><ele>1336.849976</ele><time>2008-08-01T08:43:38Z</time></trkpt>
<trkpt lat="46.58186403" lon="6.26197301"><ele>1337.812012</ele><time>2008-08-01T08:43:44Z</time></trkpt>
<trkpt lat="46.58181198" lon="6.26208398"><ele>1337.812012</ele><time>2008-08-01T08:44:09Z</time></trkpt>
<trkpt lat="46.58175901" lon="6.26223997"><ele>1338.291992</ele><time>2008-08-01T08:44:19Z</time></trkpt>
<trkpt lat="46.58175398" lon="6.26223503"><ele>1338.291992</ele><time>2008-08-01T08:44:26Z</time></trkpt>
<trkpt lat="46.58175096" lon="6.26223402"><ele>1338.291992</ele><time>2008-08-01T08:44:28Z</time></trkpt>
<trkpt lat="46.58168198" lon="6.26248900"><ele>1339.734009</ele><time>2008-08-01T08:44:54Z</time></trkpt>
<trkpt lat="46.58145818" lon="6.26242245"><ele>1342.332031</ele><time>1989-12-31T00:00:00Z</time></trkpt>
<trkpt lat="46.58121292" lon="6.26235841"><ele>1340.292969</ele><time>1989-12-31T00:00:00Z</time></trkpt>
<trkpt lat="46.58105568" lon="6.26244994"><ele>1339.085938</ele><time>1989-12-31T00:00:00Z</time></trkpt>
<trkpt lat="46.58074128" lon="6.26255974"><ele>1337.796875</ele><time>1989-12-31T00:00:00Z</time></trkpt>
<trkpt lat="46.58045202" lon="6.26256888"><ele>1336.875</ele><time>1989-12-31T00:00:00Z</time></trkpt>
<trkpt lat="46.58009989" lon="6.26253225"><ele>1335.996094</ele><time>1989-12-31T00:00:00Z</time></trkpt>
<trkpt lat="46.57998674" lon="6.26256888"><ele>1335.253906</ele><time>1989-12-31T00:00:00Z</time></trkpt>
<trkpt lat="46.57979806" lon="6.26281589"><ele>1337.117188</ele><time>1989-12-31T00:00:00Z</time></trkpt>
<trkpt lat="46.57959061" lon="6.26309032"><ele>1339.808594</ele><time>1989-12-31T00:00:00Z</time></trkpt>
<trkpt lat="46.57935793" lon="6.26308118"><ele>1341.039063</ele><time>1989-12-31T00:00:00Z</time></trkpt>
<trkpt lat="46.57916925" lon="6.26311781"><ele>1341.828125</ele><time>1989-12-31T00:00:00Z</time></trkpt>
<trkpt lat="46.57894914" lon="6.26341059"><ele>1344.265625</ele><time>1989-12-31T00:00:00Z</time></trkpt>
<trkpt lat="46.57870070" lon="6.26318545"><ele>1346.679688</ele><time>1989-12-31T00:00:00Z</time></trkpt>
<trkpt lat="46.57843659" lon="6.26280122"><ele>1349.011719</ele><time>1989-12-31T00:00:00Z</time></trkpt>
<trkpt lat="46.57807818" lon="6.26263660"><ele>1352.808594</ele><time>1989-12-31T00:00:00Z</time></trkpt>
<trkpt lat="46.57781406" lon="6.26244449"><ele>1355.566406</ele><time>1989-12-31T00:00:00Z</time></trkpt>
<trkpt lat="46.57755624" lon="6.26236210"><ele>1358.136719</ele><time>1989-12-31T00:00:00Z</time></trkpt>
<trkpt lat="46.57736127" lon="6.26237132"><ele>1360.246094</ele><time>1989-12-31T00:00:00Z</time></trkpt>
<trkpt lat="46.57715382" lon="6.26242613"><ele>1362.449219</ele><time>1989-12-31T00:00:00Z</time></trkpt>
<trkpt lat="46.57692743" lon="6.26252680"><ele>1363.859375</ele><time>1989-12-31T00:00:00Z</time></trkpt>
<trkpt lat="46.57654999" lon="6.26256326"><ele>1365.507813</ele><time>1989-12-31T00:00:00Z</time></trkpt>
<trkpt lat="46.57616643" lon="6.26262730"><ele>1369.136719</ele><time>1989-12-31T00:00:00Z</time></trkpt>
<trkpt lat="46.57594632" lon="6.26252663"><ele>1369.425781</ele><time>1989-12-31T00:00:00Z</time></trkpt>
<trkpt lat="46.57568221" lon="6.26222480"><ele>1365.292969</ele><time>1989-12-31T00:00:00Z</time></trkpt>
<trkpt lat="46.57545581" lon="6.26209673"><ele>1362.101563</ele><time>1989-12-31T00:00:00Z</time></trkpt>
<trkpt lat="46.57510998" lon="6.26206923"><ele>1360.082031</ele><time>1989-12-31T00:00:00Z</time></trkpt>
<trkpt lat="46.57473899" lon="6.26226135"><ele>1358.027344</ele><time>1989-12-31T00:00:00Z</time></trkpt>
<trkpt lat="46.57450623" lon="6.26238925"><ele>1356.359375</ele><time>1989-12-31T00:00:00Z</time></trkpt>
<trkpt lat="46.57368246" lon="6.26243502"><ele>1352.539063</ele><time>1989-12-31T00:00:00Z</time></trkpt>
<trkpt lat="46.57298751" lon="6.26244860"><ele>1352.4375</ele><time>1989-12-31T00:00:00Z</time></trkpt>
<trkpt lat="46.57245928" lon="6.26240292"><ele>1349.734375</ele><time>1989-12-31T00:00:00Z</time></trkpt>
<trkpt lat="46.57206316" lon="6.26228398"><ele>1348.988281</ele><time>1989-12-31T00:00:00Z</time></trkpt>
<trkpt lat="46.57206316" lon="6.26227484"><ele>1348.960938</ele><time>1989-12-31T00:00:00Z</time></trkpt>
<trkpt lat="46.57168589" lon="6.26211022"><ele>1349.164063</ele><time>1989-12-31T00:00:00Z</time></trkpt>
<trkpt lat="46.57144063" lon="6.26206446"><ele>1349.441406</ele><time>1989-12-31T00:00:00Z</time></trkpt>
<trkpt lat="46.57117023" lon="6.26183580"><ele>1348.359375</ele><time>1989-12-31T00:00:00Z</time></trkpt>
<trkpt lat="46.57095012" lon="6.26169859"><ele>1348.398438</ele><time>1989-12-31T00:00:00Z</time></trkpt>
<trkpt lat="46.57072381" lon="6.26168945"><ele>1349.433594</ele><time>1989-12-31T00:00:00Z</time></trkpt>
<trkpt lat="46.57073010" lon="6.26168945"><ele>1349.433594</ele><time>1989-12-31T00:00:00Z</time></trkpt>
<trkpt lat="46.57067972" lon="6.26179003"><ele>1349.699219</ele><time>1989-12-31T00:00:00Z</time></trkpt>
<trkpt lat="46.57067972" lon="6.26179917"><ele>1349.699219</ele><time>1989-12-31T00:00:00Z</time></trkpt>
<trkpt lat="46.57068601" lon="6.26210108"><ele>1350.359375</ele><time>1989-12-31T00:00:00Z</time></trkpt>
<trkpt lat="46.57067972" lon="6.26243033"><ele>1352.765625</ele><time>1989-12-31T00:00:00Z</time></trkpt>
<trkpt lat="46.57048903" lon="6.26266401"><ele>1355.595947</ele><time>2008-08-01T09:31:58Z</time></trkpt>
<trkpt lat="46.57041200" lon="6.26281204"><ele>1356.077026</ele><time>2008-08-01T09:32:08Z</time></trkpt>
<trkpt lat="46.57020204" lon="6.26307699"><ele>1358.47998</ele><time>2008-08-01T09:32:26Z</time></trkpt>
<trkpt lat="46.56992502" lon="6.26313197"><ele>1359.921997</ele><time>2008-08-01T09:32:42Z</time></trkpt>
<trkpt lat="46.56955998" lon="6.26312904"><ele>1361.364014</ele><time>2008-08-01T09:33:00Z</time></trkpt>
<trkpt lat="46.56919998" lon="6.26309602"><ele>1363.286987</ele><time>2008-08-01T09:33:17Z</time></trkpt>
<trkpt lat="46.56883897" lon="6.26306601"><ele>1364.248047</ele><time>2008-08-01T09:33:34Z</time></trkpt>
<trkpt lat="46.56847302" lon="6.26301999"><ele>1367.131958</ele><time>2008-08-01T09:33:53Z</time></trkpt>
<trkpt lat="46.56812098" lon="6.26316600"><ele>1369.535034</ele><time>2008-08-01T09:34:14Z</time></trkpt>
<trkpt lat="46.56791302" lon="6.26306601"><ele>1367.613037</ele><time>2008-08-01T09:34:22Z</time></trkpt>
<trkpt lat="46.56782300" lon="6.26305796"><ele>1367.613037</ele><time>2008-08-01T09:34:26Z</time></trkpt>
<trkpt lat="46.56767900" lon="6.26307297"><ele>1366.651001</ele><time>2008-08-01T09:34:32Z</time></trkpt>
<trkpt lat="46.56756199" lon="6.26312602"><ele>1365.689941</ele><time>2008-08-01T09:34:37Z</time></trkpt>
<trkpt lat="46.56718497" lon="6.26324999"><ele>1362.80603</ele><time>2008-08-01T09:34:45Z</time></trkpt>
<trkpt lat="46.56679404" lon="6.26317296"><ele>1361.364014</ele><time>2008-08-01T09:34:51Z</time></trkpt>
<trkpt lat="46.56647796" lon="6.26302703"><ele>1361.364014</ele><time>2008-08-01T09:34:56Z</time></trkpt>
<trkpt lat="46.56610698" lon="6.26284397"><ele>1361.364014</ele><time>2008-08-01T09:35:03Z</time></trkpt>
<trkpt lat="46.56589801" lon="6.26274901"><ele>1361.364014</ele><time>2008-08-01T09:35:07Z</time></trkpt>
<trkpt lat="46.56566299" lon="6.26261498"><ele>1359.442017</ele><time>2008-08-01T09:35:11Z</time></trkpt>
<trkpt lat="46.56559702" lon="6.26256804"><ele>1358.47998</ele><time>2008-08-01T09:35:12Z</time></trkpt>
<trkpt lat="46.56541698" lon="6.26236402"><ele>1357.037964</ele><time>2008-08-01T09:35:15Z</time></trkpt>
<trkpt lat="46.56532000" lon="6.26218901"><ele>1355.11499</ele><time>2008-08-01T09:35:17Z</time></trkpt>
<trkpt lat="46.56508002" lon="6.26153002"><ele>1350.790039</ele><time>2008-08-01T09:35:23Z</time></trkpt>
<trkpt lat="46.56494700" lon="6.26100800"><ele>1347.906006</ele><time>2008-08-01T09:35:27Z</time></trkpt>
<trkpt lat="46.56482102" lon="6.26048698"><ele>1345.501953</ele><time>2008-08-01T09:35:31Z</time></trkpt>
<trkpt lat="46.56478800" lon="6.26035698"><ele>1345.021973</ele><time>2008-08-01T09:35:32Z</time></trkpt>
<trkpt lat="46.56466101" lon="6.25985004"><ele>1343.098999</ele><time>2008-08-01T09:35:36Z</time></trkpt>
<trkpt lat="46.56455297" lon="6.25950001"><ele>1341.656982</ele><time>2008-08-01T09:35:39Z</time></trkpt>
<trkpt lat="46.56435801" lon="6.25894404"><ele>1340.214966</ele><time>2008-08-01T09:35:44Z</time></trkpt>
<trkpt lat="46.56419196" lon="6.25844699"><ele>1338.291992</ele><time>2008-08-01T09:35:50Z</time></trkpt>
<trkpt lat="46.56400303" lon="6.25796101"><ele>1338.772949</ele><time>2008-08-01T09:36:00Z</time></trkpt>
<trkpt lat="46.56394201" lon="6.25781500"><ele>1338.772949</ele><time>2008-08-01T09:36:03Z</time></trkpt>
<trkpt lat="46.56387999" lon="6.25767301"><ele>1338.772949</ele><time>2008-08-01T09:36:06Z</time></trkpt>
<trkpt lat="46.56376800" lon="6.25740303"><ele>1339.254028</ele><time>2008-08-01T09:36:12Z</time></trkpt>
<trkpt lat="46.56368603" lon="6.25720102"><ele>1340.214966</ele><time>2008-08-01T09:36:17Z</time></trkpt>
<trkpt lat="46.56361604" lon="6.25702802"><ele>1340.696045</ele><time>2008-08-01T09:36:22Z</time></trkpt>
<trkpt lat="46.56353700" lon="6.25685401"><ele>1342.137939</ele><time>2008-08-01T09:36:28Z</time></trkpt>
<trkpt lat="46.56330097" lon="6.25643500"><ele>1345.021973</ele><time>2008-08-01T09:36:45Z</time></trkpt>
<trkpt lat="46.56311003" lon="6.25620903"><ele>1346.463989</ele><time>2008-08-01T09:36:57Z</time></trkpt>
<trkpt lat="46.56295597" lon="6.25607802"><ele>1347.906006</ele><time>2008-08-01T09:37:06Z</time></trkpt>
<trkpt lat="46.56266604" lon="6.25575297"><ele>1351.27002</ele><time>2008-08-01T09:37:26Z</time></trkpt>
<trkpt lat="46.56239103" lon="6.25541601"><ele>1352.230957</ele><time>2008-08-01T09:37:44Z</time></trkpt>
<trkpt lat="46.56203798" lon="6.25535399"><ele>1353.67395</ele><time>2008-08-01T09:38:00Z</time></trkpt>
<trkpt lat="46.56166599" lon="6.25529297"><ele>1353.192993</ele><time>2008-08-01T09:38:14Z</time></trkpt>
<trkpt lat="46.56148100" lon="6.25500396"><ele>1352.712036</ele><time>2008-08-01T09:38:22Z</time></trkpt>
<trkpt lat="46.56135804" lon="6.25466298"><ele>1351.750977</ele><time>2008-08-01T09:38:28Z</time></trkpt>
<trkpt lat="46.56118001" lon="6.25417398"><ele>1352.712036</ele><time>2008-08-01T09:38:38Z</time></trkpt>
<trkpt lat="46.56099703" lon="6.25372002"><ele>1354.154053</ele><time>2008-08-01T09:38:50Z</time></trkpt>
<trkpt lat="46.56073702" lon="6.25332397"><ele>1355.595947</ele><time>2008-08-01T09:39:03Z</time></trkpt>
<trkpt lat="46.56038700" lon="6.25315499"><ele>1355.595947</ele><time>2008-08-01T09:39:16Z</time></trkpt>
<trkpt lat="46.56003898" lon="6.25296699"><ele>1358</ele><time>2008-08-01T09:39:30Z</time></trkpt>
<trkpt lat="46.55982097" lon="6.25271302"><ele>1360.884033</ele><time>2008-08-01T09:39:44Z</time></trkpt>
<trkpt lat="46.55966699" lon="6.25248503"><ele>1361.844971</ele><time>2008-08-01T09:39:55Z</time></trkpt>
<trkpt lat="46.55940204" lon="6.25222201"><ele>1361.364014</ele><time>2008-08-01T09:40:08Z</time></trkpt>
<trkpt lat="46.55929098" lon="6.25212402"><ele>1361.364014</ele><time>2008-08-01T09:40:13Z</time></trkpt>
<trkpt lat="46.55918998" lon="6.25203601"><ele>1360.884033</ele><time>2008-08-01T09:40:18Z</time></trkpt>
<trkpt lat="46.55914002" lon="6.25195404"><ele>1360.884033</ele><time>2008-08-01T09:40:21Z</time></trkpt>
<trkpt lat="46.55909400" lon="6.25186896"><ele>1360.402954</ele><time>2008-08-01T09:40:25Z</time></trkpt>
<trkpt lat="46.55905101" lon="6.25184499"><ele>1359.921997</ele><time>2008-08-01T09:40:28Z</time></trkpt>
<trkpt lat="46.55900599" lon="6.25189503"><ele>1359.921997</ele><time>2008-08-01T09:40:32Z</time></trkpt>
<trkpt lat="46.55899904" lon="6.25192797"><ele>1359.921997</ele><time>2008-08-01T09:40:40Z</time></trkpt>
<trkpt lat="46.55898898" lon="6.25192998"><ele>1360.402954</ele><time>2008-08-01T09:40:43Z</time></trkpt>
<trkpt lat="46.55892000" lon="6.25198304"><ele>1360.884033</ele><time>2008-08-01T09:40:48Z</time></trkpt>
<trkpt lat="46.55890801" lon="6.25211597"><ele>1361.364014</ele><time>2008-08-01T09:40:52Z</time></trkpt>
<trkpt lat="46.55891304" lon="6.25242300"><ele>1363.286987</ele><time>2008-08-01T09:41:01Z</time></trkpt>
<trkpt lat="46.55895302" lon="6.25264403"><ele>1364.729004</ele><time>2008-08-01T09:41:08Z</time></trkpt>
<trkpt lat="46.55900901" lon="6.25284797"><ele>1366.171021</ele><time>2008-08-01T09:41:16Z</time></trkpt>
<trkpt lat="46.55917204" lon="6.25331802"><ele>1369.535034</ele><time>2008-08-01T09:41:34Z</time></trkpt>
<trkpt lat="46.55928503" lon="6.25362698"><ele>1371.937988</ele><time>2008-08-01T09:41:46Z</time></trkpt>
<trkpt lat="46.55941897" lon="6.25398296"><ele>1374.822998</ele><time>2008-08-01T09:42:00Z</time></trkpt>
<trkpt lat="46.55962097" lon="6.25442896"><ele>1378.187012</ele><time>2008-08-01T09:42:19Z</time></trkpt>
<trkpt lat="46.55989297" lon="6.25480497"><ele>1382.031982</ele><time>2008-08-01T09:42:38Z</time></trkpt>
<trkpt lat="46.55986900" lon="6.25524603"><ele>1384.436035</ele><time>2008-08-01T09:42:56Z</time></trkpt>
<trkpt lat="46.55955803" lon="6.25500899"><ele>1386.838989</ele><time>2008-08-01T09:43:13Z</time></trkpt>
<trkpt lat="46.55928704" lon="6.25466399"><ele>1388.761963</ele><time>2008-08-01T09:43:26Z</time></trkpt>
<trkpt lat="46.55895201" lon="6.25439099"><ele>1391.165039</ele><time>2008-08-01T09:43:40Z</time></trkpt>
<trkpt lat="46.55862303" lon="6.25412503"><ele>1393.567993</ele><time>2008-08-01T09:43:54Z</time></trkpt>
<trkpt lat="46.55829999" lon="6.25383502"><ele>1396.932983</ele><time>2008-08-01T09:44:09Z</time></trkpt>
<trkpt lat="46.55799598" lon="6.25352397"><ele>1399.33606</ele><time>2008-08-01T09:44:25Z</time></trkpt>
<trkpt lat="46.55769004" lon="6.25321602"><ele>1402.219971</ele><time>2008-08-01T09:44:42Z</time></trkpt>
<trkpt lat="46.55738301" lon="6.25289901"><ele>1405.584961</ele><time>2008-08-01T09:44:59Z</time></trkpt>
<trkpt lat="46.55705804" lon="6.25266901"><ele>1408.468994</ele><time>2008-08-01T09:45:16Z</time></trkpt>
<trkpt lat="46.55669804" lon="6.25257798"><ele>1411.353027</ele><time>2008-08-01T09:45:33Z</time></trkpt>
<trkpt lat="46.55633803" lon="6.25246198"><ele>1413.755981</ele><time>2008-08-01T09:45:50Z</time></trkpt>
<trkpt lat="46.55598700" lon="6.25227196"><ele>1417.120972</ele><time>2008-08-01T09:46:08Z</time></trkpt>
<trkpt lat="46.55564896" lon="6.25208597"><ele>1420.965942</ele><time>2008-08-01T09:46:27Z</time></trkpt>
<trkpt lat="46.55531703" lon="6.25185002"><ele>1424.811035</ele><time>2008-08-01T09:46:47Z</time></trkpt>
<trkpt lat="46.55501696" lon="6.25151801"><ele>1428.656006</ele><time>2008-08-01T09:47:07Z</time></trkpt>
<trkpt lat="46.55473600" lon="6.25118298"><ele>1432.020996</ele><time>2008-08-01T09:47:26Z</time></trkpt>
<trkpt lat="46.55444004" lon="6.25084897"><ele>1436.347046</ele><time>2008-08-01T09:47:46Z</time></trkpt>
<trkpt lat="46.55411197" lon="6.25058100"><ele>1440.192017</ele><time>2008-08-01T09:48:06Z</time></trkpt>
<trkpt lat="46.55409403" lon="6.25056800"><ele>1440.672974</ele><time>2008-08-01T09:48:07Z</time></trkpt>
<trkpt lat="46.55375901" lon="6.25036902"><ele>1444.037964</ele><time>2008-08-01T09:48:26Z</time></trkpt>
<trkpt lat="46.55341904" lon="6.25018302"><ele>1447.401978</ele><time>2008-08-01T09:48:44Z</time></trkpt>
<trkpt lat="46.55306004" lon="6.25017397"><ele>1447.883057</ele><time>2008-08-01T09:48:58Z</time></trkpt>
<trkpt lat="46.55281504" lon="6.25022803"><ele>1447.883057</ele><time>2008-08-01T09:49:07Z</time></trkpt>
<trkpt lat="46.55267296" lon="6.25028101"><ele>1447.883057</ele><time>2008-08-01T09:49:12Z</time></trkpt>
<trkpt lat="46.55264002" lon="6.25027397"><ele>1447.883057</ele><time>2008-08-01T09:49:13Z</time></trkpt>
<trkpt lat="46.55253500" lon="6.25042601"><ele>1454.612061</ele><time>2008-08-01T11:16:37Z</time></trkpt>
<trkpt lat="46.55253097" lon="6.25043297"><ele>1454.612061</ele><time>2008-08-01T11:16:38Z</time></trkpt>
<trkpt lat="46.55251597" lon="6.25046298"><ele>1455.093018</ele><time>2008-08-01T11:16:48Z</time></trkpt>
<trkpt lat="46.55247599" lon="6.25057898"><ele>1454.131958</ele><time>2008-08-01T11:16:55Z</time></trkpt>
<trkpt lat="46.55244397" lon="6.25069499"><ele>1454.131958</ele><time>2008-08-01T11:16:59Z</time></trkpt>
<trkpt lat="46.55240600" lon="6.25086598"><ele>1453.170044</ele><time>2008-08-01T11:17:02Z</time></trkpt>
<trkpt lat="46.55237197" lon="6.25133000"><ele>1450.766968</ele><time>2008-08-01T11:17:09Z</time></trkpt>
<trkpt lat="46.55235998" lon="6.25147099"><ele>1449.805054</ele><time>2008-08-01T11:17:13Z</time></trkpt>
<trkpt lat="46.55232000" lon="6.25144500"><ele>1447.883057</ele><time>2008-08-01T11:17:21Z</time></trkpt>
<trkpt lat="46.55232796" lon="6.25141198"><ele>1448.363037</ele><time>2008-08-01T11:17:23Z</time></trkpt>
<trkpt lat="46.55228396" lon="6.25130503"><ele>1447.883057</ele><time>2008-08-01T11:17:27Z</time></trkpt>
<trkpt lat="46.55214800" lon="6.25116002"><ele>1446.921021</ele><time>2008-08-01T11:17:32Z</time></trkpt>
<trkpt lat="46.55186302" lon="6.25085802"><ele>1447.883057</ele><time>2008-08-01T11:17:44Z</time></trkpt>
<trkpt lat="46.55179303" lon="6.25082198"><ele>1448.363037</ele><time>2008-08-01T11:17:48Z</time></trkpt>
<trkpt lat="46.55170301" lon="6.25078904"><ele>1448.843994</ele><time>2008-08-01T11:17:52Z</time></trkpt>
<trkpt lat="46.55163403" lon="6.25073497"><ele>1449.805054</ele><time>2008-08-01T11:17:56Z</time></trkpt>
<trkpt lat="46.55156102" lon="6.25058200"><ele>1450.286011</ele><time>2008-08-01T11:18:03Z</time></trkpt>
<trkpt lat="46.55146102" lon="6.25046298"><ele>1451.246948</ele><time>2008-08-01T11:18:09Z</time></trkpt>
<trkpt lat="46.55135700" lon="6.25036499"><ele>1452.208984</ele><time>2008-08-01T11:18:17Z</time></trkpt>
<trkpt lat="46.55115802" lon="6.25021697"><ele>1452.208984</ele><time>2008-08-01T11:18:28Z</time></trkpt>
<trkpt lat="46.55099298" lon="6.25009099"><ele>1454.612061</ele><time>2008-08-01T11:18:41Z</time></trkpt>
<trkpt lat="46.55093799" lon="6.25004296"><ele>1455.572998</ele><time>2008-08-01T11:18:47Z</time></trkpt>
<trkpt lat="46.55090103" lon="6.25000097"><ele>1455.572998</ele><time>2008-08-01T11:18:51Z</time></trkpt>
<trkpt lat="46.55071503" lon="6.24989100"><ele>1457.977051</ele><time>2008-08-01T11:19:05Z</time></trkpt>
<trkpt lat="46.55058604" lon="6.24981296"><ele>1459.899048</ele><time>2008-08-01T11:19:37Z</time></trkpt>
<trkpt lat="46.55058998" lon="6.24979603"><ele>1460.380005</ele><time>2008-08-01T11:19:42Z</time></trkpt>
<trkpt lat="46.55052996" lon="6.24974800"><ele>1461.340942</ele><time>2008-08-01T11:19:50Z</time></trkpt>
<trkpt lat="46.55021396" lon="6.24946897"><ele>1462.782959</ele><time>2008-08-01T11:20:18Z</time></trkpt>
<trkpt lat="46.55016904" lon="6.24940904"><ele>1462.782959</ele><time>2008-08-01T11:20:22Z</time></trkpt>
<trkpt lat="46.54989202" lon="6.24903202"><ele>1463.264038</ele><time>2008-08-01T11:20:41Z</time></trkpt>
<trkpt lat="46.54974299" lon="6.24889498"><ele>1464.706055</ele><time>2008-08-01T11:20:50Z</time></trkpt>
<trkpt lat="46.54949304" lon="6.24866003"><ele>1467.109009</ele><time>2008-08-01T11:21:07Z</time></trkpt>
<trkpt lat="46.54949396" lon="6.24863396"><ele>1466.628052</ele><time>2008-08-01T11:21:08Z</time></trkpt>
<trkpt lat="46.54950603" lon="6.24848804"><ele>1467.589966</ele><time>2008-08-01T11:21:14Z</time></trkpt>
<trkpt lat="46.54949203" lon="6.24840598"><ele>1468.071045</ele><time>2008-08-01T11:21:19Z</time></trkpt>
<trkpt lat="46.54924099" lon="6.24801303"><ele>1467.589966</ele><time>2008-08-01T11:21:41Z</time></trkpt>
<trkpt lat="46.54923999" lon="6.24767499"><ele>1465.666992</ele><time>2008-08-01T11:21:53Z</time></trkpt>
<trkpt lat="46.54924602" lon="6.24758899"><ele>1464.706055</ele><time>2008-08-01T11:21:57Z</time></trkpt>
<trkpt lat="46.54921400" lon="6.24747500"><ele>1462.782959</ele><time>2008-08-01T11:22:03Z</time></trkpt>
<trkpt lat="46.54915600" lon="6.24731801"><ele>1460.860962</ele><time>2008-08-01T11:22:08Z</time></trkpt>
<trkpt lat="46.54899901" lon="6.24675700"><ele>1454.612061</ele><time>2008-08-01T11:22:24Z</time></trkpt>
<trkpt lat="46.54891804" lon="6.24661904"><ele>1452.688965</ele><time>2008-08-01T11:22:29Z</time></trkpt>
<trkpt lat="46.54876197" lon="6.24647101"><ele>1450.286011</ele><time>2008-08-01T11:22:36Z</time></trkpt>
<trkpt lat="46.54868804" lon="6.24624797"><ele>1449.805054</ele><time>2008-08-01T11:22:44Z</time></trkpt>
<trkpt lat="46.54861000" lon="6.24619802"><ele>1449.324951</ele><time>2008-08-01T11:22:48Z</time></trkpt>
<trkpt lat="46.54832100" lon="6.24601001"><ele>1451.246948</ele><time>2008-08-01T11:22:59Z</time></trkpt>
<trkpt lat="46.54828001" lon="6.24600104"><ele>1450.766968</ele><time>2008-08-01T11:23:01Z</time></trkpt>
<trkpt lat="46.54819996" lon="6.24597900"><ele>1450.766968</ele><time>2008-08-01T11:23:05Z</time></trkpt>
<trkpt lat="46.54810198" lon="6.24594396"><ele>1450.766968</ele><time>2008-08-01T11:23:10Z</time></trkpt>
<trkpt lat="46.54786100" lon="6.24578596"><ele>1453.170044</ele><time>2008-08-01T11:23:24Z</time></trkpt>
<trkpt lat="46.54771398" lon="6.24559402"><ele>1454.131958</ele><time>2008-08-01T11:23:58Z</time></trkpt>
<trkpt lat="46.54771004" lon="6.24557700"><ele>1454.612061</ele><time>2008-08-01T11:24:00Z</time></trkpt>
<trkpt lat="46.54768799" lon="6.24545303"><ele>1452.688965</ele><time>2008-08-01T11:24:06Z</time></trkpt>
<trkpt lat="46.54769897" lon="6.24528598"><ele>1450.766968</ele><time>2008-08-01T11:24:13Z</time></trkpt>
<trkpt lat="46.54765002" lon="6.24512203"><ele>1449.324951</ele><time>2008-08-01T11:24:18Z</time></trkpt>
<trkpt lat="46.54760703" lon="6.24501298"><ele>1448.363037</ele><time>2008-08-01T11:24:23Z</time></trkpt>
<trkpt lat="46.54744500" lon="6.24462197"><ele>1445.959961</ele><time>2008-08-01T11:24:34Z</time></trkpt>
<trkpt lat="46.54744199" lon="6.24458198"><ele>1445.959961</ele><time>2008-08-01T11:24:35Z</time></trkpt>
<trkpt lat="46.54746797" lon="6.24446799"><ele>1444.517944</ele><time>2008-08-01T11:24:39Z</time></trkpt>
<trkpt lat="46.54743000" lon="6.24428300"><ele>1443.557007</ele><time>2008-08-01T11:24:45Z</time></trkpt>
<trkpt lat="46.54727602" lon="6.24400598"><ele>1441.154053</ele><time>2008-08-01T11:24:57Z</time></trkpt>
<trkpt lat="46.54714904" lon="6.24384496"><ele>1439.712036</ele><time>2008-08-01T11:25:04Z</time></trkpt>
<trkpt lat="46.54702800" lon="6.24362896"><ele>1437.78894</ele><time>2008-08-01T11:25:14Z</time></trkpt>
<trkpt lat="46.54698199" lon="6.24354498"><ele>1437.307983</ele><time>2008-08-01T11:25:17Z</time></trkpt>
<trkpt lat="46.54689297" lon="6.24342998"><ele>1435.38501</ele><time>2008-08-01T11:25:22Z</time></trkpt>
<trkpt lat="46.54660497" lon="6.24338396"><ele>1431.060059</ele><time>2008-08-01T11:25:32Z</time></trkpt>
<trkpt lat="46.54626198" lon="6.24351304"><ele>1430.578979</ele><time>2008-08-01T11:25:47Z</time></trkpt>
<trkpt lat="46.54612997" lon="6.24363600"><ele>1429.618042</ele><time>2008-08-01T11:25:54Z</time></trkpt>
<trkpt lat="46.54598303" lon="6.24400799"><ele>1426.253052</ele><time>2008-08-01T11:26:05Z</time></trkpt>
<trkpt lat="46.54577399" lon="6.24404998"><ele>1424.811035</ele><time>2008-08-01T11:26:12Z</time></trkpt>
<trkpt lat="46.54543603" lon="6.24385100"><ele>1423.369019</ele><time>2008-08-01T11:26:22Z</time></trkpt>
<trkpt lat="46.54535699" lon="6.24391504"><ele>1421.927002</ele><time>2008-08-01T11:26:26Z</time></trkpt>
<trkpt lat="46.54525800" lon="6.24400296"><ele>1420.005005</ele><time>2008-08-01T11:26:31Z</time></trkpt>
<trkpt lat="46.54520997" lon="6.24398997"><ele>1419.042969</ele><time>2008-08-01T11:26:33Z</time></trkpt>
<trkpt lat="46.54502196" lon="6.24379702"><ele>1419.042969</ele><time>2008-08-01T11:26:40Z</time></trkpt>
<trkpt lat="46.54477897" lon="6.24366702"><ele>1419.042969</ele><time>2008-08-01T11:26:51Z</time></trkpt>
<trkpt lat="46.54443104" lon="6.24396600"><ele>1415.197998</ele><time>2008-08-01T11:27:03Z</time></trkpt>
<trkpt lat="46.54428301" lon="6.24427403"><ele>1416.640015</ele><time>2008-08-01T11:27:10Z</time></trkpt>
<trkpt lat="46.54418503" lon="6.24445198"><ele>1415.678955</ele><time>2008-08-01T11:27:15Z</time></trkpt>
<trkpt lat="46.54411504" lon="6.24455499"><ele>1413.275024</ele><time>2008-08-01T11:27:19Z</time></trkpt>
<trkpt lat="46.54379896" lon="6.24460403"><ele>1408.468994</ele><time>2008-08-01T11:27:32Z</time></trkpt>
<trkpt lat="46.54371103" lon="6.24462901"><ele>1407.508057</ele><time>2008-08-01T11:27:34Z</time></trkpt>
<trkpt lat="46.54366099" lon="6.24467402"><ele>1407.508057</ele><time>2008-08-01T11:27:36Z</time></trkpt>
<trkpt lat="46.54363300" lon="6.24471199"><ele>1407.508057</ele><time>2008-08-01T11:27:38Z</time></trkpt>
<trkpt lat="46.54363300" lon="6.24480201"><ele>1405.584961</ele><time>2008-08-01T11:27:41Z</time></trkpt>
<trkpt lat="46.54374599" lon="6.24524298"><ele>1397.894043</ele><time>2008-08-01T11:27:55Z</time></trkpt>
<trkpt lat="46.54378102" lon="6.24543199"><ele>1395.01001</ele><time>2008-08-01T11:28:00Z</time></trkpt>
<trkpt lat="46.54384598" lon="6.24545898"><ele>1394.530029</ele><time>2008-08-01T11:28:18Z</time></trkpt>
<trkpt lat="46.54386300" lon="6.24544599"><ele>1394.04895</ele><time>2008-08-01T11:28:24Z</time></trkpt>
<trkpt lat="46.54388303" lon="6.24542504"><ele>1394.530029</ele><time>2008-08-01T11:28:38Z</time></trkpt>
<trkpt lat="46.54386098" lon="6.24544096"><ele>1394.04895</ele><time>2008-08-01T11:28:54Z</time></trkpt>
<trkpt lat="46.54390801" lon="6.24559896"><ele>1391.165039</ele><time>2008-08-01T11:29:00Z</time></trkpt>
<trkpt lat="46.54393399" lon="6.24566602"><ele>1390.203979</ele><time>2008-08-01T11:29:02Z</time></trkpt>
<trkpt lat="46.54400398" lon="6.24586400"><ele>1387.319946</ele><time>2008-08-01T11:29:07Z</time></trkpt>
<trkpt lat="46.54419299" lon="6.24614202"><ele>1385.878052</ele><time>2008-08-01T11:29:17Z</time></trkpt>
<trkpt lat="46.54424203" lon="6.24622098"><ele>1384.436035</ele><time>2008-08-01T11:29:21Z</time></trkpt>
<trkpt lat="46.54431101" lon="6.24644503"><ele>1380.590942</ele><time>2008-08-01T11:29:29Z</time></trkpt>
<trkpt lat="46.54434202" lon="6.24654100"><ele>1379.147949</ele><time>2008-08-01T11:29:32Z</time></trkpt>
<trkpt lat="46.54419702" lon="6.24701902"><ele>1376.265015</ele><time>2008-08-01T11:29:42Z</time></trkpt>
<trkpt lat="46.54410196" lon="6.24707703"><ele>1375.302979</ele><time>2008-08-01T11:29:45Z</time></trkpt>
<trkpt lat="46.54392703" lon="6.24698097"><ele>1375.784058</ele><time>2008-08-01T11:29:51Z</time></trkpt>
<trkpt lat="46.54360198" lon="6.24697200"><ele>1377.225952</ele><time>2008-08-01T11:30:02Z</time></trkpt>
<trkpt lat="46.54354004" lon="6.24710896"><ele>1376.265015</ele><time>2008-08-01T11:30:08Z</time></trkpt>
<trkpt lat="46.54356100" lon="6.24754700"><ele>1370.496948</ele><time>2008-08-01T11:30:19Z</time></trkpt>
<trkpt lat="46.54356997" lon="6.24769603"><ele>1369.055054</ele><time>2008-08-01T11:30:22Z</time></trkpt>
<trkpt lat="46.54350199" lon="6.24770399"><ele>1368.093018</ele><time>2008-08-01T11:30:27Z</time></trkpt>
<trkpt lat="46.54338104" lon="6.24747500"><ele>1367.613037</ele><time>2008-08-01T11:30:35Z</time></trkpt>
<trkpt lat="46.54322203" lon="6.24724902"><ele>1366.651001</ele><time>2008-08-01T11:30:41Z</time></trkpt>
<trkpt lat="46.54302103" lon="6.24700502"><ele>1365.689941</ele><time>2008-08-01T11:30:47Z</time></trkpt>
<trkpt lat="46.54276497" lon="6.24667302"><ele>1364.248047</ele><time>2008-08-01T11:30:54Z</time></trkpt>
<trkpt lat="46.54260504" lon="6.24640698"><ele>1362.80603</ele><time>2008-08-01T11:31:00Z</time></trkpt>
<trkpt lat="46.54247898" lon="6.24608402"><ele>1360.884033</ele><time>2008-08-01T11:31:05Z</time></trkpt>
<trkpt lat="46.54227303" lon="6.24556300"><ele>1357.519043</ele><time>2008-08-01T11:31:12Z</time></trkpt>
<trkpt lat="46.54198403" lon="6.24517299"><ele>1354.63501</ele><time>2008-08-01T11:31:19Z</time></trkpt>
<trkpt lat="46.54166501" lon="6.24485096"><ele>1352.712036</ele><time>2008-08-01T11:31:25Z</time></trkpt>
<trkpt lat="46.54135496" lon="6.24454200"><ele>1351.27002</ele><time>2008-08-01T11:31:30Z</time></trkpt>
<trkpt lat="46.54103000" lon="6.24427797"><ele>1350.30896</ele><time>2008-08-01T11:31:35Z</time></trkpt>
<trkpt lat="46.54084501" lon="6.24414696"><ele>1349.828003</ele><time>2008-08-01T11:31:38Z</time></trkpt>
<trkpt lat="46.54063798" lon="6.24381001"><ele>1347.906006</ele><time>2008-08-01T11:31:44Z</time></trkpt>
<trkpt lat="46.54053203" lon="6.24338597"><ele>1344.541016</ele><time>2008-08-01T11:31:51Z</time></trkpt>
<trkpt lat="46.54040697" lon="6.24286897"><ele>1342.137939</ele><time>2008-08-01T11:31:58Z</time></trkpt>
<trkpt lat="46.54039096" lon="6.24279999"><ele>1341.656982</ele><time>2008-08-01T11:31:59Z</time></trkpt>
<trkpt lat="46.54035903" lon="6.24265700"><ele>1341.177002</ele><time>2008-08-01T11:32:01Z</time></trkpt>
<trkpt lat="46.54031804" lon="6.24249598"><ele>1340.214966</ele><time>2008-08-01T11:32:03Z</time></trkpt>
<trkpt lat="46.54029499" lon="6.24241300"><ele>1339.734009</ele><time>2008-08-01T11:32:04Z</time></trkpt>
<trkpt lat="46.54023003" lon="6.24221200"><ele>1338.291992</ele><time>2008-08-01T11:32:07Z</time></trkpt>
<trkpt lat="46.53994102" lon="6.24182300"><ele>1336.369995</ele><time>2008-08-01T11:32:14Z</time></trkpt>
<trkpt lat="46.53954699" lon="6.24153600"><ele>1332.525024</ele><time>2008-08-01T11:32:21Z</time></trkpt>
<trkpt lat="46.53933400" lon="6.24133500"><ele>1331.083008</ele><time>2008-08-01T11:32:25Z</time></trkpt>
<trkpt lat="46.53908900" lon="6.24103501"><ele>1329.160034</ele><time>2008-08-01T11:32:30Z</time></trkpt>
<trkpt lat="46.53886604" lon="6.24077300"><ele>1326.756958</ele><time>2008-08-01T11:32:57Z</time></trkpt>
<trkpt lat="46.53886696" lon="6.24076000"><ele>1327.238037</ele><time>2008-08-01T11:33:09Z</time></trkpt>
<trkpt lat="46.53890602" lon="6.24076101"><ele>1326.756958</ele><time>2008-08-01T11:33:19Z</time></trkpt>
<trkpt lat="46.53891499" lon="6.24075498"><ele>1327.238037</ele><time>2008-08-01T11:33:21Z</time></trkpt>
<trkpt lat="46.53887501" lon="6.24073503"><ele>1326.756958</ele><time>2008-08-01T11:33:46Z</time></trkpt>
<trkpt lat="46.53881399" lon="6.24068398"><ele>1325.795044</ele><time>2008-08-01T11:33:50Z</time></trkpt>
<trkpt lat="46.53845801" lon="6.24039204"><ele>1321.949951</ele><time>2008-08-01T11:34:03Z</time></trkpt>
<trkpt lat="46.53824503" lon="6.24019104"><ele>1320.026978</ele><time>2008-08-01T11:34:11Z</time></trkpt>
<trkpt lat="46.53804302" lon="6.23994998"><ele>1317.624023</ele><time>2008-08-01T11:34:17Z</time></trkpt>
<trkpt lat="46.53785996" lon="6.23985199"><ele>1316.182007</ele><time>2008-08-01T11:34:21Z</time></trkpt>
<trkpt lat="46.53769601" lon="6.23988502"><ele>1315.702026</ele><time>2008-08-01T11:34:24Z</time></trkpt>
<trkpt lat="46.53753298" lon="6.23995702"><ele>1314.26001</ele><time>2008-08-01T11:34:27Z</time></trkpt>
<trkpt lat="46.53719402" lon="6.24008400"><ele>1313.297974</ele><time>2008-08-01T11:34:33Z</time></trkpt>
<trkpt lat="46.53698799" lon="6.24005903"><ele>1313.297974</ele><time>2008-08-01T11:34:37Z</time></trkpt>
<trkpt lat="46.53657200" lon="6.23984403"><ele>1312.337036</ele><time>2008-08-01T11:34:45Z</time></trkpt>
<trkpt lat="46.53642003" lon="6.23976700"><ele>1312.817993</ele><time>2008-08-01T11:34:48Z</time></trkpt>
<trkpt lat="46.53603698" lon="6.23955200"><ele>1312.337036</ele><time>2008-08-01T11:34:56Z</time></trkpt>
<trkpt lat="46.53583699" lon="6.23944698"><ele>1312.337036</ele><time>2008-08-01T11:35:00Z</time></trkpt>
<trkpt lat="46.53545402" lon="6.23924204"><ele>1312.337036</ele><time>2008-08-01T11:35:08Z</time></trkpt>
<trkpt lat="46.53536702" lon="6.23920097"><ele>1312.337036</ele><time>2008-08-01T11:35:10Z</time></trkpt>
<trkpt lat="46.53517398" lon="6.23921698"><ele>1312.337036</ele><time>2008-08-01T11:35:15Z</time></trkpt>
<trkpt lat="46.53505001" lon="6.23933399"><ele>1312.337036</ele><time>2008-08-01T11:35:28Z</time></trkpt>
<trkpt lat="46.53503199" lon="6.23933801"><ele>1312.817993</ele><time>2008-08-01T11:35:44Z</time></trkpt>
<trkpt lat="46.53508999" lon="6.23940700"><ele>1311.855957</ele><time>2008-08-01T11:36:27Z</time></trkpt>
<trkpt lat="46.53508899" lon="6.23940599"><ele>1311.855957</ele><time>2008-08-01T11:36:28Z</time></trkpt>
<trkpt lat="46.53507801" lon="6.23938504"><ele>1311.855957</ele><time>2008-08-01T11:36:58Z</time></trkpt>
<trkpt lat="46.53507801" lon="6.23938504"><ele>1311.375977</ele><time>2008-08-01T11:36:59Z</time></trkpt>
<trkpt lat="46.53507600" lon="6.23938202"><ele>1311.375977</ele><time>2008-08-01T11:37:08Z</time></trkpt>
<trkpt lat="46.53507600" lon="6.23938202"><ele>1311.375977</ele><time>2008-08-01T11:37:12Z</time></trkpt>
<trkpt lat="46.53506904" lon="6.23938797"><ele>1311.375977</ele><time>2008-08-01T11:37:20Z</time></trkpt>
<trkpt lat="46.53504197" lon="6.23942602"><ele>1311.375977</ele><time>2008-08-01T11:37:28Z</time></trkpt>
<trkpt lat="46.53503803" lon="6.23942602"><ele>1311.375977</ele><time>2008-08-01T11:37:30Z</time></trkpt>
<trkpt lat="46.53476503" lon="6.23948696"><ele>1310.41394</ele><time>2008-08-01T11:37:41Z</time></trkpt>
<trkpt lat="46.53435599" lon="6.23955703"><ele>1309.453003</ele><time>2008-08-01T11:37:50Z</time></trkpt>
<trkpt lat="46.53430503" lon="6.23956701"><ele>1309.453003</ele><time>2008-08-01T11:37:51Z</time></trkpt>
<trkpt lat="46.53403404" lon="6.23972199"><ele>1308.010986</ele><time>2008-08-01T11:37:56Z</time></trkpt>
<trkpt lat="46.53373900" lon="6.24002701"><ele>1307.530029</ele><time>2008-08-01T11:38:02Z</time></trkpt>
<trkpt lat="46.53360698" lon="6.24033596"><ele>1306.56897</ele><time>2008-08-01T11:38:06Z</time></trkpt>
<trkpt lat="46.53351403" lon="6.24059203"><ele>1305.126953</ele><time>2008-08-01T11:38:09Z</time></trkpt>
<trkpt lat="46.53346499" lon="6.24076797"><ele>1304.166016</ele><time>2008-08-01T11:38:11Z</time></trkpt>
<trkpt lat="46.53345100" lon="6.24095396"><ele>1302.723999</ele><time>2008-08-01T11:38:13Z</time></trkpt>
<trkpt lat="46.53342501" lon="6.24121799"><ele>1301.281982</ele><time>2008-08-01T11:38:16Z</time></trkpt>
<trkpt lat="46.53319702" lon="6.24185200"><ele>1296.474976</ele><time>2008-08-01T11:38:23Z</time></trkpt>
<trkpt lat="46.53316199" lon="6.24193900"><ele>1296.474976</ele><time>2008-08-01T11:38:24Z</time></trkpt>
<trkpt lat="46.53301396" lon="6.24228098"><ele>1294.552002</ele><time>2008-08-01T11:38:28Z</time></trkpt>
<trkpt lat="46.53296803" lon="6.24235801"><ele>1293.590942</ele><time>2008-08-01T11:38:29Z</time></trkpt>
<trkpt lat="46.53281900" lon="6.24253303"><ele>1291.187988</ele><time>2008-08-01T11:38:32Z</time></trkpt>
<trkpt lat="46.53244701" lon="6.24254703"><ele>1288.303955</ele><time>2008-08-01T11:38:38Z</time></trkpt>
<trkpt lat="46.53237903" lon="6.24250302"><ele>1287.822998</ele><time>2008-08-01T11:38:39Z</time></trkpt>
<trkpt lat="46.53225599" lon="6.24240596"><ele>1286.862061</ele><time>2008-08-01T11:38:41Z</time></trkpt>
<trkpt lat="46.53206999" lon="6.24233597"><ele>1284.458984</ele><time>2008-08-01T11:38:44Z</time></trkpt>
<trkpt lat="46.53184402" lon="6.24240302"><ele>1283.016968</ele><time>2008-08-01T11:38:48Z</time></trkpt>
<trkpt lat="46.53167102" lon="6.24248601"><ele>1281.093994</ele><time>2008-08-01T11:38:51Z</time></trkpt>
<trkpt lat="46.53124496" lon="6.24244200"><ele>1277.729004</ele><time>2008-08-01T11:38:57Z</time></trkpt>
<trkpt lat="46.53104103" lon="6.24240101"><ele>1276.287964</ele><time>2008-08-01T11:39:00Z</time></trkpt>
<trkpt lat="46.53091497" lon="6.24234804"><ele>1275.32605</ele><time>2008-08-01T11:39:02Z</time></trkpt>
<trkpt lat="46.53086300" lon="6.24230001"><ele>1274.36499</ele><time>2008-08-01T11:39:03Z</time></trkpt>
<trkpt lat="46.53052303" lon="6.24203204"><ele>1271</ele><time>2008-08-01T11:39:09Z</time></trkpt>
<trkpt lat="46.53022304" lon="6.24184303"><ele>1268.115967</ele><time>2008-08-01T11:39:14Z</time></trkpt>
<trkpt lat="46.52980504" lon="6.24175200"><ele>1266.19397</ele><time>2008-08-01T11:39:22Z</time></trkpt>
<trkpt lat="46.52943498" lon="6.24179601"><ele>1265.232056</ele><time>2008-08-01T11:39:31Z</time></trkpt>
<trkpt lat="46.52909501" lon="6.24197597"><ele>1264.751953</ele><time>2008-08-01T11:39:47Z</time></trkpt>
<trkpt lat="46.52888797" lon="6.24210396"><ele>1264.751953</ele><time>2008-08-01T11:39:53Z</time></trkpt>
<trkpt lat="46.52864004" lon="6.24225198"><ele>1264.751953</ele><time>2008-08-01T11:39:59Z</time></trkpt>
<trkpt lat="46.52823100" lon="6.24218099"><ele>1263.790039</ele><time>2008-08-01T11:40:07Z</time></trkpt>
<trkpt lat="46.52812002" lon="6.24216900"><ele>1263.310059</ele><time>2008-08-01T11:40:09Z</time></trkpt>
<trkpt lat="46.52774200" lon="6.24227202"><ele>1262.348022</ele><time>2008-08-01T11:40:15Z</time></trkpt>
<trkpt lat="46.52731502" lon="6.24251300"><ele>1259.944946</ele><time>2008-08-01T11:40:21Z</time></trkpt>
<trkpt lat="46.52700598" lon="6.24267602"><ele>1258.021973</ele><time>2008-08-01T11:40:25Z</time></trkpt>
<trkpt lat="46.52686902" lon="6.24279999"><ele>1257.541992</ele><time>2008-08-01T11:40:27Z</time></trkpt>
<trkpt lat="46.52665696" lon="6.24310803"><ele>1256.579956</ele><time>2008-08-01T11:40:31Z</time></trkpt>
<trkpt lat="46.52640902" lon="6.24332897"><ele>1255.619019</ele><time>2008-08-01T11:40:35Z</time></trkpt>
<trkpt lat="46.52614097" lon="6.24378403"><ele>1254.177002</ele><time>2008-08-01T11:40:41Z</time></trkpt>
<trkpt lat="46.52578700" lon="6.24427102"><ele>1253.697021</ele><time>2008-08-01T11:40:48Z</time></trkpt>
<trkpt lat="46.52566303" lon="6.24457302"><ele>1253.697021</ele><time>2008-08-01T11:40:53Z</time></trkpt>
<trkpt lat="46.52587401" lon="6.24506503"><ele>1253.697021</ele><time>2008-08-01T11:40:59Z</time></trkpt>
<trkpt lat="46.52611298" lon="6.24543501"><ele>1253.697021</ele><time>2008-08-01T11:41:05Z</time></trkpt>
<trkpt lat="46.52614399" lon="6.24549896"><ele>1253.697021</ele><time>2008-08-01T11:41:06Z</time></trkpt>
<trkpt lat="46.52627500" lon="6.24597698"><ele>1254.177002</ele><time>2008-08-01T11:41:13Z</time></trkpt>
<trkpt lat="46.52629302" lon="6.24628200"><ele>1254.177002</ele><time>2008-08-01T11:41:17Z</time></trkpt>
<trkpt lat="46.52636804" lon="6.24660697"><ele>1255.137939</ele><time>2008-08-01T11:41:22Z</time></trkpt>
<trkpt lat="46.52635002" lon="6.24709496"><ele>1256.579956</ele><time>2008-08-01T11:41:30Z</time></trkpt>
<trkpt lat="46.52637097" lon="6.24728800"><ele>1256.579956</ele><time>2008-08-01T11:41:33Z</time></trkpt>
<trkpt lat="46.52648899" lon="6.24773702"><ele>1257.541992</ele><time>2008-08-01T11:41:41Z</time></trkpt>
<trkpt lat="46.52648597" lon="6.24802996"><ele>1257.061035</ele><time>2008-08-01T11:41:45Z</time></trkpt>
<trkpt lat="46.52646502" lon="6.24818503"><ele>1256.579956</ele><time>2008-08-01T11:41:47Z</time></trkpt>
<trkpt lat="46.52641397" lon="6.24884703"><ele>1256.099976</ele><time>2008-08-01T11:41:55Z</time></trkpt>
<trkpt lat="46.52640500" lon="6.24893001"><ele>1256.099976</ele><time>2008-08-01T11:41:56Z</time></trkpt>
<trkpt lat="46.52631297" lon="6.24913503"><ele>1256.579956</ele><time>2008-08-01T11:41:59Z</time></trkpt>
<trkpt lat="46.52622596" lon="6.24944801"><ele>1256.579956</ele><time>2008-08-01T11:42:03Z</time></trkpt>
<trkpt lat="46.52607903" lon="6.24964599"><ele>1257.061035</ele><time>2008-08-01T11:42:07Z</time></trkpt>
<trkpt lat="46.52571701" lon="6.24977197"><ele>1257.541992</ele><time>2008-08-01T11:42:14Z</time></trkpt>
<trkpt lat="46.52530303" lon="6.24986300"><ele>1258.021973</ele><time>2008-08-01T11:42:23Z</time></trkpt>
<trkpt lat="46.52503196" lon="6.24982604"><ele>1258.021973</ele><time>2008-08-01T11:42:29Z</time></trkpt>
<trkpt lat="46.52487597" lon="6.24978002"><ele>1258.021973</ele><time>2008-08-01T11:42:32Z</time></trkpt>
<trkpt lat="46.52445101" lon="6.24956796"><ele>1256.099976</ele><time>2008-08-01T11:42:40Z</time></trkpt>
<trkpt lat="46.52411196" lon="6.24933897"><ele>1255.619019</ele><time>2008-08-01T11:42:46Z</time></trkpt>
<trkpt lat="46.52385900" lon="6.24910997"><ele>1254.657959</ele><time>2008-08-01T11:42:51Z</time></trkpt>
<trkpt lat="46.52359497" lon="6.24888098"><ele>1254.177002</ele><time>2008-08-01T11:42:56Z</time></trkpt>
<trkpt lat="46.52332096" lon="6.24873798"><ele>1252.734985</ele><time>2008-08-01T11:43:00Z</time></trkpt>
<trkpt lat="46.52291997" lon="6.24853799"><ele>1252.254028</ele><time>2008-08-01T11:43:06Z</time></trkpt>
<trkpt lat="46.52257204" lon="6.24829902"><ele>1250.332031</ele><time>2008-08-01T11:43:11Z</time></trkpt>
<trkpt lat="46.52220097" lon="6.24803499"><ele>1247.928955</ele><time>2008-08-01T11:43:16Z</time></trkpt>
<trkpt lat="46.52186302" lon="6.24779401"><ele>1245.525024</ele><time>2008-08-01T11:43:20Z</time></trkpt>
<trkpt lat="46.52161600" lon="6.24765404"><ele>1243.121948</ele><time>2008-08-01T11:43:23Z</time></trkpt>
<trkpt lat="46.52127301" lon="6.24741398"><ele>1240.718994</ele><time>2008-08-01T11:43:27Z</time></trkpt>
<trkpt lat="46.52097001" lon="6.24711097"><ele>1237.834961</ele><time>2008-08-01T11:43:31Z</time></trkpt>
<trkpt lat="46.52055603" lon="6.24680101"><ele>1234.469971</ele><time>2008-08-01T11:43:36Z</time></trkpt>
<trkpt lat="46.52027297" lon="6.24659297"><ele>1231.58606</ele><time>2008-08-01T11:43:40Z</time></trkpt>
<trkpt lat="46.51998103" lon="6.24641301"><ele>1229.66394</ele><time>2008-08-01T11:43:44Z</time></trkpt>
<trkpt lat="46.51969898" lon="6.24621897"><ele>1227.26001</ele><time>2008-08-01T11:43:48Z</time></trkpt>
<trkpt lat="46.51954098" lon="6.24611897"><ele>1225.817993</ele><time>2008-08-01T11:43:50Z</time></trkpt>
<trkpt lat="46.51917301" lon="6.24601596"><ele>1223.415039</ele><time>2008-08-01T11:43:54Z</time></trkpt>
<trkpt lat="46.51890999" lon="6.24601797"><ele>1221.011963</ele><time>2008-08-01T11:43:57Z</time></trkpt>
<trkpt lat="46.51848301" lon="6.24599702"><ele>1216.686035</ele><time>2008-08-01T11:44:02Z</time></trkpt>
<trkpt lat="46.51839701" lon="6.24598604"><ele>1216.204956</ele><time>2008-08-01T11:44:03Z</time></trkpt>
<trkpt lat="46.51790701" lon="6.24575000"><ele>1211.397949</ele><time>2008-08-01T11:44:09Z</time></trkpt>
<trkpt lat="46.51782302" lon="6.24570499"><ele>1210.917969</ele><time>2008-08-01T11:44:10Z</time></trkpt>
<trkpt lat="46.51756503" lon="6.24559100"><ele>1208.034058</ele><time>2008-08-01T11:44:13Z</time></trkpt>
<trkpt lat="46.51719698" lon="6.24552998"><ele>1205.150024</ele><time>2008-08-01T11:44:17Z</time></trkpt>
<trkpt lat="46.51701098" lon="6.24548798"><ele>1203.708008</ele><time>2008-08-01T11:44:19Z</time></trkpt>
<trkpt lat="46.51675198" lon="6.24535999"><ele>1201.785034</ele><time>2008-08-01T11:44:22Z</time></trkpt>
<trkpt lat="46.51632702" lon="6.24516796"><ele>1197.458984</ele><time>2008-08-01T11:44:27Z</time></trkpt>
<trkpt lat="46.51606902" lon="6.24502799"><ele>1195.05603</ele><time>2008-08-01T11:44:30Z</time></trkpt>
<trkpt lat="46.51570299" lon="6.24464099"><ele>1191.21106</ele><time>2008-08-01T11:44:35Z</time></trkpt>
<trkpt lat="46.51564004" lon="6.24455600"><ele>1190.25</ele><time>2008-08-01T11:44:36Z</time></trkpt>
<trkpt lat="46.51544097" lon="6.24433698"><ele>1188.327026</ele><time>2008-08-01T11:44:39Z</time></trkpt>
<trkpt lat="46.51528004" lon="6.24420304"><ele>1186.404053</ele><time>2008-08-01T11:44:41Z</time></trkpt>
<trkpt lat="46.51511500" lon="6.24410002"><ele>1185.442993</ele><time>2008-08-01T11:44:43Z</time></trkpt>
<trkpt lat="46.51471702" lon="6.24398997"><ele>1181.598022</ele><time>2008-08-01T11:44:48Z</time></trkpt>
<trkpt lat="46.51465399" lon="6.24397698"><ele>1181.116943</ele><time>2008-08-01T11:44:49Z</time></trkpt>
<trkpt lat="46.51446003" lon="6.24398402"><ele>1178.233032</ele><time>2008-08-01T11:44:53Z</time></trkpt>
<trkpt lat="46.51425904" lon="6.24400900"><ele>1175.348999</ele><time>2008-08-01T11:44:58Z</time></trkpt>
<trkpt lat="46.51407396" lon="6.24381504"><ele>1173.427002</ele><time>2008-08-01T11:45:03Z</time></trkpt>
<trkpt lat="46.51392904" lon="6.24360700"><ele>1171.984009</ele><time>2008-08-01T11:45:07Z</time></trkpt>
<trkpt lat="46.51367197" lon="6.24341204"><ele>1169.581055</ele><time>2008-08-01T11:45:13Z</time></trkpt>
<trkpt lat="46.51344398" lon="6.24329402"><ele>1167.657959</ele><time>2008-08-01T11:45:17Z</time></trkpt>
<trkpt lat="46.51331096" lon="6.24325102"><ele>1166.697021</ele><time>2008-08-01T11:45:19Z</time></trkpt>
<trkpt lat="46.51310803" lon="6.24324398"><ele>1166.217041</ele><time>2008-08-01T11:45:22Z</time></trkpt>
<trkpt lat="46.51291902" lon="6.24316896"><ele>1166.697021</ele><time>2008-08-01T11:45:25Z</time></trkpt>
<trkpt lat="46.51265700" lon="6.24301096"><ele>1169.100952</ele><time>2008-08-01T11:45:33Z</time></trkpt>
<trkpt lat="46.51260101" lon="6.24298800"><ele>1169.581055</ele><time>2008-08-01T11:45:36Z</time></trkpt>
<trkpt lat="46.51258701" lon="6.24297702"><ele>1169.100952</ele><time>2008-08-01T11:45:37Z</time></trkpt>
<trkpt lat="46.51247101" lon="6.24285104"><ele>1171.022949</ele><time>2008-08-01T11:45:45Z</time></trkpt>
<trkpt lat="46.51240001" lon="6.24272003"><ele>1171.984009</ele><time>2008-08-01T11:45:51Z</time></trkpt>
<trkpt lat="46.51236598" lon="6.24261701"><ele>1172.946045</ele><time>2008-08-01T11:45:55Z</time></trkpt>
<trkpt lat="46.51233799" lon="6.24254602"><ele>1173.427002</ele><time>2008-08-01T11:45:58Z</time></trkpt>
<trkpt lat="46.51231200" lon="6.24245097"><ele>1173.906982</ele><time>2008-08-01T11:46:02Z</time></trkpt>
<trkpt lat="46.51226004" lon="6.24219197"><ele>1175.829956</ele><time>2008-08-01T11:46:12Z</time></trkpt>
<trkpt lat="46.51226800" lon="6.24195904"><ele>1177.751953</ele><time>2008-08-01T11:46:22Z</time></trkpt>
<trkpt lat="46.51228904" lon="6.24184898"><ele>1178.713989</ele><time>2008-08-01T11:46:28Z</time></trkpt>
<trkpt lat="46.51230899" lon="6.24176600"><ele>1179.675049</ele><time>2008-08-01T11:46:32Z</time></trkpt>
<trkpt lat="46.51242097" lon="6.24124196"><ele>1183.040039</ele><time>2008-08-01T11:46:56Z</time></trkpt>
<trkpt lat="46.51256598" lon="6.24076000"><ele>1186.404053</ele><time>2008-08-01T11:47:22Z</time></trkpt>
<trkpt lat="46.51271400" lon="6.24026899"><ele>1189.769043</ele><time>2008-08-01T11:47:47Z</time></trkpt>
<trkpt lat="46.51276002" lon="6.24011996"><ele>1191.21106</ele><time>2008-08-01T11:47:55Z</time></trkpt>
<trkpt lat="46.51278198" lon="6.24003002"><ele>1191.69104</ele><time>2008-08-01T11:48:00Z</time></trkpt>
<trkpt lat="46.51293696" lon="6.23952099"><ele>1194.574951</ele><time>2008-08-01T11:48:24Z</time></trkpt>
<trkpt lat="46.51313201" lon="6.23908396"><ele>1197.458984</ele><time>2008-08-01T11:48:47Z</time></trkpt>
<trkpt lat="46.51329302" lon="6.23861399"><ele>1200.823975</ele><time>2008-08-01T11:49:12Z</time></trkpt>
<trkpt lat="46.51339101" lon="6.23808802"><ele>1204.188965</ele><time>2008-08-01T11:49:36Z</time></trkpt>
<trkpt lat="46.51346602" lon="6.23759399"><ele>1207.072998</ele><time>2008-08-01T11:49:57Z</time></trkpt>
<trkpt lat="46.51348002" lon="6.23746801"><ele>1208.034058</ele><time>2008-08-01T11:50:03Z</time></trkpt>
<trkpt lat="46.51349301" lon="6.23691598"><ele>1210.917969</ele><time>2008-08-01T11:50:29Z</time></trkpt>
<trkpt lat="46.51349796" lon="6.23648398"><ele>1214.281982</ele><time>2008-08-01T11:50:49Z</time></trkpt>
<trkpt lat="46.51344096" lon="6.23596204"><ele>1217.646973</ele><time>2008-08-01T11:51:14Z</time></trkpt>
<trkpt lat="46.51344197" lon="6.23587101"><ele>1218.608032</ele><time>2008-08-01T11:51:18Z</time></trkpt>
<trkpt lat="46.51346200" lon="6.23562299"><ele>1219.569946</ele><time>2008-08-01T11:53:03Z</time></trkpt>
<trkpt lat="46.51347499" lon="6.23555199"><ele>1219.569946</ele><time>2008-08-01T11:53:30Z</time></trkpt>
<trkpt lat="46.51347399" lon="6.23554504"><ele>1219.088989</ele><time>2008-08-01T11:53:36Z</time></trkpt>
<trkpt lat="46.51347801" lon="6.23553598"><ele>1219.088989</ele><time>2008-08-01T11:53:40Z</time></trkpt>
<trkpt lat="46.51343803" lon="6.23538301"><ele>1218.608032</ele><time>2008-08-01T11:53:48Z</time></trkpt>
<trkpt lat="46.51323301" lon="6.23519501"><ele>1216.686035</ele><time>2008-08-01T11:53:56Z</time></trkpt>
<trkpt lat="46.51306001" lon="6.23504296"><ele>1215.244019</ele><time>2008-08-01T11:54:01Z</time></trkpt>
<trkpt lat="46.51296898" lon="6.23499099"><ele>1214.762939</ele><time>2008-08-01T11:54:03Z</time></trkpt>
<trkpt lat="46.51262901" lon="6.23492000"><ele>1211.879028</ele><time>2008-08-01T11:54:10Z</time></trkpt>
<trkpt lat="46.51251904" lon="6.23493198"><ele>1210.917969</ele><time>2008-08-01T11:54:12Z</time></trkpt>
<trkpt lat="46.51209902" lon="6.23494799"><ele>1208.034058</ele><time>2008-08-01T11:54:19Z</time></trkpt>
<trkpt lat="46.51180197" lon="6.23492997"><ele>1206.110962</ele><time>2008-08-01T11:54:24Z</time></trkpt>
<trkpt lat="46.51137499" lon="6.23465002"><ele>1204.188965</ele><time>2008-08-01T11:54:31Z</time></trkpt>
<trkpt lat="46.51125597" lon="6.23456502"><ele>1202.746948</ele><time>2008-08-01T11:54:33Z</time></trkpt>
<trkpt lat="46.51120098" lon="6.23451700"><ele>1202.746948</ele><time>2008-08-01T11:54:34Z</time></trkpt>
<trkpt lat="46.51076202" lon="6.23421298"><ele>1199.381958</ele><time>2008-08-01T11:54:41Z</time></trkpt>
<trkpt lat="46.51044502" lon="6.23394099"><ele>1197.458984</ele><time>2008-08-01T11:54:46Z</time></trkpt>
<trkpt lat="46.51029599" lon="6.23378098"><ele>1196.017944</ele><time>2008-08-01T11:54:49Z</time></trkpt>
<trkpt lat="46.51021100" lon="6.23366397"><ele>1195.05603</ele><time>2008-08-01T11:54:51Z</time></trkpt>
<trkpt lat="46.51005400" lon="6.23342701"><ele>1193.614014</ele><time>2008-08-01T11:54:55Z</time></trkpt>
<trkpt lat="46.50994504" lon="6.23322903"><ele>1192.652954</ele><time>2008-08-01T11:54:58Z</time></trkpt>
<trkpt lat="46.50986097" lon="6.23310800"><ele>1191.69104</ele><time>2008-08-01T11:55:00Z</time></trkpt>
<trkpt lat="46.50974303" lon="6.23291999"><ele>1190.72998</ele><time>2008-08-01T11:55:03Z</time></trkpt>
<trkpt lat="46.50953801" lon="6.23260399"><ele>1188.807983</ele><time>2008-08-01T11:55:08Z</time></trkpt>
<trkpt lat="46.50930198" lon="6.23242504"><ele>1187.36499</ele><time>2008-08-01T11:55:13Z</time></trkpt>
<trkpt lat="46.50919100" lon="6.23238900"><ele>1186.404053</ele><time>2008-08-01T11:55:15Z</time></trkpt>
<trkpt lat="46.50904097" lon="6.23231800"><ele>1184.962036</ele><time>2008-08-01T11:55:18Z</time></trkpt>
<trkpt lat="46.50881197" lon="6.23224902"><ele>1184.482056</ele><time>2008-08-01T11:55:22Z</time></trkpt>
<trkpt lat="46.50849304" lon="6.23212396"><ele>1182.078003</ele><time>2008-08-01T11:55:27Z</time></trkpt>
<trkpt lat="46.50809901" lon="6.23199798"><ele>1180.156006</ele><time>2008-08-01T11:55:33Z</time></trkpt>
<trkpt lat="46.50771797" lon="6.23186697"><ele>1177.751953</ele><time>2008-08-01T11:55:39Z</time></trkpt>
<trkpt lat="46.50731899" lon="6.23170403"><ele>1175.348999</ele><time>2008-08-01T11:55:46Z</time></trkpt>
<trkpt lat="46.50714297" lon="6.23163303"><ele>1173.906982</ele><time>2008-08-01T11:55:49Z</time></trkpt>
<trkpt lat="46.50683996" lon="6.23160697"><ele>1172.464966</ele><time>2008-08-01T11:55:54Z</time></trkpt>
<trkpt lat="46.50672798" lon="6.23164100"><ele>1171.504028</ele><time>2008-08-01T11:55:56Z</time></trkpt>
<trkpt lat="46.50653796" lon="6.23170001"><ele>1170.541992</ele><time>2008-08-01T11:56:00Z</time></trkpt>
<trkpt lat="46.50616304" lon="6.23173404"><ele>1168.619995</ele><time>2008-08-01T11:56:07Z</time></trkpt>
<trkpt lat="46.50605801" lon="6.23175801"><ele>1167.657959</ele><time>2008-08-01T11:56:09Z</time></trkpt>
<trkpt lat="46.50589096" lon="6.23176002"><ele>1166.697021</ele><time>2008-08-01T11:56:12Z</time></trkpt>
<trkpt lat="46.50568703" lon="6.23166497"><ele>1166.217041</ele><time>2008-08-01T11:56:16Z</time></trkpt>
<trkpt lat="46.50547799" lon="6.23148501"><ele>1163.812988</ele><time>2008-08-01T11:56:25Z</time></trkpt>
<trkpt lat="46.50544203" lon="6.23130396"><ele>1162.370972</ele><time>2008-08-01T11:56:34Z</time></trkpt>
<trkpt lat="46.50551998" lon="6.23122903"><ele>1163.333008</ele><time>2008-08-01T11:56:40Z</time></trkpt>
<trkpt lat="46.50556399" lon="6.23114898"><ele>1163.812988</ele><time>2008-08-01T11:56:44Z</time></trkpt>
<trkpt lat="46.50559500" lon="6.23096902"><ele>1164.775024</ele><time>2008-08-01T11:56:52Z</time></trkpt>
<trkpt lat="46.50561201" lon="6.23082996"><ele>1165.735962</ele><time>2008-08-01T11:56:58Z</time></trkpt>
<trkpt lat="46.50567002" lon="6.23058404"><ele>1167.177979</ele><time>2008-08-01T11:57:10Z</time></trkpt>
<trkpt lat="46.50575903" lon="6.23044901"><ele>1167.657959</ele><time>2008-08-01T11:57:20Z</time></trkpt>
<trkpt lat="46.50589499" lon="6.23024097"><ele>1169.100952</ele><time>2008-08-01T11:57:33Z</time></trkpt>
<trkpt lat="46.50600999" lon="6.23005397"><ele>1171.022949</ele><time>2008-08-01T11:57:46Z</time></trkpt>
<trkpt lat="46.50606204" lon="6.22997702"><ele>1171.022949</ele><time>2008-08-01T11:57:50Z</time></trkpt>
<trkpt lat="46.50628399" lon="6.22950101"><ele>1173.906982</ele><time>2008-08-01T11:58:14Z</time></trkpt>
<trkpt lat="46.50634602" lon="6.22898402"><ele>1177.271973</ele><time>2008-08-01T11:58:39Z</time></trkpt>
<trkpt lat="46.50641902" lon="6.22846602"><ele>1180.156006</ele><time>2008-08-01T11:59:03Z</time></trkpt>
<trkpt lat="46.50642003" lon="6.22844598"><ele>1180.635986</ele><time>2008-08-01T11:59:04Z</time></trkpt>
<trkpt lat="46.50641701" lon="6.22825303"><ele>1181.598022</ele><time>2008-08-01T11:59:14Z</time></trkpt>
<trkpt lat="46.50641701" lon="6.22790501"><ele>1183.52002</ele><time>2008-08-01T11:59:31Z</time></trkpt>
<trkpt lat="46.50643202" lon="6.22764702"><ele>1184.482056</ele><time>2008-08-01T11:59:42Z</time></trkpt>
<trkpt lat="46.50646697" lon="6.22733102"><ele>1186.404053</ele><time>2008-08-01T11:59:56Z</time></trkpt>
<trkpt lat="46.50646102" lon="6.22720504"><ele>1186.88501</ele><time>2008-08-01T12:00:02Z</time></trkpt>
<trkpt lat="46.50648298" lon="6.22665896"><ele>1188.327026</ele><time>2008-08-01T12:00:23Z</time></trkpt>
<trkpt lat="46.50641902" lon="6.22613501"><ele>1190.25</ele><time>2008-08-01T12:00:44Z</time></trkpt>
<trkpt lat="46.50616597" lon="6.22582404"><ele>1190.72998</ele><time>2008-08-01T12:00:59Z</time></trkpt>
<trkpt lat="46.50580002" lon="6.22567099"><ele>1191.21106</ele><time>2008-08-01T12:01:14Z</time></trkpt>
<trkpt lat="46.50557497" lon="6.22525197"><ele>1192.652954</ele><time>2008-08-01T12:01:30Z</time></trkpt>
<trkpt lat="46.50533298" lon="6.22485098"><ele>1193.614014</ele><time>2008-08-01T12:01:46Z</time></trkpt>
<trkpt lat="46.50496904" lon="6.22474696"><ele>1195.05603</ele><time>2008-08-01T12:02:01Z</time></trkpt>
<trkpt lat="46.50458800" lon="6.22466600"><ele>1195.536987</ele><time>2008-08-01T12:02:16Z</time></trkpt>
<trkpt lat="46.50425297" lon="6.22447296"><ele>1196.498047</ele><time>2008-08-01T12:02:31Z</time></trkpt>
<trkpt lat="46.50393203" lon="6.22431798"><ele>1196.017944</ele><time>2008-08-01T12:02:45Z</time></trkpt>
<trkpt lat="46.50354797" lon="6.22425201"><ele>1196.017944</ele><time>2008-08-01T12:02:57Z</time></trkpt>
<trkpt lat="46.50317296" lon="6.22415998"><ele>1196.979004</ele><time>2008-08-01T12:03:10Z</time></trkpt>
<trkpt lat="46.50285303" lon="6.22408002"><ele>1197.939941</ele><time>2008-08-01T12:03:21Z</time></trkpt>
<trkpt lat="46.50249604" lon="6.22392403"><ele>1197.458984</ele><time>2008-08-01T12:03:34Z</time></trkpt>
<trkpt lat="46.50214300" lon="6.22379302"><ele>1197.458984</ele><time>2008-08-01T12:03:47Z</time></trkpt>
<trkpt lat="46.50199799" lon="6.22371197"><ele>1196.979004</ele><time>2008-08-01T12:03:54Z</time></trkpt>
<trkpt lat="46.50193797" lon="6.22368498"><ele>1196.498047</ele><time>2008-08-01T12:03:57Z</time></trkpt>
<trkpt lat="46.50186799" lon="6.22368297"><ele>1196.498047</ele><time>2008-08-01T12:04:11Z</time></trkpt>
<trkpt lat="46.50186799" lon="6.22368104"><ele>1196.498047</ele><time>2008-08-01T12:04:12Z</time></trkpt>
<trkpt lat="46.50178400" lon="6.22359202"><ele>1196.979004</ele><time>2008-08-01T12:05:32Z</time></trkpt>
<trkpt lat="46.50174301" lon="6.22349102"><ele>1197.458984</ele><time>2008-08-01T12:05:39Z</time></trkpt>
<trkpt lat="46.50167696" lon="6.22334300"><ele>1198.901001</ele><time>2008-08-01T12:05:46Z</time></trkpt>
<trkpt lat="46.50161896" lon="6.22320302"><ele>1200.343994</ele><time>2008-08-01T12:05:54Z</time></trkpt>
<trkpt lat="46.50159700" lon="6.22316496"><ele>1200.823975</ele><time>2008-08-01T12:05:56Z</time></trkpt>
<trkpt lat="46.50151603" lon="6.22299104"><ele>1201.785034</ele><time>2008-08-01T12:06:06Z</time></trkpt>
<trkpt lat="46.50147898" lon="6.22292700"><ele>1202.746948</ele><time>2008-08-01T12:06:10Z</time></trkpt>
<trkpt lat="46.50137798" lon="6.22266096"><ele>1204.668945</ele><time>2008-08-01T12:06:25Z</time></trkpt>
<trkpt lat="46.50109098" lon="6.22233801"><ele>1207.552979</ele><time>2008-08-01T12:06:46Z</time></trkpt>
<trkpt lat="46.50095503" lon="6.22220096"><ele>1209.475952</ele><time>2008-08-01T12:06:55Z</time></trkpt>
<trkpt lat="46.50074397" lon="6.22173904"><ele>1212.359985</ele><time>2008-08-01T12:07:18Z</time></trkpt>
<trkpt lat="46.50063501" lon="6.22146503"><ele>1214.281982</ele><time>2008-08-01T12:07:32Z</time></trkpt>
<trkpt lat="46.50043602" lon="6.22099799"><ele>1218.128052</ele><time>2008-08-01T12:07:56Z</time></trkpt>
<trkpt lat="46.50041599" lon="6.22083597"><ele>1218.608032</ele><time>2008-08-01T12:08:03Z</time></trkpt>
<trkpt lat="46.50032002" lon="6.22030699"><ele>1222.453979</ele><time>2008-08-01T12:08:26Z</time></trkpt>
<trkpt lat="46.50022698" lon="6.21978899"><ele>1226.29895</ele><time>2008-08-01T12:08:53Z</time></trkpt>
<trkpt lat="46.50021801" lon="6.21976702"><ele>1226.29895</ele><time>2008-08-01T12:08:54Z</time></trkpt>
<trkpt lat="46.50019697" lon="6.21965697"><ele>1226.780029</ele><time>2008-08-01T12:09:00Z</time></trkpt>
<trkpt lat="46.50017501" lon="6.21955697"><ele>1226.780029</ele><time>2008-08-01T12:09:04Z</time></trkpt>
<trkpt lat="46.50014098" lon="6.21936997"><ele>1227.26001</ele><time>2008-08-01T12:09:11Z</time></trkpt>
<trkpt lat="46.50011097" lon="6.21923704"><ele>1227.740967</ele><time>2008-08-01T12:09:16Z</time></trkpt>
<trkpt lat="46.49997300" lon="6.21874703"><ele>1228.222046</ele><time>2008-08-01T12:09:32Z</time></trkpt>
<trkpt lat="46.49991299" lon="6.21860404"><ele>1227.740967</ele><time>2008-08-01T12:09:37Z</time></trkpt>
<trkpt lat="46.49999203" lon="6.21804102"><ele>1229.182983</ele><time>2008-08-01T12:09:56Z</time></trkpt>
<trkpt lat="46.49999002" lon="6.21799199"><ele>1229.182983</ele><time>2008-08-01T12:09:58Z</time></trkpt>
<trkpt lat="46.49998097" lon="6.21775797"><ele>1230.144043</ele><time>2008-08-01T12:10:07Z</time></trkpt>
<trkpt lat="46.49999396" lon="6.21768898"><ele>1230.625</ele><time>2008-08-01T12:10:11Z</time></trkpt>
<trkpt lat="46.49990796" lon="6.21728296"><ele>1233.98999</ele><time>2008-08-01T12:10:29Z</time></trkpt>
<trkpt lat="46.49990100" lon="6.21718196"><ele>1234.95105</ele><time>2008-08-01T12:10:33Z</time></trkpt>
<trkpt lat="46.49988198" lon="6.21702799"><ele>1235.911987</ele><time>2008-08-01T12:10:39Z</time></trkpt>
<trkpt lat="46.49988701" lon="6.21700100"><ele>1236.392944</ele><time>2008-08-01T12:10:40Z</time></trkpt>
<trkpt lat="46.49990603" lon="6.21669699"><ele>1235.911987</ele><time>2008-08-01T12:10:53Z</time></trkpt>
<trkpt lat="46.49990503" lon="6.21659297"><ele>1236.392944</ele><time>2008-08-01T12:10:58Z</time></trkpt>
<trkpt lat="46.49987703" lon="6.21649398"><ele>1236.873047</ele><time>2008-08-01T12:11:02Z</time></trkpt>
<trkpt lat="46.49964502" lon="6.21605904"><ele>1236.873047</ele><time>2008-08-01T12:11:22Z</time></trkpt>
<trkpt lat="46.49929600" lon="6.21593197"><ele>1237.834961</ele><time>2008-08-01T12:11:44Z</time></trkpt>
<trkpt lat="46.49922802" lon="6.21592803"><ele>1237.834961</ele><time>2008-08-01T12:11:49Z</time></trkpt>
<trkpt lat="46.49907799" lon="6.21595703"><ele>1236.392944</ele><time>2008-08-01T12:11:55Z</time></trkpt>
<trkpt lat="46.49893700" lon="6.21593700"><ele>1236.873047</ele><time>2008-08-01T12:12:00Z</time></trkpt>
<trkpt lat="46.49868001" lon="6.21591898"><ele>1235.911987</ele><time>2008-08-01T12:12:09Z</time></trkpt>
<trkpt lat="46.49829604" lon="6.21589903"><ele>1234.95105</ele><time>2008-08-01T12:12:24Z</time></trkpt>
<trkpt lat="46.49812999" lon="6.21596902"><ele>1233.509033</ele><time>2008-08-01T12:12:29Z</time></trkpt>
<trkpt lat="46.49777996" lon="6.21591998"><ele>1230.144043</ele><time>2008-08-01T12:12:42Z</time></trkpt>
<trkpt lat="46.49769899" lon="6.21583298"><ele>1230.625</ele><time>2008-08-01T12:12:47Z</time></trkpt>
<trkpt lat="46.49771299" lon="6.21574597"><ele>1230.144043</ele><time>2008-08-01T12:13:10Z</time></trkpt>
<trkpt lat="46.49770604" lon="6.21572804"><ele>1229.66394</ele><time>2008-08-01T12:14:13Z</time></trkpt>
<trkpt lat="46.49761702" lon="6.21568898"><ele>1229.66394</ele><time>2008-08-01T12:14:40Z</time></trkpt>
<trkpt lat="46.49741401" lon="6.21550097"><ele>1230.144043</ele><time>2008-08-01T12:14:52Z</time></trkpt>
<trkpt lat="46.49712500" lon="6.21515304"><ele>1227.740967</ele><time>2008-08-01T12:15:05Z</time></trkpt>
<trkpt lat="46.49690498" lon="6.21471902"><ele>1228.222046</ele><time>2008-08-01T12:15:21Z</time></trkpt>
<trkpt lat="46.49677296" lon="6.21435399"><ele>1227.26001</ele><time>2008-08-01T12:15:32Z</time></trkpt>
<trkpt lat="46.49659904" lon="6.21386499"><ele>1227.740967</ele><time>2008-08-01T12:15:46Z</time></trkpt>
<trkpt lat="46.49647197" lon="6.21365100"><ele>1229.66394</ele><time>2008-08-01T12:15:57Z</time></trkpt>
<trkpt lat="46.49638102" lon="6.21358998"><ele>1230.625</ele><time>2008-08-01T12:16:04Z</time></trkpt>
<trkpt lat="46.49628103" lon="6.21353198"><ele>1231.105957</ele><time>2008-08-01T12:16:11Z</time></trkpt>
<trkpt lat="46.49607098" lon="6.21343802"><ele>1230.625</ele><time>2008-08-01T12:16:24Z</time></trkpt>
<trkpt lat="46.49574601" lon="6.21319997"><ele>1228.702026</ele><time>2008-08-01T12:16:40Z</time></trkpt>
<trkpt lat="46.49542901" lon="6.21296301"><ele>1226.780029</ele><time>2008-08-01T12:16:55Z</time></trkpt>
<trkpt lat="46.49527503" lon="6.21281097"><ele>1225.817993</ele><time>2008-08-01T12:17:01Z</time></trkpt>
<trkpt lat="46.49512298" lon="6.21266403"><ele>1224.857056</ele><time>2008-08-01T12:17:07Z</time></trkpt>
<trkpt lat="46.49500203" lon="6.21250302"><ele>1223.415039</ele><time>2008-08-01T12:17:13Z</time></trkpt>
<trkpt lat="46.49494696" lon="6.21244602"><ele>1222.93396</ele><time>2008-08-01T12:17:16Z</time></trkpt>
<trkpt lat="46.49472602" lon="6.21227201"><ele>1220.531006</ele><time>2008-08-01T12:17:32Z</time></trkpt>
<trkpt lat="46.49456601" lon="6.21216598"><ele>1218.608032</ele><time>2008-08-01T12:17:39Z</time></trkpt>
<trkpt lat="46.49427398" lon="6.21185803"><ele>1216.204956</ele><time>2008-08-01T12:17:51Z</time></trkpt>
<trkpt lat="46.49402001" lon="6.21150498"><ele>1213.802002</ele><time>2008-08-01T12:18:07Z</time></trkpt>
<trkpt lat="46.49386503" lon="6.21132896"><ele>1214.281982</ele><time>2008-08-01T12:18:15Z</time></trkpt>
<trkpt lat="46.49374902" lon="6.21121304"><ele>1214.281982</ele><time>2008-08-01T12:18:21Z</time></trkpt>
<trkpt lat="46.49365104" lon="6.21108203"><ele>1213.802002</ele><time>2008-08-01T12:18:28Z</time></trkpt>
<trkpt lat="46.49358700" lon="6.21099704"><ele>1213.802002</ele><time>2008-08-01T12:18:36Z</time></trkpt>
<trkpt lat="46.49357803" lon="6.21098497"><ele>1213.802002</ele><time>2008-08-01T12:18:57Z</time></trkpt>
<trkpt lat="46.49360100" lon="6.21095303"><ele>1213.802002</ele><time>2008-08-01T12:19:16Z</time></trkpt>
<trkpt lat="46.49360502" lon="6.21095404"><ele>1213.802002</ele><time>2008-08-01T12:19:22Z</time></trkpt>
<trkpt lat="46.49360703" lon="6.21094901"><ele>1213.321045</ele><time>2008-08-01T12:19:25Z</time></trkpt>
<trkpt lat="46.49331300" lon="6.21059404"><ele>1209.475952</ele><time>2008-08-01T12:19:54Z</time></trkpt>
<trkpt lat="46.49316397" lon="6.21026496"><ele>1208.514038</ele><time>2008-08-01T12:20:01Z</time></trkpt>
<trkpt lat="46.49302701" lon="6.20993597"><ele>1207.072998</ele><time>2008-08-01T12:20:07Z</time></trkpt>
<trkpt lat="46.49298803" lon="6.20982500"><ele>1206.110962</ele><time>2008-08-01T12:20:09Z</time></trkpt>
<trkpt lat="46.49296900" lon="6.20976498"><ele>1206.592041</ele><time>2008-08-01T12:20:10Z</time></trkpt>
<trkpt lat="46.49286197" lon="6.20923801"><ele>1203.708008</ele><time>2008-08-01T12:20:17Z</time></trkpt>
<trkpt lat="46.49262400" lon="6.20882504"><ele>1202.746948</ele><time>2008-08-01T12:20:23Z</time></trkpt>
<trkpt lat="46.49238696" lon="6.20866603"><ele>1201.785034</ele><time>2008-08-01T12:20:27Z</time></trkpt>
<trkpt lat="46.49218898" lon="6.20844500"><ele>1199.863037</ele><time>2008-08-01T12:20:31Z</time></trkpt>
<trkpt lat="46.49188799" lon="6.20787604"><ele>1196.498047</ele><time>2008-08-01T12:20:38Z</time></trkpt>
<trkpt lat="46.49169898" lon="6.20749500"><ele>1193.614014</ele><time>2008-08-01T12:20:43Z</time></trkpt>
<trkpt lat="46.49147300" lon="6.20702804"><ele>1190.25</ele><time>2008-08-01T12:20:49Z</time></trkpt>
<trkpt lat="46.49141701" lon="6.20694699"><ele>1189.287964</ele><time>2008-08-01T12:20:51Z</time></trkpt>
<trkpt lat="46.49122003" lon="6.20680198"><ele>1187.36499</ele><time>2008-08-01T12:21:01Z</time></trkpt>
<trkpt lat="46.49122297" lon="6.20672403"><ele>1188.327026</ele><time>2008-08-01T12:21:05Z</time></trkpt>
<trkpt lat="46.49123797" lon="6.20663702"><ele>1188.327026</ele><time>2008-08-01T12:21:09Z</time></trkpt>
<trkpt lat="46.49125800" lon="6.20656704"><ele>1189.287964</ele><time>2008-08-01T12:21:12Z</time></trkpt>
<trkpt lat="46.49126404" lon="6.20654298"><ele>1189.287964</ele><time>2008-08-01T12:21:13Z</time></trkpt>
<trkpt lat="46.49130201" lon="6.20638800"><ele>1190.72998</ele><time>2008-08-01T12:21:19Z</time></trkpt>
<trkpt lat="46.49124200" lon="6.20618398"><ele>1190.72998</ele><time>2008-08-01T12:21:27Z</time></trkpt>
<trkpt lat="46.49102096" lon="6.20573698"><ele>1187.845947</ele><time>2008-08-01T12:21:42Z</time></trkpt>
<trkpt lat="46.49089197" lon="6.20559197"><ele>1186.88501</ele><time>2008-08-01T12:21:46Z</time></trkpt>
<trkpt lat="46.49059600" lon="6.20511797"><ele>1184.482056</ele><time>2008-08-01T12:21:55Z</time></trkpt>
<trkpt lat="46.49043096" lon="6.20486601"><ele>1184.482056</ele><time>2008-08-01T12:22:00Z</time></trkpt>
<trkpt lat="46.49025503" lon="6.20457700"><ele>1183.040039</ele><time>2008-08-01T12:22:06Z</time></trkpt>
<trkpt lat="46.49017196" lon="6.20444700"><ele>1183.040039</ele><time>2008-08-01T12:22:11Z</time></trkpt>
<trkpt lat="46.49014003" lon="6.20439897"><ele>1182.55896</ele><time>2008-08-01T12:22:14Z</time></trkpt>
<trkpt lat="46.49012100" lon="6.20436897"><ele>1182.55896</ele><time>2008-08-01T12:22:16Z</time></trkpt>
<trkpt lat="46.48986502" lon="6.20399798"><ele>1182.078003</ele><time>2008-08-01T12:22:29Z</time></trkpt>
<trkpt lat="46.48958900" lon="6.20363597"><ele>1182.078003</ele><time>2008-08-01T12:22:38Z</time></trkpt>
<trkpt lat="46.48939203" lon="6.20331100"><ele>1182.078003</ele><time>2008-08-01T12:22:45Z</time></trkpt>
<trkpt lat="46.48930502" lon="6.20316197"><ele>1182.078003</ele><time>2008-08-01T12:22:48Z</time></trkpt>
<trkpt lat="46.48915297" lon="6.20303599"><ele>1181.598022</ele><time>2008-08-01T12:22:52Z</time></trkpt>
<trkpt lat="46.48890998" lon="6.20292904"><ele>1182.078003</ele><time>2008-08-01T12:22:58Z</time></trkpt>
<trkpt lat="46.48879699" lon="6.20285301"><ele>1182.078003</ele><time>2008-08-01T12:23:01Z</time></trkpt>
<trkpt lat="46.48862399" lon="6.20266400"><ele>1181.598022</ele><time>2008-08-01T12:23:06Z</time></trkpt>
<trkpt lat="46.48829500" lon="6.20231397"><ele>1181.116943</ele><time>2008-08-01T12:23:15Z</time></trkpt>
<trkpt lat="46.48814103" lon="6.20218900"><ele>1181.116943</ele><time>2008-08-01T12:23:19Z</time></trkpt>
<trkpt lat="46.48796199" lon="6.20210703"><ele>1180.635986</ele><time>2008-08-01T12:23:23Z</time></trkpt>
<trkpt lat="46.48752697" lon="6.20203301"><ele>1179.19397</ele><time>2008-08-01T12:23:32Z</time></trkpt>
<trkpt lat="46.48733997" lon="6.20195104"><ele>1179.19397</ele><time>2008-08-01T12:23:36Z</time></trkpt>
<trkpt lat="46.48713796" lon="6.20180503"><ele>1178.713989</ele><time>2008-08-01T12:23:41Z</time></trkpt>
<trkpt lat="46.48676598" lon="6.20148802"><ele>1178.713989</ele><time>2008-08-01T12:23:50Z</time></trkpt>
<trkpt lat="46.48644998" lon="6.20115702"><ele>1178.233032</ele><time>2008-08-01T12:23:59Z</time></trkpt>
<trkpt lat="46.48609702" lon="6.20088302"><ele>1178.713989</ele><time>2008-08-01T12:24:10Z</time></trkpt>
<trkpt lat="46.48584698" lon="6.20067196"><ele>1178.713989</ele><time>2008-08-01T12:24:16Z</time></trkpt>
<trkpt lat="46.48548396" lon="6.20037197"><ele>1178.713989</ele><time>2008-08-01T12:24:26Z</time></trkpt>
<trkpt lat="46.48520803" lon="6.20012797"><ele>1178.233032</ele><time>2008-08-01T12:24:33Z</time></trkpt>
<trkpt lat="46.48486001" lon="6.19980996"><ele>1177.271973</ele><time>2008-08-01T12:24:42Z</time></trkpt>
<trkpt lat="46.48453002" lon="6.19950897"><ele>1176.310059</ele><time>2008-08-01T12:24:51Z</time></trkpt>
<trkpt lat="46.48421997" lon="6.19924201"><ele>1175.829956</ele><time>2008-08-01T12:24:59Z</time></trkpt>
<trkpt lat="46.48407304" lon="6.19911804"><ele>1174.868042</ele><time>2008-08-01T12:25:03Z</time></trkpt>
<trkpt lat="46.48385704" lon="6.19890003"><ele>1174.868042</ele><time>2008-08-01T12:25:09Z</time></trkpt>
<trkpt lat="46.48364900" lon="6.19869802"><ele>1174.387939</ele><time>2008-08-01T12:25:15Z</time></trkpt>
<trkpt lat="46.48350298" lon="6.19848596"><ele>1173.427002</ele><time>2008-08-01T12:25:20Z</time></trkpt>
<trkpt lat="46.48342604" lon="6.19824196"><ele>1172.464966</ele><time>2008-08-01T12:25:24Z</time></trkpt>
<trkpt lat="46.48336401" lon="6.19786704"><ele>1170.062012</ele><time>2008-08-01T12:25:29Z</time></trkpt>
<trkpt lat="46.48329897" lon="6.19759102"><ele>1168.619995</ele><time>2008-08-01T12:25:33Z</time></trkpt>
<trkpt lat="46.48308900" lon="6.19718299"><ele>1166.697021</ele><time>2008-08-01T12:25:39Z</time></trkpt>
<trkpt lat="46.48293201" lon="6.19700798"><ele>1164.775024</ele><time>2008-08-01T12:25:43Z</time></trkpt>
<trkpt lat="46.48263202" lon="6.19683699"><ele>1163.333008</ele><time>2008-08-01T12:25:49Z</time></trkpt>
<trkpt lat="46.48217102" lon="6.19671897"><ele>1161.410034</ele><time>2008-08-01T12:25:56Z</time></trkpt>
<trkpt lat="46.48198402" lon="6.19665502"><ele>1160.928955</ele><time>2008-08-01T12:25:59Z</time></trkpt>
<trkpt lat="46.48156098" lon="6.19637104"><ele>1158.526001</ele><time>2008-08-01T12:26:06Z</time></trkpt>
<trkpt lat="46.48130600" lon="6.19631404"><ele>1157.564941</ele><time>2008-08-01T12:26:10Z</time></trkpt>
<trkpt lat="46.48105597" lon="6.19633500"><ele>1156.123047</ele><time>2008-08-01T12:26:14Z</time></trkpt>
<trkpt lat="46.48079898" lon="6.19640800"><ele>1154.68103</ele><time>2008-08-01T12:26:19Z</time></trkpt>
<trkpt lat="46.48073000" lon="6.19642602"><ele>1153.718994</ele><time>2008-08-01T12:26:28Z</time></trkpt>
<trkpt lat="46.48072698" lon="6.19640901"><ele>1154.199951</ele><time>2008-08-01T12:26:31Z</time></trkpt>
<trkpt lat="46.48069102" lon="6.19635503"><ele>1153.239014</ele><time>2008-08-01T12:26:48Z</time></trkpt>
<trkpt lat="46.48045801" lon="6.19595303"><ele>1149.874023</ele><time>2008-08-01T12:27:08Z</time></trkpt>
<trkpt lat="46.48025198" lon="6.19566302"><ele>1146.98999</ele><time>2008-08-01T12:27:18Z</time></trkpt>
<trkpt lat="46.48013497" lon="6.19571096"><ele>1145.547974</ele><time>2008-08-01T12:27:21Z</time></trkpt>
<trkpt lat="46.48010102" lon="6.19574298"><ele>1145.067017</ele><time>2008-08-01T12:27:22Z</time></trkpt>
<trkpt lat="46.47993498" lon="6.19591699"><ele>1142.66394</ele><time>2008-08-01T12:27:27Z</time></trkpt>
<trkpt lat="46.47983397" lon="6.19603903"><ele>1141.703003</ele><time>2008-08-01T12:27:30Z</time></trkpt>
<trkpt lat="46.47976298" lon="6.19652099"><ele>1453.651001</ele><time>2008-08-01T12:28:00Z</time></trkpt>
<trkpt lat="46.47976097" lon="6.19651596"><ele>1453.651001</ele><time>2008-08-01T12:28:01Z</time></trkpt>
<trkpt lat="46.47972400" lon="6.19649802"><ele>1454.131958</ele><time>2008-08-01T12:28:18Z</time></trkpt>
<trkpt lat="46.47976398" lon="6.19666298"><ele>1453.170044</ele><time>2008-08-01T12:28:24Z</time></trkpt>
<trkpt lat="46.47983196" lon="6.19697101"><ele>1451.728027</ele><time>2008-08-01T12:28:30Z</time></trkpt>
<trkpt lat="46.47989600" lon="6.19723898"><ele>1450.286011</ele><time>2008-08-01T12:28:34Z</time></trkpt>
<trkpt lat="46.48004998" lon="6.19782203"><ele>1447.883057</ele><time>2008-08-01T12:28:40Z</time></trkpt>
<trkpt lat="46.48009901" lon="6.19812101"><ele>1446.44104</ele><time>2008-08-01T12:28:43Z</time></trkpt>
<trkpt lat="46.48011896" lon="6.19821397"><ele>1445.959961</ele><time>2008-08-01T12:28:44Z</time></trkpt>
<trkpt lat="46.48021200" lon="6.19848797"><ele>1444.037964</ele><time>2008-08-01T12:28:47Z</time></trkpt>
<trkpt lat="46.48042004" lon="6.19878997"><ele>1442.11499</ele><time>2008-08-01T12:28:51Z</time></trkpt>
<trkpt lat="46.48066697" lon="6.19917604"><ele>1439.712036</ele><time>2008-08-01T12:28:56Z</time></trkpt>
<trkpt lat="46.48084600" lon="6.19929900"><ele>1438.27002</ele><time>2008-08-01T12:28:59Z</time></trkpt>
<trkpt lat="46.48119897" lon="6.19916799"><ele>1435.38501</ele><time>2008-08-01T12:29:04Z</time></trkpt>
<trkpt lat="46.48141597" lon="6.19907697"><ele>1433.94397</ele><time>2008-08-01T12:29:07Z</time></trkpt>
<trkpt lat="46.48155897" lon="6.19906599"><ele>1432.982056</ele><time>2008-08-01T12:29:09Z</time></trkpt>
<trkpt lat="46.48192098" lon="6.19939799"><ele>1430.578979</ele><time>2008-08-01T12:29:14Z</time></trkpt>
<trkpt lat="46.48203104" lon="6.19961400"><ele>1428.656006</ele><time>2008-08-01T12:29:16Z</time></trkpt>
<trkpt lat="46.48241099" lon="6.20006997"><ele>1425.291992</ele><time>2008-08-01T12:29:21Z</time></trkpt>
<trkpt lat="46.48249397" lon="6.20015203"><ele>1424.811035</ele><time>2008-08-01T12:29:22Z</time></trkpt>
<trkpt lat="46.48283101" lon="6.20041899"><ele>1422.407959</ele><time>2008-08-01T12:29:26Z</time></trkpt>
<trkpt lat="46.48319302" lon="6.20065997"><ele>1419.042969</ele><time>2008-08-01T12:29:30Z</time></trkpt>
<trkpt lat="46.48339603" lon="6.20088100"><ele>1417.120972</ele><time>2008-08-01T12:29:33Z</time></trkpt>
<trkpt lat="46.48359703" lon="6.20135198"><ele>1414.717041</ele><time>2008-08-01T12:29:37Z</time></trkpt>
<trkpt lat="46.48373097" lon="6.20185297"><ele>1412.313965</ele><time>2008-08-01T12:29:41Z</time></trkpt>
<trkpt lat="46.48392602" lon="6.20230501"><ele>1409.430054</ele><time>2008-08-01T12:29:45Z</time></trkpt>
<trkpt lat="46.48404697" lon="6.20252000"><ele>1407.508057</ele><time>2008-08-01T12:29:47Z</time></trkpt>
<trkpt lat="46.48430597" lon="6.20292200"><ele>1405.104004</ele><time>2008-08-01T12:29:51Z</time></trkpt>
<trkpt lat="46.48463203" lon="6.20336699"><ele>1401.73999</ele><time>2008-08-01T12:29:56Z</time></trkpt>
<trkpt lat="46.48484099" lon="6.20395800"><ele>1398.85498</ele><time>2008-08-01T12:30:01Z</time></trkpt>
<trkpt lat="46.48498599" lon="6.20443904"><ele>1395.972046</ele><time>2008-08-01T12:30:05Z</time></trkpt>
<trkpt lat="46.48513997" lon="6.20491496"><ele>1393.567993</ele><time>2008-08-01T12:30:09Z</time></trkpt>
<trkpt lat="46.48526503" lon="6.20541603"><ele>1390.203979</ele><time>2008-08-01T12:30:13Z</time></trkpt>
<trkpt lat="46.48538003" lon="6.20591501"><ele>1387.800049</ele><time>2008-08-01T12:30:17Z</time></trkpt>
<trkpt lat="46.48552202" lon="6.20641197"><ele>1385.878052</ele><time>2008-08-01T12:30:21Z</time></trkpt>
<trkpt lat="46.48561296" lon="6.20665798"><ele>1383.954956</ele><time>2008-08-01T12:30:23Z</time></trkpt>
<trkpt lat="46.48589401" lon="6.20716299"><ele>1380.590942</ele><time>2008-08-01T12:30:28Z</time></trkpt>
<trkpt lat="46.48601403" lon="6.20729299"><ele>1379.629028</ele><time>2008-08-01T12:30:30Z</time></trkpt>
<trkpt lat="46.48639197" lon="6.20741503"><ele>1377.225952</ele><time>2008-08-01T12:30:35Z</time></trkpt>
<trkpt lat="46.48661401" lon="6.20737396"><ele>1375.302979</ele><time>2008-08-01T12:30:38Z</time></trkpt>
<trkpt lat="46.48692196" lon="6.20774302"><ele>1370.977051</ele><time>2008-08-01T12:30:44Z</time></trkpt>
<trkpt lat="46.48691702" lon="6.20785701"><ele>1370.977051</ele><time>2008-08-01T12:30:45Z</time></trkpt>
<trkpt lat="46.48686698" lon="6.20808098"><ele>1370.015991</ele><time>2008-08-01T12:30:47Z</time></trkpt>
<trkpt lat="46.48673002" lon="6.20870803"><ele>1366.651001</ele><time>2008-08-01T12:30:52Z</time></trkpt>
<trkpt lat="46.48671401" lon="6.20883602"><ele>1365.689941</ele><time>2008-08-01T12:30:53Z</time></trkpt>
<trkpt lat="46.48671602" lon="6.20908898"><ele>1365.208984</ele><time>2008-08-01T12:30:55Z</time></trkpt>
<trkpt lat="46.48685298" lon="6.20971000"><ele>1360.402954</ele><time>2008-08-01T12:31:00Z</time></trkpt>
<trkpt lat="46.48681602" lon="6.20997302"><ele>1358.96106</ele><time>2008-08-01T12:31:02Z</time></trkpt>
<trkpt lat="46.48679598" lon="6.21058901"><ele>1356.077026</ele><time>2008-08-01T12:31:07Z</time></trkpt>
<trkpt lat="46.48675902" lon="6.21107399"><ele>1352.230957</ele><time>2008-08-01T12:31:12Z</time></trkpt>
<trkpt lat="46.48644302" lon="6.21088204"><ele>1348.385986</ele><time>2008-08-01T12:31:17Z</time></trkpt>
<trkpt lat="46.48641301" lon="6.21078297"><ele>1348.385986</ele><time>2008-08-01T12:31:18Z</time></trkpt>
<trkpt lat="46.48636700" lon="6.21057501"><ele>1347.425049</ele><time>2008-08-01T12:31:20Z</time></trkpt>
<trkpt lat="46.48630396" lon="6.21026396"><ele>1346.463989</ele><time>2008-08-01T12:31:23Z</time></trkpt>
<trkpt lat="46.48609903" lon="6.20967303"><ele>1344.061035</ele><time>2008-08-01T12:31:29Z</time></trkpt>
<trkpt lat="46.48592703" lon="6.20924799"><ele>1342.137939</ele><time>2008-08-01T12:31:33Z</time></trkpt>
<trkpt lat="46.48549796" lon="6.20900097"><ele>1338.772949</ele><time>2008-08-01T12:31:39Z</time></trkpt>
<trkpt lat="46.48500100" lon="6.20905001"><ele>1335.889038</ele><time>2008-08-01T12:31:45Z</time></trkpt>
<trkpt lat="46.48455097" lon="6.20899100"><ele>1333.485962</ele><time>2008-08-01T12:31:50Z</time></trkpt>
<trkpt lat="46.48419198" lon="6.20888497"><ele>1331.562988</ele><time>2008-08-01T12:31:54Z</time></trkpt>
<trkpt lat="46.48378403" lon="6.20871096"><ele>1328.198975</ele><time>2008-08-01T12:31:59Z</time></trkpt>
<trkpt lat="46.48335496" lon="6.20859797"><ele>1325.795044</ele><time>2008-08-01T12:32:04Z</time></trkpt>
<trkpt lat="46.48292103" lon="6.20857500"><ele>1325.314941</ele><time>2008-08-01T12:32:09Z</time></trkpt>
<trkpt lat="46.48248903" lon="6.20858397"><ele>1323.873047</ele><time>2008-08-01T12:32:14Z</time></trkpt>
<trkpt lat="46.48221997" lon="6.20860501"><ele>1323.873047</ele><time>2008-08-01T12:32:17Z</time></trkpt>
<trkpt lat="46.48177103" lon="6.20883501"><ele>1323.391968</ele><time>2008-08-01T12:32:22Z</time></trkpt>
<trkpt lat="46.48142897" lon="6.20908404"><ele>1322.911011</ele><time>2008-08-01T12:32:26Z</time></trkpt>
<trkpt lat="46.48109696" lon="6.20933197"><ele>1321.949951</ele><time>2008-08-01T12:32:30Z</time></trkpt>
<trkpt lat="46.48076403" lon="6.20956901"><ele>1321.949951</ele><time>2008-08-01T12:32:34Z</time></trkpt>
<trkpt lat="46.48043001" lon="6.20981402"><ele>1321.468994</ele><time>2008-08-01T12:32:38Z</time></trkpt>
<trkpt lat="46.48010203" lon="6.21005902"><ele>1320.989014</ele><time>2008-08-01T12:32:42Z</time></trkpt>
<trkpt lat="46.47970900" lon="6.21034702"><ele>1320.989014</ele><time>2008-08-01T12:32:47Z</time></trkpt>
<trkpt lat="46.47938596" lon="6.21058700"><ele>1320.508057</ele><time>2008-08-01T12:32:52Z</time></trkpt>
<trkpt lat="46.47904599" lon="6.21081700"><ele>1320.508057</ele><time>2008-08-01T12:33:02Z</time></trkpt>
<trkpt lat="46.47867300" lon="6.21094096"><ele>1319.546997</ele><time>2008-08-01T12:33:12Z</time></trkpt>
<trkpt lat="46.47824300" lon="6.21094197"><ele>1319.546997</ele><time>2008-08-01T12:33:18Z</time></trkpt>
<trkpt lat="46.47781796" lon="6.21093501"><ele>1318.584961</ele><time>2008-08-01T12:33:23Z</time></trkpt>
<trkpt lat="46.47766499" lon="6.21094096"><ele>1318.584961</ele><time>2008-08-01T12:33:25Z</time></trkpt>
<trkpt lat="46.47740599" lon="6.21108597"><ele>1318.584961</ele><time>2008-08-01T12:33:29Z</time></trkpt>
<trkpt lat="46.47726098" lon="6.21145796"><ele>1317.624023</ele><time>2008-08-01T12:33:33Z</time></trkpt>
<trkpt lat="46.47712100" lon="6.21215500"><ele>1317.144043</ele><time>2008-08-01T12:33:39Z</time></trkpt>
<trkpt lat="46.47694297" lon="6.21271198"><ele>1316.662964</ele><time>2008-08-01T12:33:44Z</time></trkpt>
<trkpt lat="46.47677600" lon="6.21315999"><ele>1316.662964</ele><time>2008-08-01T12:33:48Z</time></trkpt>
<trkpt lat="46.47653997" lon="6.21350499"><ele>1316.182007</ele><time>2008-08-01T12:33:52Z</time></trkpt>
<trkpt lat="46.47615700" lon="6.21408602"><ele>1315.702026</ele><time>2008-08-01T12:33:58Z</time></trkpt>
<trkpt lat="46.47613001" lon="6.21433304"><ele>1315.702026</ele><time>2008-08-01T12:34:00Z</time></trkpt>
<trkpt lat="46.47613202" lon="6.21470000"><ele>1315.220947</ele><time>2008-08-01T12:34:03Z</time></trkpt>
<trkpt lat="46.47621500" lon="6.21492002"><ele>1315.702026</ele><time>2008-08-01T12:34:05Z</time></trkpt>
<trkpt lat="46.47630201" lon="6.21521800"><ele>1315.702026</ele><time>2008-08-01T12:34:08Z</time></trkpt>
<trkpt lat="46.47642698" lon="6.21553903"><ele>1315.220947</ele><time>2008-08-01T12:34:11Z</time></trkpt>
<trkpt lat="46.47650996" lon="6.21619298"><ele>1314.73999</ele><time>2008-08-01T12:34:16Z</time></trkpt>
<trkpt lat="46.47652203" lon="6.21645399"><ele>1315.220947</ele><time>2008-08-01T12:34:18Z</time></trkpt>
<trkpt lat="46.47663100" lon="6.21696303"><ele>1314.26001</ele><time>2008-08-01T12:34:22Z</time></trkpt>
<trkpt lat="46.47680299" lon="6.21732404"><ele>1314.26001</ele><time>2008-08-01T12:34:25Z</time></trkpt>
<trkpt lat="46.47666704" lon="6.21777800"><ele>1313.297974</ele><time>2008-08-01T12:34:33Z</time></trkpt>
<trkpt lat="46.47649798" lon="6.21761103"><ele>1313.297974</ele><time>2008-08-01T12:34:36Z</time></trkpt>
<trkpt lat="46.47610101" lon="6.21709798"><ele>1312.337036</ele><time>2008-08-01T12:34:42Z</time></trkpt>
<trkpt lat="46.47579096" lon="6.21679103"><ele>1311.375977</ele><time>2008-08-01T12:34:46Z</time></trkpt>
<trkpt lat="46.47546097" lon="6.21653404"><ele>1310.41394</ele><time>2008-08-01T12:34:50Z</time></trkpt>
<trkpt lat="46.47523600" lon="6.21635500"><ele>1309.93396</ele><time>2008-08-01T12:34:53Z</time></trkpt>
<trkpt lat="46.47494498" lon="6.21590498"><ele>1309.453003</ele><time>2008-08-01T12:34:58Z</time></trkpt>
<trkpt lat="46.47450199" lon="6.21557498"><ele>1308.491943</ele><time>2008-08-01T12:35:04Z</time></trkpt>
<trkpt lat="46.47409103" lon="6.21566601"><ele>1307.530029</ele><time>2008-08-01T12:35:09Z</time></trkpt>
<trkpt lat="46.47393303" lon="6.21578202"><ele>1307.530029</ele><time>2008-08-01T12:35:11Z</time></trkpt>
<trkpt lat="46.47352399" lon="6.21612400"><ele>1307.050049</ele><time>2008-08-01T12:35:16Z</time></trkpt>
<trkpt lat="46.47323398" lon="6.21647696"><ele>1307.050049</ele><time>2008-08-01T12:35:20Z</time></trkpt>
<trkpt lat="46.47316500" lon="6.21657302"><ele>1307.050049</ele><time>2008-08-01T12:35:21Z</time></trkpt>
<trkpt lat="46.47290097" lon="6.21715900"><ele>1306.088013</ele><time>2008-08-01T12:35:26Z</time></trkpt>
<trkpt lat="46.47286400" lon="6.21729604"><ele>1306.56897</ele><time>2008-08-01T12:35:27Z</time></trkpt>
<trkpt lat="46.47268999" lon="6.21794597"><ele>1305.608032</ele><time>2008-08-01T12:35:33Z</time></trkpt>
<trkpt lat="46.47252998" lon="6.21848803"><ele>1305.126953</ele><time>2008-08-01T12:35:40Z</time></trkpt>
<trkpt lat="46.47239302" lon="6.21898399"><ele>1304.645996</ele><time>2008-08-01T12:35:47Z</time></trkpt>
<trkpt lat="46.47223997" lon="6.21952797"><ele>1303.203979</ele><time>2008-08-01T12:35:55Z</time></trkpt>
<trkpt lat="46.47210301" lon="6.22001597"><ele>1302.723999</ele><time>2008-08-01T12:36:01Z</time></trkpt>
<trkpt lat="46.47195004" lon="6.22055300"><ele>1302.243042</ele><time>2008-08-01T12:36:07Z</time></trkpt>
<trkpt lat="46.47180201" lon="6.22109304"><ele>1301.761963</ele><time>2008-08-01T12:36:13Z</time></trkpt>
<trkpt lat="46.47176002" lon="6.22127803"><ele>1302.243042</ele><time>2008-08-01T12:36:15Z</time></trkpt>
<trkpt lat="46.47175600" lon="6.22180500"><ele>1301.281982</ele><time>2008-08-01T12:36:20Z</time></trkpt>
<trkpt lat="46.47192397" lon="6.22247798"><ele>1300.321045</ele><time>2008-08-01T12:36:27Z</time></trkpt>
<trkpt lat="46.47198801" lon="6.22301401"><ele>1299.839966</ele><time>2008-08-01T12:36:32Z</time></trkpt>
<trkpt lat="46.47200796" lon="6.22358004"><ele>1299.359009</ele><time>2008-08-01T12:36:37Z</time></trkpt>
<trkpt lat="46.47202799" lon="6.22402696"><ele>1298.397949</ele><time>2008-08-01T12:36:41Z</time></trkpt>
<trkpt lat="46.47205104" lon="6.22467698"><ele>1297.437012</ele><time>2008-08-01T12:36:47Z</time></trkpt>
<trkpt lat="46.47205800" lon="6.22521300"><ele>1296.474976</ele><time>2008-08-01T12:36:52Z</time></trkpt>
<trkpt lat="46.47206504" lon="6.22561097"><ele>1295.514038</ele><time>2008-08-01T12:36:56Z</time></trkpt>
<trkpt lat="46.47200502" lon="6.22609704"><ele>1295.514038</ele><time>2008-08-01T12:37:01Z</time></trkpt>
<trkpt lat="46.47179699" lon="6.22666902"><ele>1294.552002</ele><time>2008-08-01T12:37:07Z</time></trkpt>
<trkpt lat="46.47154201" lon="6.22711502"><ele>1293.590942</ele><time>2008-08-01T12:37:12Z</time></trkpt>
<trkpt lat="46.47125702" lon="6.22753797"><ele>1292.630005</ele><time>2008-08-01T12:37:17Z</time></trkpt>
<trkpt lat="46.47093700" lon="6.22787903"><ele>1292.149048</ele><time>2008-08-01T12:37:22Z</time></trkpt>
<trkpt lat="46.47057599" lon="6.22811900"><ele>1291.667969</ele><time>2008-08-01T12:37:27Z</time></trkpt>
<trkpt lat="46.47019202" lon="6.22833702"><ele>1291.187988</ele><time>2008-08-01T12:37:32Z</time></trkpt>
<trkpt lat="46.46984400" lon="6.22848404"><ele>1290.707031</ele><time>2008-08-01T12:37:36Z</time></trkpt>
<trkpt lat="46.46947796" lon="6.22859401"><ele>1289.745972</ele><time>2008-08-01T12:37:40Z</time></trkpt>
<trkpt lat="46.46911100" lon="6.22873197"><ele>1289.265015</ele><time>2008-08-01T12:37:44Z</time></trkpt>
<trkpt lat="46.46902501" lon="6.22878604"><ele>1289.265015</ele><time>2008-08-01T12:37:45Z</time></trkpt>
<trkpt lat="46.46862402" lon="6.22927202"><ele>1287.822998</ele><time>2008-08-01T12:37:51Z</time></trkpt>
<trkpt lat="46.46837700" lon="6.22970503"><ele>1287.343018</ele><time>2008-08-01T12:37:56Z</time></trkpt>
<trkpt lat="46.46807500" lon="6.23011700"><ele>1286.380981</ele><time>2008-08-01T12:38:01Z</time></trkpt>
<trkpt lat="46.46773403" lon="6.23048496"><ele>1286.380981</ele><time>2008-08-01T12:38:06Z</time></trkpt>
<trkpt lat="46.46743597" lon="6.23085201"><ele>1284.938965</ele><time>2008-08-01T12:38:11Z</time></trkpt>
<trkpt lat="46.46713899" lon="6.23127999"><ele>1283.978027</ele><time>2008-08-01T12:38:17Z</time></trkpt>
<trkpt lat="46.46704897" lon="6.23140102"><ele>1283.978027</ele><time>2008-08-01T12:38:19Z</time></trkpt>
<trkpt lat="46.46682601" lon="6.23153203"><ele>1283.016968</ele><time>2008-08-01T12:38:24Z</time></trkpt>
<trkpt lat="46.46658797" lon="6.23150596"><ele>1282.536011</ele><time>2008-08-01T12:38:30Z</time></trkpt>
<trkpt lat="46.46613903" lon="6.23156204"><ele>1281.093994</ele><time>2008-08-01T12:38:39Z</time></trkpt>
<trkpt lat="46.46576202" lon="6.23154402"><ele>1280.614014</ele><time>2008-08-01T12:38:45Z</time></trkpt>
<trkpt lat="46.46534099" lon="6.23148501"><ele>1280.133057</ele><time>2008-08-01T12:38:51Z</time></trkpt>
<trkpt lat="46.46528198" lon="6.23148099"><ele>1280.133057</ele><time>2008-08-01T12:38:52Z</time></trkpt>
<trkpt lat="46.46481997" lon="6.23143899"><ele>1278.69104</ele><time>2008-08-01T12:38:59Z</time></trkpt>
<trkpt lat="46.46445704" lon="6.23146104"><ele>1277.729004</ele><time>2008-08-01T12:39:05Z</time></trkpt>
<trkpt lat="46.46407398" lon="6.23152197"><ele>1276.767944</ele><time>2008-08-01T12:39:14Z</time></trkpt>
<trkpt lat="46.46404800" lon="6.23150999"><ele>1277.249023</ele><time>2008-08-01T12:39:15Z</time></trkpt>
<trkpt lat="46.46405404" lon="6.23130597"><ele>1276.767944</ele><time>2008-08-01T12:39:20Z</time></trkpt>
<trkpt lat="46.46412000" lon="6.23121897"><ele>1276.767944</ele><time>2008-08-01T12:39:22Z</time></trkpt>
<trkpt lat="46.46442602" lon="6.23097497"><ele>1276.287964</ele><time>2008-08-01T12:39:28Z</time></trkpt>
<trkpt lat="46.46483397" lon="6.23075302"><ele>1274.844971</ele><time>2008-08-01T12:39:35Z</time></trkpt>
<trkpt lat="46.46523102" lon="6.23057197"><ele>1274.36499</ele><time>2008-08-01T12:39:41Z</time></trkpt>
<trkpt lat="46.46557996" lon="6.23042897"><ele>1274.36499</ele><time>2008-08-01T12:39:46Z</time></trkpt>
<trkpt lat="46.46571499" lon="6.23038002"><ele>1273.884033</ele><time>2008-08-01T12:39:48Z</time></trkpt>
<trkpt lat="46.46598799" lon="6.22992396"><ele>1273.404053</ele><time>2008-08-01T12:39:55Z</time></trkpt>
<trkpt lat="46.46601498" lon="6.22964200"><ele>1272.922974</ele><time>2008-08-01T12:39:58Z</time></trkpt>
<trkpt lat="46.46602797" lon="6.22901302"><ele>1271.96106</ele><time>2008-08-01T12:40:04Z</time></trkpt>
<trkpt lat="46.46602403" lon="6.22840399"><ele>1271.480957</ele><time>2008-08-01T12:40:09Z</time></trkpt>
<trkpt lat="46.46607399" lon="6.22777702"><ele>1271</ele><time>2008-08-01T12:40:14Z</time></trkpt>
<trkpt lat="46.46612101" lon="6.22754904"><ele>1271</ele><time>2008-08-01T12:40:16Z</time></trkpt>
<trkpt lat="46.46635504" lon="6.22707102"><ele>1270.52002</ele><time>2008-08-01T12:40:21Z</time></trkpt>
<trkpt lat="46.46658403" lon="6.22689399"><ele>1270.03894</ele><time>2008-08-01T12:40:24Z</time></trkpt>
<trkpt lat="46.46681302" lon="6.22626903"><ele>1270.03894</ele><time>2008-08-01T12:40:30Z</time></trkpt>
<trkpt lat="46.46683599" lon="6.22579202"><ele>1269.078003</ele><time>2008-08-01T12:40:34Z</time></trkpt>
<trkpt lat="46.46687999" lon="6.22556797"><ele>1269.078003</ele><time>2008-08-01T12:40:36Z</time></trkpt>
<trkpt lat="46.46726900" lon="6.22518098"><ele>1268.597046</ele><time>2008-08-01T12:40:42Z</time></trkpt>
<trkpt lat="46.46736396" lon="6.22465401"><ele>1268.115967</ele><time>2008-08-01T12:40:48Z</time></trkpt>
<trkpt lat="46.46727696" lon="6.22394901"><ele>1268.115967</ele><time>2008-08-01T12:40:55Z</time></trkpt>
<trkpt lat="46.46730303" lon="6.22346001"><ele>1267.63501</ele><time>2008-08-01T12:41:00Z</time></trkpt>
<trkpt lat="46.46732197" lon="6.22293002"><ele>1267.155029</ele><time>2008-08-01T12:41:05Z</time></trkpt>
<trkpt lat="46.46738400" lon="6.22244303"><ele>1266.67395</ele><time>2008-08-01T12:41:10Z</time></trkpt>
<trkpt lat="46.46751400" lon="6.22192997"><ele>1266.67395</ele><time>2008-08-01T12:41:16Z</time></trkpt>
<trkpt lat="46.46740202" lon="6.22124601"><ele>1265.232056</ele><time>2008-08-01T12:41:23Z</time></trkpt>
<trkpt lat="46.46724603" lon="6.22084804"><ele>1264.751953</ele><time>2008-08-01T12:41:27Z</time></trkpt>
<trkpt lat="46.46690799" lon="6.22028603"><ele>1263.790039</ele><time>2008-08-01T12:41:33Z</time></trkpt>
<trkpt lat="46.46661798" lon="6.21980399"><ele>1263.790039</ele><time>2008-08-01T12:41:38Z</time></trkpt>
<trkpt lat="46.46616502" lon="6.21969201"><ele>1263.310059</ele><time>2008-08-01T12:41:45Z</time></trkpt>
<trkpt lat="46.46603803" lon="6.21992704"><ele>1262.828979</ele><time>2008-08-01T12:41:48Z</time></trkpt>
<trkpt lat="46.46591297" lon="6.22028796"><ele>1263.790039</ele><time>2008-08-01T12:41:52Z</time></trkpt>
<trkpt lat="46.46589202" lon="6.22037002"><ele>1263.790039</ele><time>2008-08-01T12:41:53Z</time></trkpt>
<trkpt lat="46.46589001" lon="6.22058501"><ele>1263.790039</ele><time>2008-08-01T12:41:56Z</time></trkpt>
<trkpt lat="46.46598003" lon="6.22088400"><ele>1263.790039</ele><time>2008-08-01T12:42:00Z</time></trkpt>
<trkpt lat="46.46605404" lon="6.22103697"><ele>1264.270996</ele><time>2008-08-01T12:42:02Z</time></trkpt>
<trkpt lat="46.46603099" lon="6.22136604"><ele>1264.751953</ele><time>2008-08-01T12:42:06Z</time></trkpt>
<trkpt lat="46.46593200" lon="6.22162898"><ele>1264.751953</ele><time>2008-08-01T12:42:10Z</time></trkpt>
<trkpt lat="46.46587299" lon="6.22184004"><ele>1263.790039</ele><time>2008-08-01T12:42:13Z</time></trkpt>
<trkpt lat="46.46581398" lon="6.22202796"><ele>1264.270996</ele><time>2008-08-01T12:42:16Z</time></trkpt>
<trkpt lat="46.46576797" lon="6.22247103"><ele>1264.270996</ele><time>2008-08-01T12:42:23Z</time></trkpt>
<trkpt lat="46.46573704" lon="6.22265099"><ele>1264.270996</ele><time>2008-08-01T12:42:26Z</time></trkpt>
<trkpt lat="46.46548298" lon="6.22309498"><ele>1264.270996</ele><time>2008-08-01T12:42:36Z</time></trkpt>
<trkpt lat="46.46521702" lon="6.22350996"><ele>1264.270996</ele><time>2008-08-01T12:42:46Z</time></trkpt>
<trkpt lat="46.46491402" lon="6.22372001"><ele>1263.790039</ele><time>2008-08-01T12:42:55Z</time></trkpt>
<trkpt lat="46.46464203" lon="6.22409603"><ele>1263.790039</ele><time>2008-08-01T12:43:06Z</time></trkpt>
<trkpt lat="46.46431698" lon="6.22435302"><ele>1264.751953</ele><time>2008-08-01T12:43:18Z</time></trkpt>
<trkpt lat="46.46395303" lon="6.22430901"><ele>1264.751953</ele><time>2008-08-01T12:43:30Z</time></trkpt>
<trkpt lat="46.46364600" lon="6.22456499"><ele>1264.270996</ele><time>2008-08-01T12:43:42Z</time></trkpt>
<trkpt lat="46.46330100" lon="6.22476096"><ele>1264.270996</ele><time>2008-08-01T12:43:53Z</time></trkpt>
<trkpt lat="46.46298199" lon="6.22503798"><ele>1264.751953</ele><time>2008-08-01T12:44:05Z</time></trkpt>
<trkpt lat="46.46266499" lon="6.22486498"><ele>1264.751953</ele><time>2008-08-01T12:44:16Z</time></trkpt>
<trkpt lat="46.46232502" lon="6.22471402"><ele>1264.270996</ele><time>2008-08-01T12:44:29Z</time></trkpt>
<trkpt lat="46.46195998" lon="6.22473900"><ele>1264.751953</ele><time>2008-08-01T12:44:41Z</time></trkpt>
<trkpt lat="46.46161901" lon="6.22457597"><ele>1264.270996</ele><time>2008-08-01T12:44:53Z</time></trkpt>
<trkpt lat="46.46127703" lon="6.22435997"><ele>1265.232056</ele><time>2008-08-01T12:45:05Z</time></trkpt>
<trkpt lat="46.46095097" lon="6.22413701"><ele>1264.751953</ele><time>2008-08-01T12:45:16Z</time></trkpt>
<trkpt lat="46.46059801" lon="6.22389897"><ele>1263.790039</ele><time>2008-08-01T12:45:28Z</time></trkpt>
<trkpt lat="46.46024203" lon="6.22369504"><ele>1263.790039</ele><time>2008-08-01T12:45:41Z</time></trkpt>
<trkpt lat="46.46005796" lon="6.22372898"><ele>1263.790039</ele><time>2008-08-01T12:45:49Z</time></trkpt>
<trkpt lat="46.45972403" lon="6.22395102"><ele>1263.310059</ele><time>2008-08-01T12:45:57Z</time></trkpt>
<trkpt lat="46.45942597" lon="6.22414598"><ele>1263.310059</ele><time>2008-08-01T12:46:03Z</time></trkpt>
<trkpt lat="46.45911299" lon="6.22439903"><ele>1263.310059</ele><time>2008-08-01T12:46:10Z</time></trkpt>
<trkpt lat="46.45895700" lon="6.22453004"><ele>1263.310059</ele><time>2008-08-01T12:46:13Z</time></trkpt>
<trkpt lat="46.45877402" lon="6.22463096"><ele>1263.310059</ele><time>2008-08-01T12:46:16Z</time></trkpt>
<trkpt lat="46.45841997" lon="6.22481997"><ele>1262.348022</ele><time>2008-08-01T12:46:21Z</time></trkpt>
<trkpt lat="46.45808604" lon="6.22503304"><ele>1262.348022</ele><time>2008-08-01T12:46:27Z</time></trkpt>
<trkpt lat="46.45804203" lon="6.22505802"><ele>1262.828979</ele><time>2008-08-01T12:46:28Z</time></trkpt>
<trkpt lat="46.45776400" lon="6.22498099"><ele>1262.348022</ele><time>2008-08-01T12:46:34Z</time></trkpt>
<trkpt lat="46.45745102" lon="6.22450599"><ele>1261.868042</ele><time>2008-08-01T12:46:41Z</time></trkpt>
<trkpt lat="46.45717601" lon="6.22403098"><ele>1260.906006</ele><time>2008-08-01T12:46:47Z</time></trkpt>
<trkpt lat="46.45689597" lon="6.22360501"><ele>1260.426025</ele><time>2008-08-01T12:46:53Z</time></trkpt>
<trkpt lat="46.45664200" lon="6.22320402"><ele>1259.944946</ele><time>2008-08-01T12:46:59Z</time></trkpt>
<trkpt lat="46.45644704" lon="6.22286296"><ele>1259.463989</ele><time>2008-08-01T12:47:04Z</time></trkpt>
<trkpt lat="46.45633799" lon="6.22265702"><ele>1259.463989</ele><time>2008-08-01T12:47:07Z</time></trkpt>
<trkpt lat="46.45613004" lon="6.22212402"><ele>1258.503052</ele><time>2008-08-01T12:47:14Z</time></trkpt>
<trkpt lat="46.45588000" lon="6.22168698"><ele>1258.021973</ele><time>2008-08-01T12:47:20Z</time></trkpt>
<trkpt lat="46.45583499" lon="6.22162001"><ele>1257.541992</ele><time>2008-08-01T12:47:21Z</time></trkpt>
<trkpt lat="46.45543702" lon="6.22125397"><ele>1257.061035</ele><time>2008-08-01T12:47:28Z</time></trkpt>
<trkpt lat="46.45508900" lon="6.22099799"><ele>1256.579956</ele><time>2008-08-01T12:47:34Z</time></trkpt>
<trkpt lat="46.45493302" lon="6.22084997"><ele>1255.619019</ele><time>2008-08-01T12:47:37Z</time></trkpt>
<trkpt lat="46.45468500" lon="6.22031202"><ele>1255.137939</ele><time>2008-08-01T12:47:44Z</time></trkpt>
<trkpt lat="46.45446899" lon="6.21987297"><ele>1254.177002</ele><time>2008-08-01T12:47:50Z</time></trkpt>
<trkpt lat="46.45417403" lon="6.21980399"><ele>1253.215942</ele><time>2008-08-01T12:48:02Z</time></trkpt>
<trkpt lat="46.45407404" lon="6.21994204"><ele>1252.734985</ele><time>2008-08-01T12:48:06Z</time></trkpt>
<trkpt lat="46.45398100" lon="6.22005503"><ele>1252.734985</ele><time>2008-08-01T12:48:09Z</time></trkpt>
<trkpt lat="46.45362401" lon="6.22030598"><ele>1252.254028</ele><time>2008-08-01T12:48:18Z</time></trkpt>
<trkpt lat="46.45322403" lon="6.22035996"><ele>1251.292969</ele><time>2008-08-01T12:48:27Z</time></trkpt>
<trkpt lat="46.45279597" lon="6.22017003"><ele>1250.332031</ele><time>2008-08-01T12:48:36Z</time></trkpt>
<trkpt lat="46.45246899" lon="6.21995201"><ele>1250.332031</ele><time>2008-08-01T12:48:42Z</time></trkpt>
<trkpt lat="46.45207303" lon="6.21968396"><ele>1249.370972</ele><time>2008-08-01T12:48:48Z</time></trkpt>
<trkpt lat="46.45170003" lon="6.21944499"><ele>1248.409058</ele><time>2008-08-01T12:48:53Z</time></trkpt>
<trkpt lat="46.45161998" lon="6.21940602"><ele>1248.409058</ele><time>2008-08-01T12:48:54Z</time></trkpt>
<trkpt lat="46.45115898" lon="6.21938900"><ele>1247.928955</ele><time>2008-08-01T12:49:00Z</time></trkpt>
<trkpt lat="46.45073703" lon="6.21950098"><ele>1247.447998</ele><time>2008-08-01T12:49:06Z</time></trkpt>
<trkpt lat="46.45032196" lon="6.21952797"><ele>1246.005981</ele><time>2008-08-01T12:49:12Z</time></trkpt>
<trkpt lat="46.44994796" lon="6.21949797"><ele>1245.525024</ele><time>2008-08-01T12:49:18Z</time></trkpt>
<trkpt lat="46.44999901" lon="6.21920996"><ele>1244.563965</ele><time>2008-08-01T12:49:29Z</time></trkpt>
<trkpt lat="46.45016002" lon="6.21914702"><ele>1244.563965</ele><time>2008-08-01T12:49:33Z</time></trkpt>
<trkpt lat="46.45023404" lon="6.21910896"><ele>1244.563965</ele><time>2008-08-01T12:49:35Z</time></trkpt>
<trkpt lat="46.45041198" lon="6.21891601"><ele>1244.083008</ele><time>2008-08-01T12:49:40Z</time></trkpt>
<trkpt lat="46.45050603" lon="6.21880503"><ele>1243.603027</ele><time>2008-08-01T12:49:43Z</time></trkpt>
<trkpt lat="46.45036899" lon="6.21850898"><ele>1243.121948</ele><time>2008-08-01T12:49:52Z</time></trkpt>
<trkpt lat="46.44994897" lon="6.21830304"><ele>1243.121948</ele><time>2008-08-01T12:50:00Z</time></trkpt>
<trkpt lat="46.44960900" lon="6.21810699"><ele>1241.680054</ele><time>2008-08-01T12:50:05Z</time></trkpt>
<trkpt lat="46.44921798" lon="6.21791798"><ele>1241.680054</ele><time>2008-08-01T12:50:10Z</time></trkpt>
<trkpt lat="46.44878003" lon="6.21783600"><ele>1241.198975</ele><time>2008-08-01T12:50:15Z</time></trkpt>
<trkpt lat="46.44869101" lon="6.21783298"><ele>1241.198975</ele><time>2008-08-01T12:50:16Z</time></trkpt>
<trkpt lat="46.44833604" lon="6.21792502"><ele>1240.238037</ele><time>2008-08-01T12:50:20Z</time></trkpt>
<trkpt lat="46.44792398" lon="6.21824303"><ele>1239.756958</ele><time>2008-08-01T12:50:25Z</time></trkpt>
<trkpt lat="46.44760698" lon="6.21855902"><ele>1239.756958</ele><time>2008-08-01T12:50:29Z</time></trkpt>
<trkpt lat="46.44727497" lon="6.21887896"><ele>1239.276978</ele><time>2008-08-01T12:50:33Z</time></trkpt>
<trkpt lat="46.44702997" lon="6.21910703"><ele>1239.276978</ele><time>2008-08-01T12:50:36Z</time></trkpt>
<trkpt lat="46.44675303" lon="6.21925003"><ele>1238.314941</ele><time>2008-08-01T12:50:39Z</time></trkpt>
<trkpt lat="46.44634802" lon="6.21930803"><ele>1238.314941</ele><time>2008-08-01T12:50:43Z</time></trkpt>
<trkpt lat="46.44585600" lon="6.21910804"><ele>1238.314941</ele><time>2008-08-01T12:50:48Z</time></trkpt>
<trkpt lat="46.44553900" lon="6.21876799"><ele>1238.314941</ele><time>2008-08-01T12:50:52Z</time></trkpt>
<trkpt lat="46.44541101" lon="6.21843103"><ele>1237.834961</ele><time>2008-08-01T12:50:55Z</time></trkpt>
<trkpt lat="46.44500800" lon="6.21780700"><ele>1237.354004</ele><time>2008-08-01T12:51:02Z</time></trkpt>
<trkpt lat="46.44453602" lon="6.21764900"><ele>1236.873047</ele><time>2008-08-01T12:51:07Z</time></trkpt>
<trkpt lat="46.44426000" lon="6.21760298"><ele>1236.392944</ele><time>2008-08-01T12:51:10Z</time></trkpt>
<trkpt lat="46.44393898" lon="6.21717199"><ele>1235.911987</ele><time>2008-08-01T12:51:15Z</time></trkpt>
<trkpt lat="46.44356598" lon="6.21657704"><ele>1234.95105</ele><time>2008-08-01T12:51:21Z</time></trkpt>
<trkpt lat="46.44309802" lon="6.21635702"><ele>1234.469971</ele><time>2008-08-01T12:51:26Z</time></trkpt>
<trkpt lat="46.44292099" lon="6.21627797"><ele>1233.98999</ele><time>2008-08-01T12:51:28Z</time></trkpt>
<trkpt lat="46.44263903" lon="6.21582502"><ele>1233.509033</ele><time>2008-08-01T12:51:33Z</time></trkpt>
<trkpt lat="46.44257097" lon="6.21556199"><ele>1233.027954</ele><time>2008-08-01T12:51:35Z</time></trkpt>
<trkpt lat="46.44222898" lon="6.21502597"><ele>1232.547974</ele><time>2008-08-01T12:51:40Z</time></trkpt>
<trkpt lat="46.44212899" lon="6.21495497"><ele>1232.547974</ele><time>2008-08-01T12:51:41Z</time></trkpt>
<trkpt lat="46.44160604" lon="6.21463001"><ele>1232.547974</ele><time>2008-08-01T12:51:46Z</time></trkpt>
<trkpt lat="46.44151099" lon="6.21456002"><ele>1231.58606</ele><time>2008-08-01T12:51:47Z</time></trkpt>
<trkpt lat="46.44118502" lon="6.21416800"><ele>1231.105957</ele><time>2008-08-01T12:51:51Z</time></trkpt>
<trkpt lat="46.44091696" lon="6.21352100"><ele>1230.625</ele><time>2008-08-01T12:51:56Z</time></trkpt>
<trkpt lat="46.44077799" lon="6.21291901"><ele>1230.625</ele><time>2008-08-01T12:52:00Z</time></trkpt>
<trkpt lat="46.44065101" lon="6.21233496"><ele>1230.144043</ele><time>2008-08-01T12:52:04Z</time></trkpt>
<trkpt lat="46.44061496" lon="6.21219900"><ele>1229.66394</ele><time>2008-08-01T12:52:05Z</time></trkpt>
<trkpt lat="46.44026200" lon="6.21169701"><ele>1229.182983</ele><time>2008-08-01T12:52:10Z</time></trkpt>
<trkpt lat="46.44016000" lon="6.21164102"><ele>1228.702026</ele><time>2008-08-01T12:52:11Z</time></trkpt>
<trkpt lat="46.43961299" lon="6.21143701"><ele>1227.740967</ele><time>2008-08-01T12:52:16Z</time></trkpt>
<trkpt lat="46.43939297" lon="6.21141303"><ele>1227.740967</ele><time>2008-08-01T12:52:18Z</time></trkpt>
<trkpt lat="46.43890204" lon="6.21162300"><ele>1227.26001</ele><time>2008-08-01T12:52:23Z</time></trkpt>
<trkpt lat="46.43850801" lon="6.21199801"><ele>1226.780029</ele><time>2008-08-01T12:52:29Z</time></trkpt>
<trkpt lat="46.43835001" lon="6.21216003"><ele>1226.29895</ele><time>2008-08-01T12:52:32Z</time></trkpt>
<trkpt lat="46.43825001" lon="6.21224200"><ele>1226.29895</ele><time>2008-08-01T12:52:34Z</time></trkpt>
<trkpt lat="46.43800098" lon="6.21278800"><ele>1225.817993</ele><time>2008-08-01T12:52:41Z</time></trkpt>
<trkpt lat="46.43780200" lon="6.21325001"><ele>1225.337036</ele><time>2008-08-01T12:52:46Z</time></trkpt>
<trkpt lat="46.43755599" lon="6.21372501"><ele>1224.375977</ele><time>2008-08-01T12:52:51Z</time></trkpt>
<trkpt lat="46.43727796" lon="6.21414000"><ele>1223.415039</ele><time>2008-08-01T12:52:56Z</time></trkpt>
<trkpt lat="46.43711602" lon="6.21435902"><ele>1223.415039</ele><time>2008-08-01T12:52:59Z</time></trkpt>
<trkpt lat="46.43688602" lon="6.21459698"><ele>1222.93396</ele><time>2008-08-01T12:53:03Z</time></trkpt>
<trkpt lat="46.43651504" lon="6.21516000"><ele>1221.973022</ele><time>2008-08-01T12:53:10Z</time></trkpt>
<trkpt lat="46.43624397" lon="6.21552503"><ele>1221.491943</ele><time>2008-08-01T12:53:15Z</time></trkpt>
<trkpt lat="46.43604901" lon="6.21581102"><ele>1220.531006</ele><time>2008-08-01T12:53:19Z</time></trkpt>
<trkpt lat="46.43576897" lon="6.21625601"><ele>1220.050049</ele><time>2008-08-01T12:53:25Z</time></trkpt>
<trkpt lat="46.43552204" lon="6.21666103"><ele>1219.088989</ele><time>2008-08-01T12:53:30Z</time></trkpt>
<trkpt lat="46.43541500" lon="6.21706998"><ele>1218.608032</ele><time>2008-08-01T12:53:34Z</time></trkpt>
<trkpt lat="46.43530402" lon="6.21755403"><ele>1217.166992</ele><time>2008-08-01T12:53:41Z</time></trkpt>
<trkpt lat="46.43520202" lon="6.21770600"><ele>1217.166992</ele><time>2008-08-01T12:53:44Z</time></trkpt>
<trkpt lat="46.43503496" lon="6.21811001"><ele>1214.762939</ele><time>2008-08-01T12:53:56Z</time></trkpt>
<trkpt lat="46.43512700" lon="6.21821897"><ele>1214.281982</ele><time>2008-08-01T12:53:59Z</time></trkpt>
<trkpt lat="46.43524501" lon="6.21832098"><ele>1214.281982</ele><time>2008-08-01T12:54:02Z</time></trkpt>
<trkpt lat="46.43562103" lon="6.21865701"><ele>1213.321045</ele><time>2008-08-01T12:54:09Z</time></trkpt>
<trkpt lat="46.43586603" lon="6.21887402"><ele>1212.840942</ele><time>2008-08-01T12:54:13Z</time></trkpt>
<trkpt lat="46.43597499" lon="6.21951104"><ele>1212.359985</ele><time>2008-08-01T12:54:20Z</time></trkpt>
<trkpt lat="46.43593803" lon="6.21960701"><ele>1212.359985</ele><time>2008-08-01T12:54:21Z</time></trkpt>
<trkpt lat="46.43566503" lon="6.22020599"><ele>1211.879028</ele><time>2008-08-01T12:54:27Z</time></trkpt>
<trkpt lat="46.43557199" lon="6.22042903"><ele>1210.917969</ele><time>2008-08-01T12:54:29Z</time></trkpt>
<trkpt lat="46.43549899" lon="6.22112598"><ele>1210.437012</ele><time>2008-08-01T12:54:35Z</time></trkpt>
<trkpt lat="46.43563301" lon="6.22177600"><ele>1209.956055</ele><time>2008-08-01T12:54:43Z</time></trkpt>
<trkpt lat="46.43569001" lon="6.22205000"><ele>1209.475952</ele><time>2008-08-01T12:54:47Z</time></trkpt>
<trkpt lat="46.43571901" lon="6.22217598"><ele>1209.475952</ele><time>2008-08-01T12:54:49Z</time></trkpt>
<trkpt lat="46.43573200" lon="6.22223499"><ele>1208.994995</ele><time>2008-08-01T12:54:50Z</time></trkpt>
<trkpt lat="46.43576000" lon="6.22235100"><ele>1208.994995</ele><time>2008-08-01T12:54:52Z</time></trkpt>
<trkpt lat="46.43576603" lon="6.22260396"><ele>1208.514038</ele><time>2008-08-01T12:54:56Z</time></trkpt>
<trkpt lat="46.43563896" lon="6.22308198"><ele>1208.514038</ele><time>2008-08-01T12:55:03Z</time></trkpt>
<trkpt lat="46.43551198" lon="6.22368800"><ele>1208.514038</ele><time>2008-08-01T12:55:10Z</time></trkpt>
<trkpt lat="46.43543503" lon="6.22424799"><ele>1208.514038</ele><time>2008-08-01T12:55:16Z</time></trkpt>
<trkpt lat="46.43553796" lon="6.22474504"><ele>1208.514038</ele><time>2008-08-01T12:55:21Z</time></trkpt>
<trkpt lat="46.43563603" lon="6.22500303"><ele>1208.514038</ele><time>2008-08-01T12:55:24Z</time></trkpt>
<trkpt lat="46.43571197" lon="6.22537997"><ele>1208.034058</ele><time>2008-08-01T12:55:28Z</time></trkpt>
<trkpt lat="46.43553704" lon="6.22588699"><ele>1208.034058</ele><time>2008-08-01T12:55:35Z</time></trkpt>
<trkpt lat="46.43534702" lon="6.22613601"><ele>1208.034058</ele><time>2008-08-01T12:55:40Z</time></trkpt>
<trkpt lat="46.43523999" lon="6.22628001"><ele>1207.552979</ele><time>2008-08-01T12:55:43Z</time></trkpt>
<trkpt lat="46.43494301" lon="6.22667396"><ele>1207.072998</ele><time>2008-08-01T12:55:51Z</time></trkpt>
<trkpt lat="46.43463599" lon="6.22700396"><ele>1206.110962</ele><time>2008-08-01T12:55:57Z</time></trkpt>
<trkpt lat="46.43435201" lon="6.22710303"><ele>1206.110962</ele><time>2008-08-01T12:56:01Z</time></trkpt>
<trkpt lat="46.43389301" lon="6.22707797"><ele>1206.110962</ele><time>2008-08-01T12:56:07Z</time></trkpt>
<trkpt lat="46.43353100" lon="6.22701201"><ele>1205.630981</ele><time>2008-08-01T12:56:12Z</time></trkpt>
<trkpt lat="46.43317401" lon="6.22683397"><ele>1205.150024</ele><time>2008-08-01T12:56:17Z</time></trkpt>
<trkpt lat="46.43280496" lon="6.22661504"><ele>1204.188965</ele><time>2008-08-01T12:56:22Z</time></trkpt>
<trkpt lat="46.43244001" lon="6.22638202"><ele>1204.188965</ele><time>2008-08-01T12:56:27Z</time></trkpt>
<trkpt lat="46.43221797" lon="6.22625898"><ele>1203.708008</ele><time>2008-08-01T12:56:30Z</time></trkpt>
<trkpt lat="46.43170601" lon="6.22629904"><ele>1203.227051</ele><time>2008-08-01T12:56:36Z</time></trkpt>
<trkpt lat="46.43125003" lon="6.22671797"><ele>1202.746948</ele><time>2008-08-01T12:56:42Z</time></trkpt>
<trkpt lat="46.43093403" lon="6.22703799"><ele>1202.265991</ele><time>2008-08-01T12:56:46Z</time></trkpt>
<trkpt lat="46.43057403" lon="6.22735600"><ele>1202.265991</ele><time>2008-08-01T12:56:50Z</time></trkpt>
<trkpt lat="46.43020196" lon="6.22767502"><ele>1201.785034</ele><time>2008-08-01T12:56:54Z</time></trkpt>
<trkpt lat="46.42984900" lon="6.22797702"><ele>1200.823975</ele><time>2008-08-01T12:56:58Z</time></trkpt>
<trkpt lat="46.42950601" lon="6.22831497"><ele>1199.863037</ele><time>2008-08-01T12:57:02Z</time></trkpt>
<trkpt lat="46.42914400" lon="6.22861203"><ele>1199.863037</ele><time>2008-08-01T12:57:06Z</time></trkpt>
<trkpt lat="46.42873001" lon="6.22881797"><ele>1198.901001</ele><time>2008-08-01T12:57:11Z</time></trkpt>
<trkpt lat="46.42835299" lon="6.22893004"><ele>1198.421021</ele><time>2008-08-01T12:57:17Z</time></trkpt>
<trkpt lat="46.42795896" lon="6.22900598"><ele>1197.458984</ele><time>2008-08-01T12:57:24Z</time></trkpt>
<trkpt lat="46.42754599" lon="6.22904998"><ele>1196.979004</ele><time>2008-08-01T12:57:30Z</time></trkpt>
<trkpt lat="46.42711398" lon="6.22915702"><ele>1196.498047</ele><time>2008-08-01T12:57:35Z</time></trkpt>
<trkpt lat="46.42674602" lon="6.22953001"><ele>1195.536987</ele><time>2008-08-01T12:57:40Z</time></trkpt>
<trkpt lat="46.42665801" lon="6.22973998"><ele>1195.536987</ele><time>2008-08-01T12:57:42Z</time></trkpt>
<trkpt lat="46.42649598" lon="6.23036301"><ele>1194.574951</ele><time>2008-08-01T12:57:48Z</time></trkpt>
<trkpt lat="46.42641803" lon="6.23093398"><ele>1194.094971</ele><time>2008-08-01T12:57:53Z</time></trkpt>
<trkpt lat="46.42635299" lon="6.23148099"><ele>1194.094971</ele><time>2008-08-01T12:57:58Z</time></trkpt>
<trkpt lat="46.42628501" lon="6.23203796"><ele>1193.133057</ele><time>2008-08-01T12:58:03Z</time></trkpt>
<trkpt lat="46.42620496" lon="6.23260198"><ele>1192.652954</ele><time>2008-08-01T12:58:08Z</time></trkpt>
<trkpt lat="46.42580003" lon="6.23520297"><ele>1451.728027</ele><time>2008-08-01T12:58:35Z</time></trkpt>
<trkpt lat="46.42580599" lon="6.23538000"><ele>1451.246948</ele><time>2008-08-01T12:58:37Z</time></trkpt>
<trkpt lat="46.42555201" lon="6.23587101"><ele>1450.286011</ele><time>2008-08-01T12:58:44Z</time></trkpt>
<trkpt lat="46.42541204" lon="6.23586497"><ele>1450.286011</ele><time>2008-08-01T12:58:46Z</time></trkpt>
<trkpt lat="46.42527399" lon="6.23583002"><ele>1449.805054</ele><time>2008-08-01T12:58:48Z</time></trkpt>
<trkpt lat="46.42499696" lon="6.23586900"><ele>1449.805054</ele><time>2008-08-01T12:58:52Z</time></trkpt>
<trkpt lat="46.42469597" lon="6.23603102"><ele>1448.363037</ele><time>2008-08-01T12:58:57Z</time></trkpt>
<trkpt lat="46.42449397" lon="6.23592800"><ele>1447.883057</ele><time>2008-08-01T12:59:03Z</time></trkpt>
<trkpt lat="46.42431702" lon="6.23584603"><ele>1447.401978</ele><time>2008-08-01T12:59:08Z</time></trkpt>
<trkpt lat="46.42388100" lon="6.23590303"><ele>1446.44104</ele><time>2008-08-01T12:59:17Z</time></trkpt>
<trkpt lat="46.42362803" lon="6.23610696"><ele>1445.479004</ele><time>2008-08-01T12:59:23Z</time></trkpt>
<trkpt lat="46.42357598" lon="6.23618701"><ele>1445.479004</ele><time>2008-08-01T12:59:25Z</time></trkpt>
<trkpt lat="46.42344204" lon="6.23610302"><ele>1444.999023</ele><time>2008-08-01T12:59:29Z</time></trkpt>
<trkpt lat="46.42317801" lon="6.23561502"><ele>1444.037964</ele><time>2008-08-01T12:59:36Z</time></trkpt>
<trkpt lat="46.42296804" lon="6.23518000"><ele>1443.557007</ele><time>2008-08-01T12:59:41Z</time></trkpt>
<trkpt lat="46.42292798" lon="6.23509099"><ele>1443.07605</ele><time>2008-08-01T12:59:42Z</time></trkpt>
<trkpt lat="46.42273201" lon="6.23479402"><ele>1442.595947</ele><time>2008-08-01T12:59:46Z</time></trkpt>
<trkpt lat="46.42238701" lon="6.23443502"><ele>1442.595947</ele><time>2008-08-01T12:59:52Z</time></trkpt>
<trkpt lat="46.42208803" lon="6.23407401"><ele>1441.154053</ele><time>2008-08-01T12:59:58Z</time></trkpt>
<trkpt lat="46.42164898" lon="6.23399497"><ele>1440.192017</ele><time>2008-08-01T13:00:04Z</time></trkpt>
<trkpt lat="46.42149903" lon="6.23415104"><ele>1440.192017</ele><time>2008-08-01T13:00:06Z</time></trkpt>
<trkpt lat="46.42113802" lon="6.23467399"><ele>1439.230957</ele><time>2008-08-01T13:00:11Z</time></trkpt>
<trkpt lat="46.42081900" lon="6.23503198"><ele>1438.27002</ele><time>2008-08-01T13:00:15Z</time></trkpt>
<trkpt lat="46.42049597" lon="6.23526701"><ele>1438.27002</ele><time>2008-08-01T13:00:19Z</time></trkpt>
<trkpt lat="46.42033000" lon="6.23533197"><ele>1437.78894</ele><time>2008-08-01T13:00:21Z</time></trkpt>
<trkpt lat="46.41983598" lon="6.23531302"><ele>1437.307983</ele><time>2008-08-01T13:00:27Z</time></trkpt>
<trkpt lat="46.41968996" lon="6.23528101"><ele>1437.78894</ele><time>2008-08-01T13:00:29Z</time></trkpt>
<trkpt lat="46.41927497" lon="6.23519400"><ele>1436.347046</ele><time>2008-08-01T13:00:35Z</time></trkpt>
<trkpt lat="46.41900801" lon="6.23512703"><ele>1435.865967</ele><time>2008-08-01T13:00:39Z</time></trkpt>
<trkpt lat="46.41860803" lon="6.23503500"><ele>1435.865967</ele><time>2008-08-01T13:00:45Z</time></trkpt>
<trkpt lat="46.41821399" lon="6.23494598"><ele>1435.38501</ele><time>2008-08-01T13:00:51Z</time></trkpt>
<trkpt lat="46.41781300" lon="6.23485697"><ele>1434.905029</ele><time>2008-08-01T13:00:57Z</time></trkpt>
<trkpt lat="46.41741402" lon="6.23476602"><ele>1434.905029</ele><time>2008-08-01T13:01:03Z</time></trkpt>
<trkpt lat="46.41700096" lon="6.23467298"><ele>1433.94397</ele><time>2008-08-01T13:01:09Z</time></trkpt>
<trkpt lat="46.41665404" lon="6.23452001"><ele>1433.94397</ele><time>2008-08-01T13:01:14Z</time></trkpt>
<trkpt lat="46.41625296" lon="6.23433896"><ele>1433.463013</ele><time>2008-08-01T13:01:20Z</time></trkpt>
<trkpt lat="46.41619102" lon="6.23430803"><ele>1433.463013</ele><time>2008-08-01T13:01:21Z</time></trkpt>
<trkpt lat="46.41579104" lon="6.23395700"><ele>1433.94397</ele><time>2008-08-01T13:01:28Z</time></trkpt>
<trkpt lat="46.41550899" lon="6.23355500"><ele>1433.463013</ele><time>2008-08-01T13:01:36Z</time></trkpt>
<trkpt lat="46.41519198" lon="6.23325996"><ele>1433.463013</ele><time>2008-08-01T13:01:49Z</time></trkpt>
<trkpt lat="46.41494203" lon="6.23321101"><ele>1432.982056</ele><time>2008-08-01T13:01:59Z</time></trkpt>
<trkpt lat="46.41465202" lon="6.23332601"><ele>1432.501953</ele><time>2008-08-01T13:02:11Z</time></trkpt>
<trkpt lat="46.41434901" lon="6.23362198"><ele>1431.060059</ele><time>2008-08-01T13:02:25Z</time></trkpt>
<trkpt lat="46.41405397" lon="6.23392699"><ele>1430.578979</ele><time>2008-08-01T13:02:38Z</time></trkpt>
<trkpt lat="46.41377100" lon="6.23421298"><ele>1429.618042</ele><time>2008-08-01T13:02:49Z</time></trkpt>
<trkpt lat="46.41341804" lon="6.23445002"><ele>1429.618042</ele><time>2008-08-01T13:02:59Z</time></trkpt>
<trkpt lat="46.41337303" lon="6.23446796"><ele>1429.136963</ele><time>2008-08-01T13:03:00Z</time></trkpt>
<trkpt lat="46.41294102" lon="6.23457299"><ele>1429.136963</ele><time>2008-08-01T13:03:09Z</time></trkpt>
<trkpt lat="46.41258001" lon="6.23463401"><ele>1429.136963</ele><time>2008-08-01T13:03:17Z</time></trkpt>
<trkpt lat="46.41253701" lon="6.23464096"><ele>1428.656006</ele><time>2008-08-01T13:03:18Z</time></trkpt>
<trkpt lat="46.41233602" lon="6.23459998"><ele>1429.136963</ele><time>2008-08-01T13:03:23Z</time></trkpt>
<trkpt lat="46.41196797" lon="6.23433301"><ele>1429.136963</ele><time>2008-08-01T13:03:32Z</time></trkpt>
<trkpt lat="46.41164702" lon="6.23398701"><ele>1428.656006</ele><time>2008-08-01T13:03:41Z</time></trkpt>
<trkpt lat="46.41137101" lon="6.23363899"><ele>1428.656006</ele><time>2008-08-01T13:03:50Z</time></trkpt>
<trkpt lat="46.41108803" lon="6.23326700"><ele>1428.176025</ele><time>2008-08-01T13:04:00Z</time></trkpt>
<trkpt lat="46.41079601" lon="6.23287800"><ele>1428.176025</ele><time>2008-08-01T13:04:10Z</time></trkpt>
<trkpt lat="46.41053600" lon="6.23251799"><ele>1428.176025</ele><time>2008-08-01T13:04:19Z</time></trkpt>
<trkpt lat="46.41026099" lon="6.23212396"><ele>1427.694946</ele><time>2008-08-01T13:04:29Z</time></trkpt>
<trkpt lat="46.40999302" lon="6.23176597"><ele>1427.694946</ele><time>2008-08-01T13:04:41Z</time></trkpt>
<trkpt lat="46.40989898" lon="6.23172699"><ele>1427.694946</ele><time>2008-08-01T13:04:47Z</time></trkpt>
<trkpt lat="46.40963403" lon="6.23209697"><ele>1427.214966</ele><time>2008-08-01T13:05:00Z</time></trkpt>
<trkpt lat="46.40937997" lon="6.23248497"><ele>1427.214966</ele><time>2008-08-01T13:05:12Z</time></trkpt>
<trkpt lat="46.40906699" lon="6.23277498"><ele>1426.734009</ele><time>2008-08-01T13:05:25Z</time></trkpt>
<trkpt lat="46.40868402" lon="6.23281999"><ele>1426.253052</ele><time>2008-08-01T13:05:38Z</time></trkpt>
<trkpt lat="46.40831304" lon="6.23274003"><ele>1425.771973</ele><time>2008-08-01T13:05:50Z</time></trkpt>
<trkpt lat="46.40801297" lon="6.23268002"><ele>1425.771973</ele><time>2008-08-01T13:06:01Z</time></trkpt>
<trkpt lat="46.40790098" lon="6.23268597"><ele>1425.771973</ele><time>2008-08-01T13:06:06Z</time></trkpt>
<trkpt lat="46.40752497" lon="6.23256200"><ele>1425.291992</ele><time>2008-08-01T13:06:17Z</time></trkpt>
<trkpt lat="46.40743998" lon="6.23237701"><ele>1425.291992</ele><time>2008-08-01T13:06:21Z</time></trkpt>
<trkpt lat="46.40752003" lon="6.23184803"><ele>1424.811035</ele><time>2008-08-01T13:06:32Z</time></trkpt>
<trkpt lat="46.40755397" lon="6.23164804"><ele>1424.331055</ele><time>2008-08-01T13:06:36Z</time></trkpt>
<trkpt lat="46.40755498" lon="6.23152298"><ele>1424.811035</ele><time>2008-08-01T13:06:38Z</time></trkpt>
<trkpt lat="46.40755397" lon="6.23136800"><ele>1424.331055</ele><time>2008-08-01T13:06:40Z</time></trkpt>
<trkpt lat="46.40745398" lon="6.23104001"><ele>1424.331055</ele><time>2008-08-01T13:06:44Z</time></trkpt>
<trkpt lat="46.40729397" lon="6.23082099"><ele>1423.849976</ele><time>2008-08-01T13:06:47Z</time></trkpt>
<trkpt lat="46.40686800" lon="6.23048496"><ele>1423.369019</ele><time>2008-08-01T13:06:53Z</time></trkpt>
<trkpt lat="46.40653297" lon="6.23029696"><ele>1422.889038</ele><time>2008-08-01T13:06:58Z</time></trkpt>
<trkpt lat="46.40627196" lon="6.22992598"><ele>1422.407959</ele><time>2008-08-01T13:07:03Z</time></trkpt>
<trkpt lat="46.40615000" lon="6.22964996"><ele>1422.407959</ele><time>2008-08-01T13:07:06Z</time></trkpt>
<trkpt lat="46.40607599" lon="6.22952297"><ele>1422.407959</ele><time>2008-08-01T13:07:08Z</time></trkpt>
<trkpt lat="46.40614104" lon="6.22922298"><ele>1421.927002</ele><time>2008-08-01T13:07:13Z</time></trkpt>
<trkpt lat="46.40637397" lon="6.22904998"><ele>1422.407959</ele><time>2008-08-01T13:07:18Z</time></trkpt>
<trkpt lat="46.40646600" lon="6.22899198"><ele>1422.407959</ele><time>2008-08-01T13:07:20Z</time></trkpt>
<trkpt lat="46.40649199" lon="6.22862997"><ele>1422.889038</ele><time>2008-08-01T13:07:26Z</time></trkpt>
<trkpt lat="46.40630398" lon="6.22814398"><ele>1422.889038</ele><time>2008-08-01T13:07:34Z</time></trkpt>
<trkpt lat="46.40614003" lon="6.22773796"><ele>1422.889038</ele><time>2008-08-01T13:07:41Z</time></trkpt>
<trkpt lat="46.40592000" lon="6.22727101"><ele>1422.889038</ele><time>2008-08-01T13:07:49Z</time></trkpt>
<trkpt lat="46.40573703" lon="6.22692400"><ele>1423.369019</ele><time>2008-08-01T13:07:55Z</time></trkpt>
<trkpt lat="46.40541399" lon="6.22650004"><ele>1422.407959</ele><time>2008-08-01T13:08:04Z</time></trkpt>
<trkpt lat="46.40509003" lon="6.22619402"><ele>1422.889038</ele><time>2008-08-01T13:08:13Z</time></trkpt>
<trkpt lat="46.40476598" lon="6.22589403"><ele>1422.407959</ele><time>2008-08-01T13:08:25Z</time></trkpt>
<trkpt lat="46.40445803" lon="6.22557904"><ele>1421.447021</ele><time>2008-08-01T13:08:37Z</time></trkpt>
<trkpt lat="46.40418101" lon="6.22523203"><ele>1421.447021</ele><time>2008-08-01T13:08:49Z</time></trkpt>
<trkpt lat="46.40390600" lon="6.22487403"><ele>1420.965942</ele><time>2008-08-01T13:09:00Z</time></trkpt>
<trkpt lat="46.40362001" lon="6.22449903"><ele>1420.484985</ele><time>2008-08-01T13:09:12Z</time></trkpt>
<trkpt lat="46.40341801" lon="6.22423902"><ele>1420.005005</ele><time>2008-08-01T13:09:20Z</time></trkpt>
<trkpt lat="46.40323402" lon="6.22399502"><ele>1420.005005</ele><time>2008-08-01T13:09:27Z</time></trkpt>
<trkpt lat="46.40311399" lon="6.22383602"><ele>1420.005005</ele><time>2008-08-01T13:09:32Z</time></trkpt>
<trkpt lat="46.40302397" lon="6.22371398"><ele>1420.005005</ele><time>2008-08-01T13:09:36Z</time></trkpt>
<trkpt lat="46.40283898" lon="6.22346998"><ele>1419.524048</ele><time>2008-08-01T13:09:44Z</time></trkpt>
<trkpt lat="46.40271803" lon="6.22341600"><ele>1420.005005</ele><time>2008-08-01T13:09:48Z</time></trkpt>
<trkpt lat="46.40235703" lon="6.22360904"><ele>1419.042969</ele><time>2008-08-01T13:09:55Z</time></trkpt>
<trkpt lat="46.40219199" lon="6.22369403"><ele>1419.042969</ele><time>2008-08-01T13:09:58Z</time></trkpt>
<trkpt lat="46.40200398" lon="6.22362404"><ele>1418.562012</ele><time>2008-08-01T13:10:02Z</time></trkpt>
<trkpt lat="46.40176300" lon="6.22321199"><ele>1418.562012</ele><time>2008-08-01T13:10:08Z</time></trkpt>
<trkpt lat="46.40150903" lon="6.22322104"><ele>1417.600952</ele><time>2008-08-01T13:10:14Z</time></trkpt>
<trkpt lat="46.40116001" lon="6.22365396"><ele>1417.120972</ele><time>2008-08-01T13:10:22Z</time></trkpt>
<trkpt lat="46.40084703" lon="6.22403903"><ele>1417.120972</ele><time>2008-08-01T13:10:29Z</time></trkpt>
<trkpt lat="46.40053396" lon="6.22444103"><ele>1416.640015</ele><time>2008-08-01T13:10:36Z</time></trkpt>
<trkpt lat="46.40044101" lon="6.22454597"><ele>1416.640015</ele><time>2008-08-01T13:10:38Z</time></trkpt>
<trkpt lat="46.40022903" lon="6.22457396"><ele>1416.159058</ele><time>2008-08-01T13:10:42Z</time></trkpt>
<trkpt lat="46.39979501" lon="6.22433600"><ele>1415.197998</ele><time>2008-08-01T13:10:50Z</time></trkpt>
<trkpt lat="46.39942998" lon="6.22412402"><ele>1414.717041</ele><time>2008-08-01T13:10:57Z</time></trkpt>
<trkpt lat="46.39921197" lon="6.22404196"><ele>1414.717041</ele><time>2008-08-01T13:11:01Z</time></trkpt>
<trkpt lat="46.39878700" lon="6.22411698"><ele>1414.237061</ele><time>2008-08-01T13:11:09Z</time></trkpt>
<trkpt lat="46.39838501" lon="6.22413903"><ele>1413.755981</ele><time>2008-08-01T13:11:17Z</time></trkpt>
<trkpt lat="46.39817798" lon="6.22407096"><ele>1414.237061</ele><time>2008-08-01T13:11:21Z</time></trkpt>
<trkpt lat="46.39803699" lon="6.22398304"><ele>1414.237061</ele><time>2008-08-01T13:11:24Z</time></trkpt>
<trkpt lat="46.39784303" lon="6.22383602"><ele>1414.717041</ele><time>2008-08-01T13:11:29Z</time></trkpt>
<trkpt lat="46.39768202" lon="6.22385303"><ele>1415.197998</ele><time>2008-08-01T13:11:33Z</time></trkpt>
<trkpt lat="46.39752402" lon="6.22399301"><ele>1415.197998</ele><time>2008-08-01T13:11:38Z</time></trkpt>
<trkpt lat="46.39744003" lon="6.22408697"><ele>1415.678955</ele><time>2008-08-01T13:11:41Z</time></trkpt>
<trkpt lat="46.39735202" lon="6.22417398"><ele>1415.678955</ele><time>2008-08-01T13:11:44Z</time></trkpt>
<trkpt lat="46.39732403" lon="6.22419502"><ele>1415.197998</ele><time>2008-08-01T13:11:45Z</time></trkpt>
<trkpt lat="46.39727701" lon="6.22421304"><ele>1415.678955</ele><time>2008-08-01T13:11:47Z</time></trkpt>
<trkpt lat="46.39719503" lon="6.22421002"><ele>1415.678955</ele><time>2008-08-01T13:11:51Z</time></trkpt>
<trkpt lat="46.39692304" lon="6.22461696"><ele>1415.197998</ele><time>2008-08-01T13:12:01Z</time></trkpt>
<trkpt lat="46.39668600" lon="6.22502902"><ele>1414.237061</ele><time>2008-08-01T13:12:08Z</time></trkpt>
<trkpt lat="46.39646698" lon="6.22540704"><ele>1413.755981</ele><time>2008-08-01T13:12:14Z</time></trkpt>
<trkpt lat="46.39628601" lon="6.22572698"><ele>1413.755981</ele><time>2008-08-01T13:12:19Z</time></trkpt>
<trkpt lat="46.39621200" lon="6.22585002"><ele>1413.755981</ele><time>2008-08-01T13:12:21Z</time></trkpt>
<trkpt lat="46.39603900" lon="6.22615303"><ele>1412.795044</ele><time>2008-08-01T13:12:26Z</time></trkpt>
<trkpt lat="46.39579500" lon="6.22656902"><ele>1412.795044</ele><time>2008-08-01T13:12:33Z</time></trkpt>
<trkpt lat="46.39568503" lon="6.22675904"><ele>1412.313965</ele><time>2008-08-01T13:12:36Z</time></trkpt>
<trkpt lat="46.39551102" lon="6.22706003"><ele>1412.313965</ele><time>2008-08-01T13:12:41Z</time></trkpt>
<trkpt lat="46.39540801" lon="6.22730202"><ele>1411.833008</ele><time>2008-08-01T13:12:45Z</time></trkpt>
<trkpt lat="46.39515102" lon="6.22776001"><ele>1411.833008</ele><time>2008-08-01T13:12:54Z</time></trkpt>
<trkpt lat="46.39489998" lon="6.22819603"><ele>1410.871948</ele><time>2008-08-01T13:13:02Z</time></trkpt>
<trkpt lat="46.39464400" lon="6.22864204"><ele>1410.871948</ele><time>2008-08-01T13:13:09Z</time></trkpt>
<trkpt lat="46.39439397" lon="6.22912399"><ele>1409.911011</ele><time>2008-08-01T13:13:15Z</time></trkpt>
<trkpt lat="46.39416204" lon="6.22959497"><ele>1409.911011</ele><time>2008-08-01T13:13:20Z</time></trkpt>
<trkpt lat="46.39392500" lon="6.23006503"><ele>1409.430054</ele><time>2008-08-01T13:13:25Z</time></trkpt>
<trkpt lat="46.39367698" lon="6.23048798"><ele>1409.430054</ele><time>2008-08-01T13:13:30Z</time></trkpt>
<trkpt lat="46.39338302" lon="6.23082200"><ele>1408.948975</ele><time>2008-08-01T13:13:35Z</time></trkpt>
<trkpt lat="46.39299100" lon="6.23104697"><ele>1408.468994</ele><time>2008-08-01T13:13:41Z</time></trkpt>
<trkpt lat="46.39260401" lon="6.23117899"><ele>1407.988037</ele><time>2008-08-01T13:13:47Z</time></trkpt>
<trkpt lat="46.39222104" lon="6.23128602"><ele>1407.508057</ele><time>2008-08-01T13:13:53Z</time></trkpt>
<trkpt lat="46.39189096" lon="6.23137504"><ele>1406.546021</ele><time>2008-08-01T13:13:58Z</time></trkpt>
<trkpt lat="46.39150104" lon="6.23148903"><ele>1407.508057</ele><time>2008-08-01T13:14:04Z</time></trkpt>
<trkpt lat="46.39111999" lon="6.23159397"><ele>1407.508057</ele><time>2008-08-01T13:14:10Z</time></trkpt>
<trkpt lat="46.39075002" lon="6.23169296"><ele>1406.546021</ele><time>2008-08-01T13:14:16Z</time></trkpt>
<trkpt lat="46.39042798" lon="6.23174300"><ele>1406.064941</ele><time>2008-08-01T13:14:23Z</time></trkpt>
<trkpt lat="46.39023000" lon="6.23174200"><ele>1405.584961</ele><time>2008-08-01T13:14:29Z</time></trkpt>
<trkpt lat="46.39006304" lon="6.23186999"><ele>1405.584961</ele><time>2008-08-01T13:14:35Z</time></trkpt>
<trkpt lat="46.38990797" lon="6.23197099"><ele>1404.624023</ele><time>2008-08-01T13:14:39Z</time></trkpt>
<trkpt lat="46.38953699" lon="6.23215104"><ele>1404.142944</ele><time>2008-08-01T13:14:47Z</time></trkpt>
<trkpt lat="46.38918302" lon="6.23232496"><ele>1403.18103</ele><time>2008-08-01T13:14:54Z</time></trkpt>
<trkpt lat="46.38883098" lon="6.23249302"><ele>1403.18103</ele><time>2008-08-01T13:15:01Z</time></trkpt>
<trkpt lat="46.38848699" lon="6.23266703"><ele>1403.661987</ele><time>2008-08-01T13:15:08Z</time></trkpt>
<trkpt lat="46.38814098" lon="6.23284003"><ele>1403.661987</ele><time>2008-08-01T13:15:15Z</time></trkpt>
<trkpt lat="46.38778903" lon="6.23301999"><ele>1404.142944</ele><time>2008-08-01T13:15:22Z</time></trkpt>
<trkpt lat="46.38742500" lon="6.23323297"><ele>1404.142944</ele><time>2008-08-01T13:15:29Z</time></trkpt>
<trkpt lat="46.38711001" lon="6.23349197"><ele>1404.142944</ele><time>2008-08-01T13:15:35Z</time></trkpt>
<trkpt lat="46.38678898" lon="6.23380302"><ele>1403.661987</ele><time>2008-08-01T13:15:41Z</time></trkpt>
<trkpt lat="46.38639797" lon="6.23419203"><ele>1404.142944</ele><time>2008-08-01T13:15:48Z</time></trkpt>
<trkpt lat="46.38613704" lon="6.23440702"><ele>1404.142944</ele><time>2008-08-01T13:15:53Z</time></trkpt>
<trkpt lat="46.38577402" lon="6.23471104"><ele>1404.624023</ele><time>2008-08-01T13:16:03Z</time></trkpt>
<trkpt lat="46.38543698" lon="6.23497004"><ele>1404.624023</ele><time>2008-08-01T13:16:10Z</time></trkpt>
<trkpt lat="46.38523397" lon="6.23511999"><ele>1404.624023</ele><time>2008-08-01T13:16:13Z</time></trkpt>
<trkpt lat="46.38477104" lon="6.23518998"><ele>1404.142944</ele><time>2008-08-01T13:16:19Z</time></trkpt>
<trkpt lat="46.38469996" lon="6.23517699"><ele>1404.142944</ele><time>2008-08-01T13:16:20Z</time></trkpt>
<trkpt lat="46.38430199" lon="6.23516802"><ele>1402.219971</ele><time>2008-08-01T13:16:32Z</time></trkpt>
<trkpt lat="46.38419000" lon="6.23526701"><ele>1401.73999</ele><time>2008-08-01T13:16:37Z</time></trkpt>
<trkpt lat="46.38414499" lon="6.23519501"><ele>1401.259033</ele><time>2008-08-01T13:16:46Z</time></trkpt>
<trkpt lat="46.38412999" lon="6.23518897"><ele>1401.259033</ele><time>2008-08-01T13:16:48Z</time></trkpt>
<trkpt lat="46.38407702" lon="6.23521504"><ele>1399.817017</ele><time>2008-08-01T13:17:10Z</time></trkpt>
<trkpt lat="46.38407299" lon="6.23541696"><ele>1397.894043</ele><time>2008-08-01T13:17:26Z</time></trkpt>
<trkpt lat="46.38395397" lon="6.23545904"><ele>1397.41394</ele><time>2008-08-01T13:17:31Z</time></trkpt>
<trkpt lat="46.38389404" lon="6.23546398"><ele>1396.932983</ele><time>2008-08-01T13:17:40Z</time></trkpt>
<trkpt lat="46.38390804" lon="6.23560103"><ele>1396.932983</ele><time>2008-08-01T13:17:46Z</time></trkpt>
<trkpt lat="46.38393704" lon="6.23565702"><ele>1396.452026</ele><time>2008-08-01T13:17:48Z</time></trkpt>
</trkseg></trk></gpx>